<?xml version='1.0' encoding='UTF-8'?><gpx version="1.1" creator="JPX - https://github.com/jenetics/jpx" xmlns="http://www.topografix.com/GPX/1/1"><trk><trkseg><trkpt lat="44.46786988077642" lon="11.090054492934293"><ele>252.83333333333334</ele><time>2026-03-22T10:43:28Z</time></trkpt><trkpt lat="44.46796739528669" lon="11.090018601924784"><ele>253.66666666666669</ele><time>2026-03-22T10:43:30Z</time></trkpt><trkpt lat="44.46807135780731" lon="11.090031313055041"><ele>254.5</ele><time>2026-03-22T10:43:32Z</time></trkpt><trkpt lat="44.46814560720024" lon="11.090068230868408"><ele>255.33333333333334</ele><time>2026-03-22T10:43:33Z</time></trkpt><trkpt lat="44.46821866604707" lon="11.090103555028096"><ele>256.1666666666667</ele><time>2026-03-22T10:43:34Z</time></trkpt><trkpt lat="44.46829762168452" lon="11.090142756531607"><ele>257.0</ele><time>2026-03-22T10:43:35Z</time></trkpt><trkpt lat="44.46836183849541" lon="11.090174716938197"><ele>257.0</ele><time>2026-03-22T10:43:36Z</time></trkpt><trkpt lat="44.46842274130087" lon="11.090201690737462"><ele>257.0</ele><time>2026-03-22T10:43:37Z</time></trkpt><trkpt lat="44.46847395027628" lon="11.090253580406927"><ele>257.0</ele><time>2026-03-22T10:43:37.999Z</time></trkpt><trkpt lat="44.46856090335593" lon="11.090371443233423"><ele>257.0</ele><time>2026-03-22T10:43:39.999Z</time></trkpt><trkpt lat="44.46864794385375" lon="11.090514351126702"><ele>257.0</ele><time>2026-03-22T10:43:41.999Z</time></trkpt><trkpt lat="44.468703529032716" lon="11.090626773017904"><ele>257.0</ele><time>2026-03-22T10:43:42.999Z</time></trkpt><trkpt lat="44.46875314560465" lon="11.090726487828682"><ele>257.0</ele><time>2026-03-22T10:43:43.999Z</time></trkpt><trkpt lat="44.46879989904987" lon="11.090818051064394"><ele>257.0</ele><time>2026-03-22T10:43:44.999Z</time></trkpt><trkpt lat="44.468845636307776" lon="11.09090653506995"><ele>257.0</ele><time>2026-03-22T10:43:45.999Z</time></trkpt><trkpt lat="44.468889893741924" lon="11.090988118316702"><ele>257.0</ele><time>2026-03-22T10:43:46.999Z</time></trkpt><trkpt lat="44.46894838610349" lon="11.09105597703372"><ele>257.0</ele><time>2026-03-22T10:43:47.999Z</time></trkpt><trkpt lat="44.46899759360079" lon="11.091133546121046"><ele>255.2</ele><time>2026-03-22T10:43:48.999Z</time></trkpt><trkpt lat="44.469053711662056" lon="11.091210825140006"><ele>253.39999999999998</ele><time>2026-03-22T10:43:49.999Z</time></trkpt><trkpt lat="44.469129992075715" lon="11.091277478087772"><ele>251.60000000000002</ele><time>2026-03-22T10:43:50.999Z</time></trkpt><trkpt lat="44.46922271062729" lon="11.091316626761767"><ele>249.8</ele><time>2026-03-22T10:43:51.999Z</time></trkpt><trkpt lat="44.46932827765644" lon="11.091352938101254"><ele>248.0</ele><time>2026-03-22T10:43:52.999Z</time></trkpt><trkpt lat="44.46943117041941" lon="11.091366800492324"><ele>248.00000000000003</ele><time>2026-03-22T10:43:53.999Z</time></trkpt><trkpt lat="44.469528363722254" lon="11.091391008723983"><ele>248.0</ele><time>2026-03-22T10:43:54.999Z</time></trkpt><trkpt lat="44.469619895478544" lon="11.091400023372477"><ele>248.0</ele><time>2026-03-22T10:43:55.999Z</time></trkpt><trkpt lat="44.46969441147485" lon="11.091408779480282"><ele>248.0</ele><time>2026-03-22T10:43:56.999Z</time></trkpt><trkpt lat="44.469780733147935" lon="11.09142790700382"><ele>248.00000000000003</ele><time>2026-03-22T10:43:57.999Z</time></trkpt><trkpt lat="44.4698627869973" lon="11.091457294804652"><ele>248.0</ele><time>2026-03-22T10:43:58.999Z</time></trkpt><trkpt lat="44.469952024123415" lon="11.091493456695035"><ele>249.16666666666669</ele><time>2026-03-22T10:43:59.999Z</time></trkpt><trkpt lat="44.47004547346373" lon="11.091527493275086"><ele>250.33333333333334</ele><time>2026-03-22T10:44:00.999Z</time></trkpt><trkpt lat="44.470125194370816" lon="11.091581824415048"><ele>251.5</ele><time>2026-03-22T10:44:01.999Z</time></trkpt><trkpt lat="44.47020622177338" lon="11.091624779217428"><ele>252.66666666666669</ele><time>2026-03-22T10:44:02.999Z</time></trkpt><trkpt lat="44.470289476227045" lon="11.09166810699467"><ele>253.83333333333334</ele><time>2026-03-22T10:44:03.999Z</time></trkpt><trkpt lat="44.4703560321544" lon="11.091728039619838"><ele>255.0</ele><time>2026-03-22T10:44:04.999Z</time></trkpt><trkpt lat="44.47042626654423" lon="11.09175878898548"><ele>251.16666666666666</ele><time>2026-03-22T10:44:05.999Z</time></trkpt><trkpt lat="44.470483444866126" lon="11.091806118723879"><ele>247.33333333333331</ele><time>2026-03-22T10:44:06.999Z</time></trkpt><trkpt lat="44.4705165155087" lon="11.091902411847247"><ele>243.5</ele><time>2026-03-22T10:44:07.999Z</time></trkpt><trkpt lat="44.47052305417178" lon="11.092008187148025"><ele>239.66666666666666</ele><time>2026-03-22T10:44:08.999Z</time></trkpt><trkpt lat="44.47049465288115" lon="11.092137736369583"><ele>235.83333333333331</ele><time>2026-03-22T10:44:09.999Z</time></trkpt><trkpt lat="44.470510610706896" lon="11.092272416114994"><ele>232.0</ele><time>2026-03-22T10:44:10.999Z</time></trkpt><trkpt lat="44.47053456510877" lon="11.092376484815233"><ele>234.16666666666666</ele><time>2026-03-22T10:44:11.999Z</time></trkpt><trkpt lat="44.47058274039279" lon="11.092476649553035"><ele>236.33333333333331</ele><time>2026-03-22T10:44:12.999Z</time></trkpt><trkpt lat="44.47063857735968" lon="11.092547749546712"><ele>238.5</ele><time>2026-03-22T10:44:13.999Z</time></trkpt><trkpt lat="44.470702274230874" lon="11.09262561582919"><ele>240.66666666666669</ele><time>2026-03-22T10:44:14.999Z</time></trkpt><trkpt lat="44.470758924811626" lon="11.092678815659745"><ele>242.83333333333334</ele><time>2026-03-22T10:44:15.999Z</time></trkpt><trkpt lat="44.470853894339776" lon="11.092724407307099"><ele>245.0</ele><time>2026-03-22T10:44:16.999Z</time></trkpt><trkpt lat="44.47091289510963" lon="11.092781084776545"><ele>245.00000000000003</ele><time>2026-03-22T10:44:17.999Z</time></trkpt><trkpt lat="44.47096849611697" lon="11.09283531420922"><ele>245.0</ele><time>2026-03-22T10:44:18.999Z</time></trkpt><trkpt lat="44.47101173201087" lon="11.092904947787371"><ele>245.0</ele><time>2026-03-22T10:44:19.999Z</time></trkpt><trkpt lat="44.47105988332338" lon="11.093004958027839"><ele>245.0</ele><time>2026-03-22T10:44:20.999Z</time></trkpt><trkpt lat="44.471102036493555" lon="11.093106300884122"><ele>245.00000000000003</ele><time>2026-03-22T10:44:21.999Z</time></trkpt><trkpt lat="44.47110712366862" lon="11.093194686764537"><ele>245.0</ele><time>2026-03-22T10:44:22.999Z</time></trkpt><trkpt lat="44.47115659466519" lon="11.093300775254386"><ele>245.33333333333334</ele><time>2026-03-22T10:44:23.999Z</time></trkpt><trkpt lat="44.471179949073246" lon="11.093399136241612"><ele>245.66666666666669</ele><time>2026-03-22T10:44:24.999Z</time></trkpt><trkpt lat="44.471188135424" lon="11.093502755208812"><ele>246.0</ele><time>2026-03-22T10:44:25.999Z</time></trkpt><trkpt lat="44.47118565217484" lon="11.093611722534346"><ele>246.33333333333331</ele><time>2026-03-22T10:44:26.999Z</time></trkpt><trkpt lat="44.47115642035365" lon="11.093747559096641"><ele>246.66666666666666</ele><time>2026-03-22T10:44:28.999Z</time></trkpt><trkpt lat="44.471075777382396" lon="11.093869916358669"><ele>247.0</ele><time>2026-03-22T10:44:30.999Z</time></trkpt><trkpt lat="44.47101835374779" lon="11.09394305280634"><ele>247.0</ele><time>2026-03-22T10:44:31.999Z</time></trkpt><trkpt lat="44.47096117616912" lon="11.09401724884234"><ele>247.0</ele><time>2026-03-22T10:44:32.999Z</time></trkpt><trkpt lat="44.47091005211048" lon="11.09408306140936"><ele>247.0</ele><time>2026-03-22T10:44:33.999Z</time></trkpt><trkpt lat="44.47086137969699" lon="11.094145717932735"><ele>247.0</ele><time>2026-03-22T10:44:34.999Z</time></trkpt><trkpt lat="44.47076456596465" lon="11.094249303032015"><ele>247.0</ele><time>2026-03-22T10:44:36.999Z</time></trkpt><trkpt lat="44.470639588905385" lon="11.094294576470094"><ele>245.0</ele><time>2026-03-22T10:44:38.999Z</time></trkpt><trkpt lat="44.470542697391195" lon="11.094298666088518"><ele>243.0</ele><time>2026-03-22T10:44:39.999Z</time></trkpt><trkpt lat="44.47044835981259" lon="11.09430270540075"><ele>241.0</ele><time>2026-03-22T10:44:40.999Z</time></trkpt><trkpt lat="44.47035128988523" lon="11.094304241969818"><ele>239.0</ele><time>2026-03-22T10:44:41.999Z</time></trkpt><trkpt lat="44.470249115810944" lon="11.09432429044285"><ele>237.0</ele><time>2026-03-22T10:44:42.999Z</time></trkpt><trkpt lat="44.470147567289494" lon="11.094303788568055"><ele>237.0</ele><time>2026-03-22T10:44:43.999Z</time></trkpt><trkpt lat="44.47004987217295" lon="11.094293497828978"><ele>237.0</ele><time>2026-03-22T10:44:44.999Z</time></trkpt><trkpt lat="44.46995087301484" lon="11.094274525562344"><ele>237.0</ele><time>2026-03-22T10:44:45.999Z</time></trkpt><trkpt lat="44.469853085457714" lon="11.094250941724423"><ele>237.0</ele><time>2026-03-22T10:44:46.999Z</time></trkpt><trkpt lat="44.469766379615685" lon="11.094229028075398"><ele>237.0</ele><time>2026-03-22T10:44:47.999Z</time></trkpt><trkpt lat="44.469679695803116" lon="11.094236143461433"><ele>239.0</ele><time>2026-03-22T10:44:48.999Z</time></trkpt><trkpt lat="44.46960462547909" lon="11.094235178865095"><ele>241.0</ele><time>2026-03-22T10:44:49.999Z</time></trkpt><trkpt lat="44.46952871923113" lon="11.094238536750234"><ele>243.0</ele><time>2026-03-22T10:44:50.999Z</time></trkpt><trkpt lat="44.469448617668554" lon="11.094233504081602"><ele>245.0</ele><time>2026-03-22T10:44:51.999Z</time></trkpt><trkpt lat="44.46936731012124" lon="11.094190786353119"><ele>247.0</ele><time>2026-03-22T10:44:52.999Z</time></trkpt><trkpt lat="44.4692891805271" lon="11.094139308978605"><ele>249.0</ele><time>2026-03-22T10:44:53.999Z</time></trkpt><trkpt lat="44.46921717297914" lon="11.094069658590145"><ele>249.0</ele><time>2026-03-22T10:44:54.999Z</time></trkpt><trkpt lat="44.46914418890036" lon="11.093974619034801"><ele>248.99999999999997</ele><time>2026-03-22T10:44:55.999Z</time></trkpt><trkpt lat="44.46907413156718" lon="11.093864861452982"><ele>248.99999999999997</ele><time>2026-03-22T10:44:56.999Z</time></trkpt><trkpt lat="44.46900327279566" lon="11.093781241335133"><ele>249.0</ele><time>2026-03-22T10:44:57.999Z</time></trkpt><trkpt lat="44.468923193328706" lon="11.093724214710393"><ele>249.0</ele><time>2026-03-22T10:44:58.999Z</time></trkpt><trkpt lat="44.46883706410125" lon="11.0936959095368"><ele>243.2</ele><time>2026-03-22T10:44:59.999Z</time></trkpt><trkpt lat="44.46875148597358" lon="11.093694545437067"><ele>237.39999999999998</ele><time>2026-03-22T10:45:00.999Z</time></trkpt><trkpt lat="44.4686818129255" lon="11.093660305665773"><ele>231.6</ele><time>2026-03-22T10:45:01.999Z</time></trkpt><trkpt lat="44.46856996399104" lon="11.093621141194701"><ele>225.8</ele><time>2026-03-22T10:45:03.999Z</time></trkpt><trkpt lat="44.468491038841385" lon="11.093472679831343"><ele>220.0</ele><time>2026-03-22T10:45:05.999Z</time></trkpt><trkpt lat="44.46844824183049" lon="11.093356176083775"><ele>225.2</ele><time>2026-03-22T10:45:06.999Z</time></trkpt><trkpt lat="44.46840872974794" lon="11.09322190108479"><ele>230.4</ele><time>2026-03-22T10:45:07.999Z</time></trkpt><trkpt lat="44.46837107952671" lon="11.09308974419313"><ele>235.60000000000002</ele><time>2026-03-22T10:45:08.999Z</time></trkpt><trkpt lat="44.4683357616729" lon="11.092968813285502"><ele>240.8</ele><time>2026-03-22T10:45:09.999Z</time></trkpt><trkpt lat="44.46829873818746" lon="11.092856973294014"><ele>246.0</ele><time>2026-03-22T10:45:10.999Z</time></trkpt><trkpt lat="44.46827143601331" lon="11.092754029460306"><ele>246.0</ele><time>2026-03-22T10:45:11.999Z</time></trkpt><trkpt lat="44.468228977809005" lon="11.092669739734637"><ele>246.0</ele><time>2026-03-22T10:45:12.999Z</time></trkpt><trkpt lat="44.468178356161175" lon="11.092599039091581"><ele>246.0</ele><time>2026-03-22T10:45:13.999Z</time></trkpt><trkpt lat="44.46811432292987" lon="11.092565777966355"><ele>246.0</ele><time>2026-03-22T10:45:14.999Z</time></trkpt><trkpt lat="44.46803440789105" lon="11.09255327651437"><ele>246.0</ele><time>2026-03-22T10:45:15.999Z</time></trkpt><trkpt lat="44.46793832018199" lon="11.092531292426855"><ele>246.0</ele><time>2026-03-22T10:45:16.999Z</time></trkpt><trkpt lat="44.46784128036261" lon="11.09253613472483"><ele>242.60000000000002</ele><time>2026-03-22T10:45:17.999Z</time></trkpt><trkpt lat="44.46775406814679" lon="11.092530827529496"><ele>239.20000000000002</ele><time>2026-03-22T10:45:18.999Z</time></trkpt><trkpt lat="44.46767027989059" lon="11.092532794697684"><ele>235.79999999999998</ele><time>2026-03-22T10:45:19.999Z</time></trkpt><trkpt lat="44.4675786079597" lon="11.092492389361372"><ele>232.39999999999998</ele><time>2026-03-22T10:45:20.999Z</time></trkpt><trkpt lat="44.46749681368647" lon="11.092431905211624"><ele>229.0</ele><time>2026-03-22T10:45:21.999Z</time></trkpt><trkpt lat="44.46741304968698" lon="11.092352819605676"><ele>229.0</ele><time>2026-03-22T10:45:22.999Z</time></trkpt><trkpt lat="44.46734160720541" lon="11.092279083855416"><ele>228.99999999999997</ele><time>2026-03-22T10:45:23.999Z</time></trkpt><trkpt lat="44.467286217430505" lon="11.09221839345981"><ele>228.99999999999997</ele><time>2026-03-22T10:45:24.999Z</time></trkpt><trkpt lat="44.4671945739469" lon="11.092166366999662"><ele>229.0</ele><time>2026-03-22T10:45:26.999Z</time></trkpt><trkpt lat="44.467082200936716" lon="11.092231638589867"><ele>229.0</ele><time>2026-03-22T10:45:28.999Z</time></trkpt><trkpt lat="44.46706562354858" lon="11.092355484099292"><ele>224.25</ele><time>2026-03-22T10:45:29.999Z</time></trkpt><trkpt lat="44.46718148634461" lon="11.092505139529615"><ele>219.5</ele><time>2026-03-22T10:45:30.999Z</time></trkpt><trkpt lat="44.46726185947554" lon="11.092638548359432"><ele>214.75</ele><time>2026-03-22T10:45:31.999Z</time></trkpt><trkpt lat="44.467342796010364" lon="11.09278881634872"><ele>210.0</ele><time>2026-03-22T10:45:32.999Z</time></trkpt><trkpt lat="44.46742003317238" lon="11.092937518327737"><ele>210.0</ele><time>2026-03-22T10:45:33.999Z</time></trkpt><trkpt lat="44.46748495197155" lon="11.093055116675648"><ele>210.0</ele><time>2026-03-22T10:45:34.999Z</time></trkpt><trkpt lat="44.46754789132334" lon="11.093149635463202"><ele>210.0</ele><time>2026-03-22T10:45:35.999Z</time></trkpt><trkpt lat="44.46763199262024" lon="11.09319293013524"><ele>210.0</ele><time>2026-03-22T10:45:36.999Z</time></trkpt><trkpt lat="44.4676958620507" lon="11.093273403628835"><ele>210.0</ele><time>2026-03-22T10:45:37.999Z</time></trkpt><trkpt lat="44.46775511936156" lon="11.093346761535226"><ele>206.5</ele><time>2026-03-22T10:45:38.999Z</time></trkpt><trkpt lat="44.46779491524004" lon="11.09343035664954"><ele>203.0</ele><time>2026-03-22T10:45:39.999Z</time></trkpt><trkpt lat="44.4678067879754" lon="11.093521334572774"><ele>199.5</ele><time>2026-03-22T10:45:40.999Z</time></trkpt><trkpt lat="44.46782644470351" lon="11.09362006641283"><ele>196.0</ele><time>2026-03-22T10:45:41.999Z</time></trkpt><trkpt lat="44.467851246427706" lon="11.09373205336077"><ele>192.5</ele><time>2026-03-22T10:45:42.999Z</time></trkpt><trkpt lat="44.46788104184581" lon="11.093831512768809"><ele>189.0</ele><time>2026-03-22T10:45:43.999Z</time></trkpt><trkpt lat="44.467923895844436" lon="11.09397719720358"><ele>189.0</ele><time>2026-03-22T10:45:45.999Z</time></trkpt><trkpt lat="44.46786870117904" lon="11.094051164462831"><ele>189.0</ele><time>2026-03-22T10:45:49.999Z</time></trkpt><trkpt lat="44.46778054206217" lon="11.093904022667907"><ele>189.0</ele><time>2026-03-22T10:45:51.999Z</time></trkpt><trkpt lat="44.46775276808366" lon="11.093815711053502"><ele>189.0</ele><time>2026-03-22T10:45:52.999Z</time></trkpt><trkpt lat="44.46772006932028" lon="11.09373066262373"><ele>189.0</ele><time>2026-03-22T10:45:53.999Z</time></trkpt><trkpt lat="44.46764280293065" lon="11.093580100830096"><ele>189.0</ele><time>2026-03-22T10:45:55.999Z</time></trkpt><trkpt lat="44.467566928670635" lon="11.093534665270642"><ele>189.0</ele><time>2026-03-22T10:45:56.999Z</time></trkpt><trkpt lat="44.467478260151374" lon="11.093493300038599"><ele>189.0</ele><time>2026-03-22T10:45:57.999Z</time></trkpt><trkpt lat="44.46739745762813" lon="11.093458114338478"><ele>189.0</ele><time>2026-03-22T10:45:58.999Z</time></trkpt><trkpt lat="44.46731120586482" lon="11.093422057811061"><ele>189.0</ele><time>2026-03-22T10:45:59.999Z</time></trkpt><trkpt lat="44.467229883777016" lon="11.093405713429389"><ele>189.0</ele><time>2026-03-22T10:46:00.999Z</time></trkpt><trkpt lat="44.4671472596549" lon="11.093377494818844"><ele>186.0</ele><time>2026-03-22T10:46:01.999Z</time></trkpt><trkpt lat="44.46706962079288" lon="11.093386202800696"><ele>183.0</ele><time>2026-03-22T10:46:02.999Z</time></trkpt><trkpt lat="44.46699356861641" lon="11.093387062760383"><ele>180.0</ele><time>2026-03-22T10:46:03.999Z</time></trkpt><trkpt lat="44.46691685823432" lon="11.093426653755575"><ele>177.0</ele><time>2026-03-22T10:46:04.999Z</time></trkpt><trkpt lat="44.46685468688601" lon="11.09346123963344"><ele>174.0</ele><time>2026-03-22T10:46:05.999Z</time></trkpt><trkpt lat="44.466783955183956" lon="11.09350469647483"><ele>171.0</ele><time>2026-03-22T10:46:06.999Z</time></trkpt><trkpt lat="44.46670188856839" lon="11.093450293486606"><ele>171.0</ele><time>2026-03-22T10:46:07.999Z</time></trkpt><trkpt lat="44.466619790049236" lon="11.093375919661462"><ele>171.0</ele><time>2026-03-22T10:46:08.999Z</time></trkpt><trkpt lat="44.46652533006513" lon="11.09333606285497"><ele>171.0</ele><time>2026-03-22T10:46:09.999Z</time></trkpt><trkpt lat="44.46642230835514" lon="11.093327933719465"><ele>171.0</ele><time>2026-03-22T10:46:10.999Z</time></trkpt><trkpt lat="44.46631253144904" lon="11.093347061945646"><ele>171.0</ele><time>2026-03-22T10:46:11.999Z</time></trkpt><trkpt lat="44.46620320281417" lon="11.093348782301945"><ele>169.4</ele><time>2026-03-22T10:46:12.999Z</time></trkpt><trkpt lat="44.46610156191256" lon="11.093363303577224"><ele>167.8</ele><time>2026-03-22T10:46:13.999Z</time></trkpt><trkpt lat="44.46601328213515" lon="11.093372207301268"><ele>166.20000000000002</ele><time>2026-03-22T10:46:14.999Z</time></trkpt><trkpt lat="44.465932585598466" lon="11.093349013565222"><ele>164.60000000000002</ele><time>2026-03-22T10:46:15.999Z</time></trkpt><trkpt lat="44.46582608994755" lon="11.093314574096928"><ele>163.0</ele><time>2026-03-22T10:46:17.999Z</time></trkpt><trkpt lat="44.46569535611165" lon="11.093365229100096"><ele>163.0</ele><time>2026-03-22T10:46:19.999Z</time></trkpt><trkpt lat="44.46565327177621" lon="11.093502648654573"><ele>163.0</ele><time>2026-03-22T10:46:20.999Z</time></trkpt><trkpt lat="44.46569829422244" lon="11.093706813735475"><ele>163.0</ele><time>2026-03-22T10:46:21.999Z</time></trkpt><trkpt lat="44.465757458338366" lon="11.093867503048479"><ele>163.0</ele><time>2026-03-22T10:46:22.999Z</time></trkpt><trkpt lat="44.465816325627" lon="11.094031428133254"><ele>161.8</ele><time>2026-03-22T10:46:23.999Z</time></trkpt><trkpt lat="44.46586453764838" lon="11.094165681981268"><ele>160.60000000000002</ele><time>2026-03-22T10:46:24.999Z</time></trkpt><trkpt lat="44.46590881348085" lon="11.094295744663887"><ele>159.39999999999998</ele><time>2026-03-22T10:46:25.999Z</time></trkpt><trkpt lat="44.465944941477254" lon="11.094415462678954"><ele>158.2</ele><time>2026-03-22T10:46:26.999Z</time></trkpt><trkpt lat="44.465978448194114" lon="11.09453748961942"><ele>157.0</ele><time>2026-03-22T10:46:27.999Z</time></trkpt><trkpt lat="44.46601541249126" lon="11.094675687154542"><ele>157.0</ele><time>2026-03-22T10:46:28.999Z</time></trkpt><trkpt lat="44.46604607686062" lon="11.094816873278884"><ele>157.0</ele><time>2026-03-22T10:46:29.999Z</time></trkpt><trkpt lat="44.46605869216715" lon="11.094953242103166"><ele>157.0</ele><time>2026-03-22T10:46:30.999Z</time></trkpt><trkpt lat="44.46607458681771" lon="11.095090574515499"><ele>157.0</ele><time>2026-03-22T10:46:31.999Z</time></trkpt><trkpt lat="44.46609433804696" lon="11.095238642098138"><ele>157.0</ele><time>2026-03-22T10:46:32.999Z</time></trkpt><trkpt lat="44.46613737444884" lon="11.095399617007743"><ele>155.0</ele><time>2026-03-22T10:46:33.999Z</time></trkpt><trkpt lat="44.46619916884961" lon="11.09554812957823"><ele>153.0</ele><time>2026-03-22T10:46:34.999Z</time></trkpt><trkpt lat="44.46627260287704" lon="11.095679301540702"><ele>151.0</ele><time>2026-03-22T10:46:35.999Z</time></trkpt><trkpt lat="44.46630766920324" lon="11.095825391923675"><ele>149.0</ele><time>2026-03-22T10:46:36.999Z</time></trkpt><trkpt lat="44.466354237032824" lon="11.095974249968249"><ele>147.4</ele><time>2026-03-22T10:46:37.999Z</time></trkpt><trkpt lat="44.46639485049659" lon="11.09610429020689"><ele>145.8</ele><time>2026-03-22T10:46:38.999Z</time></trkpt><trkpt lat="44.46645195753306" lon="11.096204532053983"><ele>144.2</ele><time>2026-03-22T10:46:39.999Z</time></trkpt><trkpt lat="44.46652134456232" lon="11.096317373616959"><ele>142.6</ele><time>2026-03-22T10:46:40.999Z</time></trkpt><trkpt lat="44.466612765871204" lon="11.09643647585148"><ele>141.0</ele><time>2026-03-22T10:46:41.999Z</time></trkpt><trkpt lat="44.4667067838116" lon="11.096555097883924"><ele>140.4</ele><time>2026-03-22T10:46:42.999Z</time></trkpt><trkpt lat="44.466779259317406" lon="11.096662962572099"><ele>139.8</ele><time>2026-03-22T10:46:43.999Z</time></trkpt><trkpt lat="44.46685479344519" lon="11.09675090017498"><ele>139.20000000000002</ele><time>2026-03-22T10:46:44.999Z</time></trkpt><trkpt lat="44.4669345085787" lon="11.096833768160698"><ele>138.6</ele><time>2026-03-22T10:46:45.999Z</time></trkpt><trkpt lat="44.46705149009701" lon="11.096901212606186"><ele>138.0</ele><time>2026-03-22T10:46:46.999Z</time></trkpt><trkpt lat="44.46716701176351" lon="11.096952250225748"><ele>137.4</ele><time>2026-03-22T10:46:47.999Z</time></trkpt><trkpt lat="44.46725892059118" lon="11.097015630598605"><ele>136.8</ele><time>2026-03-22T10:46:48.999Z</time></trkpt><trkpt lat="44.467336693046" lon="11.097083332034709"><ele>136.2</ele><time>2026-03-22T10:46:49.999Z</time></trkpt><trkpt lat="44.46738098001132" lon="11.097201500526182"><ele>135.6</ele><time>2026-03-22T10:46:50.999Z</time></trkpt><trkpt lat="44.46742216550796" lon="11.097318235706892"><ele>135.0</ele><time>2026-03-22T10:46:51.999Z</time></trkpt><trkpt lat="44.46744284760276" lon="11.097450244164667"><ele>134.2</ele><time>2026-03-22T10:46:52.999Z</time></trkpt><trkpt lat="44.4674416400937" lon="11.097601752093281"><ele>133.4</ele><time>2026-03-22T10:46:53.999Z</time></trkpt><trkpt lat="44.46744378362023" lon="11.09775433302448"><ele>132.6</ele><time>2026-03-22T10:46:54.999Z</time></trkpt><trkpt lat="44.46745804078213" lon="11.097899131225399"><ele>131.8</ele><time>2026-03-22T10:46:55.999Z</time></trkpt><trkpt lat="44.46748818274547" lon="11.098017929688925"><ele>131.0</ele><time>2026-03-22T10:46:56.999Z</time></trkpt><trkpt lat="44.46755820627287" lon="11.09812229133017"><ele>131.0</ele><time>2026-03-22T10:46:57.999Z</time></trkpt><trkpt lat="44.46760843327139" lon="11.098218119791179"><ele>131.0</ele><time>2026-03-22T10:46:58.999Z</time></trkpt><trkpt lat="44.46768693349588" lon="11.098297351050466"><ele>131.0</ele><time>2026-03-22T10:46:59.999Z</time></trkpt><trkpt lat="44.46777309337579" lon="11.098365628361567"><ele>131.0</ele><time>2026-03-22T10:47:00.999Z</time></trkpt><trkpt lat="44.46786930782721" lon="11.09841093132045"><ele>131.0</ele><time>2026-03-22T10:47:01.999Z</time></trkpt><trkpt lat="44.467951709935605" lon="11.098434003653919"><ele>129.66666666666666</ele><time>2026-03-22T10:47:02.999Z</time></trkpt><trkpt lat="44.468046555952135" lon="11.098453936602631"><ele>128.33333333333331</ele><time>2026-03-22T10:47:04.998Z</time></trkpt><trkpt lat="44.46816682106255" lon="11.098484653664805"><ele>127.0</ele><time>2026-03-22T10:47:06.998Z</time></trkpt><trkpt lat="44.46824870403726" lon="11.098494828157959"><ele>125.66666666666666</ele><time>2026-03-22T10:47:07.998Z</time></trkpt><trkpt lat="44.46832418945835" lon="11.098512731084188"><ele>124.33333333333333</ele><time>2026-03-22T10:47:08.998Z</time></trkpt><trkpt lat="44.46838684422778" lon="11.09852610842601"><ele>123.0</ele><time>2026-03-22T10:47:09.998Z</time></trkpt><trkpt lat="44.46848868423277" lon="11.098548402105772"><ele>123.0</ele><time>2026-03-22T10:47:11.998Z</time></trkpt><trkpt lat="44.46855635413172" lon="11.098555666173201"><ele>123.0</ele><time>2026-03-22T10:47:12.998Z</time></trkpt><trkpt lat="44.46863528284488" lon="11.09856724513637"><ele>123.0</ele><time>2026-03-22T10:47:13.999Z</time></trkpt><trkpt lat="44.468719964826214" lon="11.098573101427718"><ele>123.0</ele><time>2026-03-22T10:47:14.999Z</time></trkpt><trkpt lat="44.468805937363506" lon="11.098583296706224"><ele>123.0</ele><time>2026-03-22T10:47:15.999Z</time></trkpt><trkpt lat="44.468898376557675" lon="11.098598436425398"><ele>123.0</ele><time>2026-03-22T10:47:16.999Z</time></trkpt><trkpt lat="44.46899564059135" lon="11.098621315385563"><ele>122.2</ele><time>2026-03-22T10:47:17.999Z</time></trkpt><trkpt lat="44.46909749729564" lon="11.09863690878785"><ele>121.4</ele><time>2026-03-22T10:47:18.999Z</time></trkpt><trkpt lat="44.46919311686609" lon="11.098673938735505"><ele>120.60000000000001</ele><time>2026-03-22T10:47:19.999Z</time></trkpt><trkpt lat="44.46928870474374" lon="11.098729325997043"><ele>119.80000000000001</ele><time>2026-03-22T10:47:20.999Z</time></trkpt><trkpt lat="44.46938105249575" lon="11.09878267101077"><ele>119.0</ele><time>2026-03-22T10:47:21.999Z</time></trkpt><trkpt lat="44.46945415526939" lon="11.098874433007866"><ele>119.0</ele><time>2026-03-22T10:47:22.999Z</time></trkpt><trkpt lat="44.469529790745504" lon="11.09895513950487"><ele>119.0</ele><time>2026-03-22T10:47:23.999Z</time></trkpt><trkpt lat="44.46960142881748" lon="11.099037691606346"><ele>119.0</ele><time>2026-03-22T10:47:24.999Z</time></trkpt><trkpt lat="44.469673799356706" lon="11.099124449064918"><ele>119.0</ele><time>2026-03-22T10:47:25.999Z</time></trkpt><trkpt lat="44.46974438698458" lon="11.099213089017034"><ele>119.0</ele><time>2026-03-22T10:47:26.999Z</time></trkpt><trkpt lat="44.46981371754684" lon="11.099300150419248"><ele>118.6</ele><time>2026-03-22T10:47:27.999Z</time></trkpt><trkpt lat="44.469896977905705" lon="11.099381907625833"><ele>118.2</ele><time>2026-03-22T10:47:28.999Z</time></trkpt><trkpt lat="44.46996188780507" lon="11.099483213944175"><ele>117.79999999999998</ele><time>2026-03-22T10:47:29.999Z</time></trkpt><trkpt lat="44.470042160964425" lon="11.099564637428756"><ele>117.39999999999999</ele><time>2026-03-22T10:47:30.999Z</time></trkpt><trkpt lat="44.470113656259585" lon="11.099658766949062"><ele>117.0</ele><time>2026-03-22T10:47:31.999Z</time></trkpt><trkpt lat="44.47018845767034" lon="11.099741828169025"><ele>117.0</ele><time>2026-03-22T10:47:32.999Z</time></trkpt><trkpt lat="44.47026267997428" lon="11.099817410106818"><ele>117.0</ele><time>2026-03-22T10:47:33.999Z</time></trkpt><trkpt lat="44.47033721915456" lon="11.099891435815174"><ele>117.0</ele><time>2026-03-22T10:47:34.999Z</time></trkpt><trkpt lat="44.4704082184484" lon="11.099961945939326"><ele>117.0</ele><time>2026-03-22T10:47:35.999Z</time></trkpt><trkpt lat="44.47047535643115" lon="11.100031071771687"><ele>117.0</ele><time>2026-03-22T10:47:36.999Z</time></trkpt><trkpt lat="44.47053805276164" lon="11.10009501349939"><ele>117.0</ele><time>2026-03-22T10:47:37.999Z</time></trkpt><trkpt lat="44.47058885755311" lon="11.10014943821934"><ele>116.5</ele><time>2026-03-22T10:47:38.999Z</time></trkpt><trkpt lat="44.47065929201051" lon="11.100227558972064"><ele>116.0</ele><time>2026-03-22T10:47:40.999Z</time></trkpt><trkpt lat="44.47073241428807" lon="11.100308660792107"><ele>115.5</ele><time>2026-03-22T10:47:49.999Z</time></trkpt><trkpt lat="44.47084901418317" lon="11.100172684792517"><ele>115.0</ele><time>2026-03-22T10:47:50.999Z</time></trkpt><trkpt lat="44.47094543117185" lon="11.100045040485808"><ele>114.75</ele><time>2026-03-22T10:47:51.999Z</time></trkpt><trkpt lat="44.47104325312587" lon="11.09989877621923"><ele>114.5</ele><time>2026-03-22T10:47:52.999Z</time></trkpt><trkpt lat="44.471133337006535" lon="11.099736490987224"><ele>114.25</ele><time>2026-03-22T10:47:53.999Z</time></trkpt><trkpt lat="44.47121517165448" lon="11.099610238569815"><ele>114.0</ele><time>2026-03-22T10:47:54.999Z</time></trkpt><trkpt lat="44.471301562418276" lon="11.099467621858897"><ele>113.75</ele><time>2026-03-22T10:47:55.999Z</time></trkpt><trkpt lat="44.471395709171" lon="11.099333135202356"><ele>113.5</ele><time>2026-03-22T10:47:56.999Z</time></trkpt><trkpt lat="44.471481620719146" lon="11.099204232279039"><ele>113.25</ele><time>2026-03-22T10:47:57.999Z</time></trkpt><trkpt lat="44.471571803631534" lon="11.099072847976386"><ele>113.0</ele><time>2026-03-22T10:47:58.999Z</time></trkpt><trkpt lat="44.47164129690063" lon="11.09894953683075"><ele>112.80000000000001</ele><time>2026-03-22T10:47:59.999Z</time></trkpt><trkpt lat="44.47171351449029" lon="11.09884850002377"><ele>112.60000000000001</ele><time>2026-03-22T10:48:00.999Z</time></trkpt><trkpt lat="44.47178491590659" lon="11.098756843708998"><ele>112.39999999999999</ele><time>2026-03-22T10:48:01.999Z</time></trkpt><trkpt lat="44.471847643945" lon="11.098656409075932"><ele>112.19999999999999</ele><time>2026-03-22T10:48:02.999Z</time></trkpt><trkpt lat="44.47191670400654" lon="11.098547366778991"><ele>112.0</ele><time>2026-03-22T10:48:03.999Z</time></trkpt><trkpt lat="44.47198520938096" lon="11.098438624571394"><ele>112.0</ele><time>2026-03-22T10:48:04.999Z</time></trkpt><trkpt lat="44.47205280192917" lon="11.098328698976639"><ele>111.99999999999999</ele><time>2026-03-22T10:48:05.999Z</time></trkpt><trkpt lat="44.472121005323714" lon="11.098213725390256"><ele>111.99999999999999</ele><time>2026-03-22T10:48:06.999Z</time></trkpt><trkpt lat="44.47219163455686" lon="11.09809756689198"><ele>112.0</ele><time>2026-03-22T10:48:07.999Z</time></trkpt><trkpt lat="44.47226870932158" lon="11.097982810632674"><ele>112.0</ele><time>2026-03-22T10:48:08.999Z</time></trkpt><trkpt lat="44.472342385484886" lon="11.097862226565145"><ele>111.75</ele><time>2026-03-22T10:48:09.999Z</time></trkpt><trkpt lat="44.47241642224303" lon="11.097729742919789"><ele>111.5</ele><time>2026-03-22T10:48:10.999Z</time></trkpt><trkpt lat="44.47250345804421" lon="11.097606198084067"><ele>111.25</ele><time>2026-03-22T10:48:11.999Z</time></trkpt><trkpt lat="44.472597660542554" lon="11.09747136806763"><ele>111.0</ele><time>2026-03-22T10:48:12.999Z</time></trkpt><trkpt lat="44.47269007992449" lon="11.097310963011434"><ele>110.66666666666666</ele><time>2026-03-22T10:48:13.999Z</time></trkpt><trkpt lat="44.4727966850492" lon="11.097154493202398"><ele>110.33333333333333</ele><time>2026-03-22T10:48:14.999Z</time></trkpt><trkpt lat="44.472895882191274" lon="11.09699815553875"><ele>110.0</ele><time>2026-03-22T10:48:15.999Z</time></trkpt><trkpt lat="44.47299411233325" lon="11.096841425162037"><ele>109.75</ele><time>2026-03-22T10:48:16.999Z</time></trkpt><trkpt lat="44.47308025935106" lon="11.096698276984048"><ele>109.5</ele><time>2026-03-22T10:48:17.999Z</time></trkpt><trkpt lat="44.47317642366121" lon="11.096572356016264"><ele>109.25</ele><time>2026-03-22T10:48:18.999Z</time></trkpt><trkpt lat="44.47326089617039" lon="11.096443649773628"><ele>109.0</ele><time>2026-03-22T10:48:19.999Z</time></trkpt><trkpt lat="44.47333633002263" lon="11.096321859163107"><ele>109.0</ele><time>2026-03-22T10:48:20.999Z</time></trkpt><trkpt lat="44.47341036611238" lon="11.096217624760769"><ele>109.0</ele><time>2026-03-22T10:48:21.999Z</time></trkpt><trkpt lat="44.473477460616316" lon="11.096119728025409"><ele>109.0</ele><time>2026-03-22T10:48:22.999Z</time></trkpt><trkpt lat="44.47353994552645" lon="11.096031877456225"><ele>109.0</ele><time>2026-03-22T10:48:23.999Z</time></trkpt><trkpt lat="44.47359778865141" lon="11.095950601904734"><ele>109.0</ele><time>2026-03-22T10:48:24.999Z</time></trkpt><trkpt lat="44.473652295207884" lon="11.095868287394211"><ele>109.0</ele><time>2026-03-22T10:48:25.999Z</time></trkpt><trkpt lat="44.473703716007535" lon="11.09579056930411"><ele>109.0</ele><time>2026-03-22T10:48:26.999Z</time></trkpt><trkpt lat="44.473767511399785" lon="11.095714185285987"><ele>109.0</ele><time>2026-03-22T10:48:27.999Z</time></trkpt><trkpt lat="44.47384121191117" lon="11.095646945932435"><ele>109.0</ele><time>2026-03-22T10:48:28.999Z</time></trkpt><trkpt lat="44.473930574740336" lon="11.095586760787647"><ele>109.0</ele><time>2026-03-22T10:48:29.999Z</time></trkpt><trkpt lat="44.47403033426483" lon="11.095542350892378"><ele>109.0</ele><time>2026-03-22T10:48:30.999Z</time></trkpt><trkpt lat="44.47413041451749" lon="11.095522077616286"><ele>109.0</ele><time>2026-03-22T10:48:31.999Z</time></trkpt><trkpt lat="44.47425577263565" lon="11.095521849586223"><ele>109.0</ele><time>2026-03-22T10:48:32.999Z</time></trkpt><trkpt lat="44.474410997356" lon="11.095570047883356"><ele>109.0</ele><time>2026-03-22T10:48:33.999Z</time></trkpt><trkpt lat="44.47459164210461" lon="11.09565094041067"><ele>108.0</ele><time>2026-03-22T10:48:34.999Z</time></trkpt><trkpt lat="44.474790927743534" lon="11.095744619380234"><ele>107.0</ele><time>2026-03-22T10:48:35.999Z</time></trkpt><trkpt lat="44.47497264918315" lon="11.095829430058483"><ele>106.0</ele><time>2026-03-22T10:48:36.999Z</time></trkpt><trkpt lat="44.47513657992008" lon="11.095895765922823"><ele>105.75</ele><time>2026-03-22T10:48:37.999Z</time></trkpt><trkpt lat="44.475281883121774" lon="11.095959780117255"><ele>105.5</ele><time>2026-03-22T10:48:38.999Z</time></trkpt><trkpt lat="44.47541929505115" lon="11.096021517521683"><ele>105.25</ele><time>2026-03-22T10:48:39.999Z</time></trkpt><trkpt lat="44.47555106154115" lon="11.096084780745809"><ele>105.0</ele><time>2026-03-22T10:48:40.999Z</time></trkpt><trkpt lat="44.475703140047585" lon="11.096149377012006"><ele>106.0</ele><time>2026-03-22T10:48:41.999Z</time></trkpt><trkpt lat="44.475873922496326" lon="11.096223562982376"><ele>107.0</ele><time>2026-03-22T10:48:42.999Z</time></trkpt><trkpt lat="44.47605269537339" lon="11.09629472077673"><ele>108.0</ele><time>2026-03-22T10:48:43.999Z</time></trkpt><trkpt lat="44.476240934124434" lon="11.096356827813208"><ele>108.0</ele><time>2026-03-22T10:48:44.999Z</time></trkpt><trkpt lat="44.476457762012586" lon="11.09643363930227"><ele>108.0</ele><time>2026-03-22T10:48:45.999Z</time></trkpt><trkpt lat="44.47670828828634" lon="11.096523771567625"><ele>107.5</ele><time>2026-03-22T10:48:46.999Z</time></trkpt><trkpt lat="44.476986189344466" lon="11.096622335422781"><ele>107.0</ele><time>2026-03-22T10:48:47.999Z</time></trkpt><trkpt lat="44.4772765865842" lon="11.096744554543054"><ele>107.0</ele><time>2026-03-22T10:48:48.999Z</time></trkpt><trkpt lat="44.477533985187414" lon="11.096835098693703"><ele>107.0</ele><time>2026-03-22T10:48:49.999Z</time></trkpt><trkpt lat="44.47777193595965" lon="11.096918801740136"><ele>106.66666666666666</ele><time>2026-03-22T10:48:50.999Z</time></trkpt><trkpt lat="44.47799094004736" lon="11.096994558084882"><ele>106.33333333333334</ele><time>2026-03-22T10:48:51.999Z</time></trkpt><trkpt lat="44.478207553995084" lon="11.097068671597965"><ele>106.0</ele><time>2026-03-22T10:48:52.999Z</time></trkpt><trkpt lat="44.47841700558948" lon="11.097121019370402"><ele>106.0</ele><time>2026-03-22T10:48:53.999Z</time></trkpt><trkpt lat="44.478631015888396" lon="11.097208601868495"><ele>106.0</ele><time>2026-03-22T10:48:54.999Z</time></trkpt><trkpt lat="44.478845147933335" lon="11.09731420594925"><ele>105.5</ele><time>2026-03-22T10:48:55.999Z</time></trkpt><trkpt lat="44.47905663525159" lon="11.097462049363585"><ele>105.0</ele><time>2026-03-22T10:48:56.999Z</time></trkpt><trkpt lat="44.479252319718405" lon="11.097665932368859"><ele>105.0</ele><time>2026-03-22T10:48:57.999Z</time></trkpt><trkpt lat="44.47942626413901" lon="11.097833688060529"><ele>105.0</ele><time>2026-03-22T10:48:58.999Z</time></trkpt><trkpt lat="44.4796070456136" lon="11.097965429905324"><ele>105.0</ele><time>2026-03-22T10:48:59.999Z</time></trkpt><trkpt lat="44.479794364207926" lon="11.098108572806819"><ele>106.0</ele><time>2026-03-22T10:49:00.999Z</time></trkpt><trkpt lat="44.480008595219" lon="11.0982480942153"><ele>107.0</ele><time>2026-03-22T10:49:01.999Z</time></trkpt><trkpt lat="44.48026228153827" lon="11.098331735258602"><ele>107.5</ele><time>2026-03-22T10:49:02.999Z</time></trkpt><trkpt lat="44.48051463068179" lon="11.098433711495819"><ele>108.0</ele><time>2026-03-22T10:49:03.999Z</time></trkpt><trkpt lat="44.480743405981485" lon="11.098522984322194"><ele>108.0</ele><time>2026-03-22T10:49:04.999Z</time></trkpt><trkpt lat="44.48097159439259" lon="11.098615611549569"><ele>108.0</ele><time>2026-03-22T10:49:05.999Z</time></trkpt><trkpt lat="44.48121179211142" lon="11.098711763209282"><ele>108.5</ele><time>2026-03-22T10:49:06.999Z</time></trkpt><trkpt lat="44.48144845929276" lon="11.098806578657033"><ele>109.0</ele><time>2026-03-22T10:49:07.999Z</time></trkpt><trkpt lat="44.481663024160476" lon="11.098902369844906"><ele>109.0</ele><time>2026-03-22T10:49:08.999Z</time></trkpt><trkpt lat="44.48186944490851" lon="11.098981399561413"><ele>109.0</ele><time>2026-03-22T10:49:09.998Z</time></trkpt><trkpt lat="44.482075598975314" lon="11.099060311830902"><ele>109.0</ele><time>2026-03-22T10:49:10.998Z</time></trkpt><trkpt lat="44.48228525460463" lon="11.099144947549485"><ele>108.66666666666667</ele><time>2026-03-22T10:49:11.998Z</time></trkpt><trkpt lat="44.48248730896657" lon="11.099256918034055"><ele>108.33333333333334</ele><time>2026-03-22T10:49:12.998Z</time></trkpt><trkpt lat="44.48268251800479" lon="11.099403016777774"><ele>108.0</ele><time>2026-03-22T10:49:13.998Z</time></trkpt><trkpt lat="44.482859490561054" lon="11.099539615384039"><ele>107.0</ele><time>2026-03-22T10:49:14.998Z</time></trkpt><trkpt lat="44.483052537179255" lon="11.099681581433952"><ele>106.0</ele><time>2026-03-22T10:49:15.998Z</time></trkpt><trkpt lat="44.483250809125984" lon="11.099814623346935"><ele>105.0</ele><time>2026-03-22T10:49:16.998Z</time></trkpt><trkpt lat="44.48347129144446" lon="11.099917856506082"><ele>105.0</ele><time>2026-03-22T10:49:17.998Z</time></trkpt><trkpt lat="44.48371993533313" lon="11.099986916362491"><ele>105.0</ele><time>2026-03-22T10:49:18.999Z</time></trkpt><trkpt lat="44.48398055100458" lon="11.100029401744264"><ele>103.0</ele><time>2026-03-22T10:49:19.999Z</time></trkpt><trkpt lat="44.48421564165473" lon="11.100053490812732"><ele>101.0</ele><time>2026-03-22T10:49:20.999Z</time></trkpt><trkpt lat="44.4844555581557" lon="11.100097424791901"><ele>100.66666666666666</ele><time>2026-03-22T10:49:21.999Z</time></trkpt><trkpt lat="44.484675042087666" lon="11.100155734243115"><ele>100.33333333333334</ele><time>2026-03-22T10:49:22.999Z</time></trkpt><trkpt lat="44.48487818034041" lon="11.10021977930682"><ele>100.0</ele><time>2026-03-22T10:49:23.999Z</time></trkpt><trkpt lat="44.48507032227364" lon="11.100287570321228"><ele>100.0</ele><time>2026-03-22T10:49:24.999Z</time></trkpt><trkpt lat="44.48526392239672" lon="11.100354989627448"><ele>100.0</ele><time>2026-03-22T10:49:25.999Z</time></trkpt><trkpt lat="44.485457969990144" lon="11.10042274834036"><ele>100.0</ele><time>2026-03-22T10:49:26.999Z</time></trkpt><trkpt lat="44.48564922460928" lon="11.10048114710289"><ele>100.0</ele><time>2026-03-22T10:49:27.999Z</time></trkpt><trkpt lat="44.48583578741644" lon="11.10054145003285"><ele>100.0</ele><time>2026-03-22T10:49:28.999Z</time></trkpt><trkpt lat="44.48601782969271" lon="11.100609917314227"><ele>100.0</ele><time>2026-03-22T10:49:29.999Z</time></trkpt><trkpt lat="44.48621863467901" lon="11.100684680763765"><ele>100.0</ele><time>2026-03-22T10:49:30.999Z</time></trkpt><trkpt lat="44.48640054667139" lon="11.100755000679133"><ele>100.0</ele><time>2026-03-22T10:49:31.999Z</time></trkpt><trkpt lat="44.486570321525974" lon="11.1008292831777"><ele>100.0</ele><time>2026-03-22T10:49:32.999Z</time></trkpt><trkpt lat="44.48673027524237" lon="11.100895301387364"><ele>100.0</ele><time>2026-03-22T10:49:33.999Z</time></trkpt><trkpt lat="44.48688621670065" lon="11.100966790843671"><ele>100.0</ele><time>2026-03-22T10:49:34.999Z</time></trkpt><trkpt lat="44.487062517919675" lon="11.10103814485258"><ele>100.0</ele><time>2026-03-22T10:49:35.999Z</time></trkpt><trkpt lat="44.48723573306954" lon="11.101089835244794"><ele>99.33333333333334</ele><time>2026-03-22T10:49:36.999Z</time></trkpt><trkpt lat="44.48739536336956" lon="11.10112740075237"><ele>98.66666666666666</ele><time>2026-03-22T10:49:37.999Z</time></trkpt><trkpt lat="44.48755507686478" lon="11.101207936184986"><ele>98.0</ele><time>2026-03-22T10:49:38.999Z</time></trkpt><trkpt lat="44.48774899862621" lon="11.101218107410636"><ele>97.33333333333333</ele><time>2026-03-22T10:49:39.999Z</time></trkpt><trkpt lat="44.48793486243928" lon="11.101267111977174"><ele>96.66666666666666</ele><time>2026-03-22T10:49:40.999Z</time></trkpt><trkpt lat="44.48811486021703" lon="11.101332030928512"><ele>96.0</ele><time>2026-03-22T10:49:41.999Z</time></trkpt><trkpt lat="44.48828319435959" lon="11.101397510983467"><ele>96.0</ele><time>2026-03-22T10:49:42.999Z</time></trkpt><trkpt lat="44.48843964399244" lon="11.101468063389692"><ele>96.0</ele><time>2026-03-22T10:49:43.999Z</time></trkpt><trkpt lat="44.48860063272307" lon="11.101548923440777"><ele>96.0</ele><time>2026-03-22T10:49:44.999Z</time></trkpt><trkpt lat="44.48876833256993" lon="11.10164596045399"><ele>96.33333333333334</ele><time>2026-03-22T10:49:45.999Z</time></trkpt><trkpt lat="44.48893578939442" lon="11.101766832169128"><ele>96.66666666666667</ele><time>2026-03-22T10:49:46.999Z</time></trkpt><trkpt lat="44.48909465720127" lon="11.101892279374947"><ele>97.0</ele><time>2026-03-22T10:49:47.999Z</time></trkpt><trkpt lat="44.48924744310505" lon="11.102024871514299"><ele>97.0</ele><time>2026-03-22T10:49:48.999Z</time></trkpt><trkpt lat="44.489403678855865" lon="11.102158711607588"><ele>97.0</ele><time>2026-03-22T10:49:49.999Z</time></trkpt><trkpt lat="44.489569958962534" lon="11.102293335809836"><ele>97.0</ele><time>2026-03-22T10:49:50.999Z</time></trkpt><trkpt lat="44.48973741443722" lon="11.102421261672248"><ele>97.0</ele><time>2026-03-22T10:49:51.999Z</time></trkpt><trkpt lat="44.48989755000896" lon="11.102526938258066"><ele>97.0</ele><time>2026-03-22T10:49:52.999Z</time></trkpt><trkpt lat="44.49005227944287" lon="11.102623854065657"><ele>97.0</ele><time>2026-03-22T10:49:53.999Z</time></trkpt><trkpt lat="44.49019357804666" lon="11.102716774880303"><ele>97.0</ele><time>2026-03-22T10:49:54.999Z</time></trkpt><trkpt lat="44.490326817913356" lon="11.102804640610023"><ele>97.0</ele><time>2026-03-22T10:49:55.999Z</time></trkpt><trkpt lat="44.490460315595804" lon="11.102890824098516"><ele>97.0</ele><time>2026-03-22T10:49:56.999Z</time></trkpt><trkpt lat="44.49059910514581" lon="11.102979340520914"><ele>97.0</ele><time>2026-03-22T10:49:57.999Z</time></trkpt><trkpt lat="44.49073483373919" lon="11.103057508653947"><ele>97.0</ele><time>2026-03-22T10:49:58.999Z</time></trkpt><trkpt lat="44.49086113554584" lon="11.103133423472775"><ele>97.0</ele><time>2026-03-22T10:49:59.999Z</time></trkpt><trkpt lat="44.49098555824106" lon="11.103209733368987"><ele>97.0</ele><time>2026-03-22T10:50:00.999Z</time></trkpt><trkpt lat="44.491126240990745" lon="11.103296235940984"><ele>97.0</ele><time>2026-03-22T10:50:01.999Z</time></trkpt><trkpt lat="44.49125465855014" lon="11.103377995986504"><ele>96.25</ele><time>2026-03-22T10:50:02.999Z</time></trkpt><trkpt lat="44.49138064192732" lon="11.103456355862864"><ele>95.5</ele><time>2026-03-22T10:50:03.999Z</time></trkpt><trkpt lat="44.49149782122752" lon="11.10353749316224"><ele>94.75</ele><time>2026-03-22T10:50:04.999Z</time></trkpt><trkpt lat="44.49161655389423" lon="11.10361842086582"><ele>94.0</ele><time>2026-03-22T10:50:06Z</time></trkpt><trkpt lat="44.49173522729941" lon="11.103700325890237"><ele>94.0</ele><time>2026-03-22T10:50:07Z</time></trkpt><trkpt lat="44.49184725085349" lon="11.103778901914588"><ele>94.0</ele><time>2026-03-22T10:50:08Z</time></trkpt><trkpt lat="44.49196606696522" lon="11.103864074919013"><ele>94.0</ele><time>2026-03-22T10:50:09Z</time></trkpt><trkpt lat="44.49208197297948" lon="11.10395722136874"><ele>94.0</ele><time>2026-03-22T10:50:10Z</time></trkpt><trkpt lat="44.4922028830095" lon="11.104057102027195"><ele>94.0</ele><time>2026-03-22T10:50:11Z</time></trkpt><trkpt lat="44.49232412398312" lon="11.104157595622791"><ele>94.0</ele><time>2026-03-22T10:50:12Z</time></trkpt><trkpt lat="44.492452231045974" lon="11.104263041445046"><ele>94.0</ele><time>2026-03-22T10:50:13Z</time></trkpt><trkpt lat="44.49257852825843" lon="11.10437729623039"><ele>94.0</ele><time>2026-03-22T10:50:14Z</time></trkpt><trkpt lat="44.49270307252838" lon="11.104495967595279"><ele>94.0</ele><time>2026-03-22T10:50:15Z</time></trkpt><trkpt lat="44.492823827056256" lon="11.104610646284064"><ele>94.0</ele><time>2026-03-22T10:50:16Z</time></trkpt><trkpt lat="44.492946014363675" lon="11.10472589544557"><ele>94.0</ele><time>2026-03-22T10:50:17Z</time></trkpt><trkpt lat="44.49306368905484" lon="11.104836314621505"><ele>94.0</ele><time>2026-03-22T10:50:18Z</time></trkpt><trkpt lat="44.4931805089397" lon="11.104943562068312"><ele>94.5</ele><time>2026-03-22T10:50:19Z</time></trkpt><trkpt lat="44.49329733607591" lon="11.105053158873902"><ele>95.0</ele><time>2026-03-22T10:50:20Z</time></trkpt><trkpt lat="44.49341866349653" lon="11.105171301380608"><ele>95.5</ele><time>2026-03-22T10:50:21Z</time></trkpt><trkpt lat="44.49353269975823" lon="11.105298114554666"><ele>96.0</ele><time>2026-03-22T10:50:22Z</time></trkpt><trkpt lat="44.493645347622355" lon="11.10543136405634"><ele>95.66666666666667</ele><time>2026-03-22T10:50:23Z</time></trkpt><trkpt lat="44.493763153711946" lon="11.105571250259631"><ele>95.33333333333334</ele><time>2026-03-22T10:50:24Z</time></trkpt><trkpt lat="44.49388925956758" lon="11.105705503018864"><ele>95.0</ele><time>2026-03-22T10:50:25Z</time></trkpt><trkpt lat="44.49403049241606" lon="11.105827703163197"><ele>95.0</ele><time>2026-03-22T10:50:26Z</time></trkpt><trkpt lat="44.494180758763186" lon="11.105922688312512"><ele>95.0</ele><time>2026-03-22T10:50:27Z</time></trkpt><trkpt lat="44.49434781686665" lon="11.105977126985616"><ele>95.0</ele><time>2026-03-22T10:50:28Z</time></trkpt><trkpt lat="44.494507563341834" lon="11.10601295968111"><ele>94.33333333333334</ele><time>2026-03-22T10:50:29Z</time></trkpt><trkpt lat="44.494673785546375" lon="11.106031560958385"><ele>93.66666666666667</ele><time>2026-03-22T10:50:30Z</time></trkpt><trkpt lat="44.494840852141344" lon="11.106057320881197"><ele>93.0</ele><time>2026-03-22T10:50:31Z</time></trkpt><trkpt lat="44.49500298931887" lon="11.10608021883074"><ele>93.0</ele><time>2026-03-22T10:50:32Z</time></trkpt><trkpt lat="44.4951622731924" lon="11.10610082889372"><ele>93.0</ele><time>2026-03-22T10:50:33Z</time></trkpt><trkpt lat="44.49532168322702" lon="11.10613518562126"><ele>93.0</ele><time>2026-03-22T10:50:34Z</time></trkpt><trkpt lat="44.4954886907957" lon="11.106176583924045"><ele>91.33333333333333</ele><time>2026-03-22T10:50:35Z</time></trkpt><trkpt lat="44.49565413822521" lon="11.106231748020116"><ele>89.66666666666666</ele><time>2026-03-22T10:50:36Z</time></trkpt><trkpt lat="44.49581894402563" lon="11.106303008961486"><ele>88.0</ele><time>2026-03-22T10:50:37Z</time></trkpt><trkpt lat="44.49598040246083" lon="11.106388294458984"><ele>88.0</ele><time>2026-03-22T10:50:38Z</time></trkpt><trkpt lat="44.496134920794546" lon="11.106480868023409"><ele>88.0</ele><time>2026-03-22T10:50:39Z</time></trkpt><trkpt lat="44.49629144784022" lon="11.10656531755008"><ele>88.0</ele><time>2026-03-22T10:50:40Z</time></trkpt><trkpt lat="44.49645533972521" lon="11.106625620155944"><ele>88.66666666666666</ele><time>2026-03-22T10:50:41Z</time></trkpt><trkpt lat="44.49662655474953" lon="11.1066716459343"><ele>89.33333333333333</ele><time>2026-03-22T10:50:42Z</time></trkpt><trkpt lat="44.496797657448816" lon="11.106704963826257"><ele>90.0</ele><time>2026-03-22T10:50:43Z</time></trkpt><trkpt lat="44.49696653678259" lon="11.106725469942608"><ele>89.66666666666667</ele><time>2026-03-22T10:50:44Z</time></trkpt><trkpt lat="44.49713384684988" lon="11.106741745132641"><ele>89.33333333333334</ele><time>2026-03-22T10:50:45Z</time></trkpt><trkpt lat="44.49729561393902" lon="11.106763168032854"><ele>89.0</ele><time>2026-03-22T10:50:46Z</time></trkpt><trkpt lat="44.497456135810545" lon="11.106783149865034"><ele>89.0</ele><time>2026-03-22T10:50:47Z</time></trkpt><trkpt lat="44.49762351063406" lon="11.106809850167178"><ele>89.0</ele><time>2026-03-22T10:50:48Z</time></trkpt><trkpt lat="44.49779641357318" lon="11.106828713265912"><ele>89.0</ele><time>2026-03-22T10:50:49Z</time></trkpt><trkpt lat="44.4979681537687" lon="11.106849733153206"><ele>89.33333333333334</ele><time>2026-03-22T10:50:50Z</time></trkpt><trkpt lat="44.498139123782714" lon="11.106873632084268"><ele>89.66666666666667</ele><time>2026-03-22T10:50:51Z</time></trkpt><trkpt lat="44.49831062703341" lon="11.106892847116965"><ele>90.0</ele><time>2026-03-22T10:50:52Z</time></trkpt><trkpt lat="44.498487222101396" lon="11.106921986630887"><ele>90.0</ele><time>2026-03-22T10:50:53Z</time></trkpt><trkpt lat="44.49867146723501" lon="11.106956688469916"><ele>90.0</ele><time>2026-03-22T10:50:54Z</time></trkpt><trkpt lat="44.498862600306836" lon="11.10699625416309"><ele>90.0</ele><time>2026-03-22T10:50:55Z</time></trkpt><trkpt lat="44.49905213593701" lon="11.107059293403923"><ele>89.66666666666667</ele><time>2026-03-22T10:50:56Z</time></trkpt><trkpt lat="44.499248044156886" lon="11.10715692944202"><ele>89.33333333333334</ele><time>2026-03-22T10:50:57Z</time></trkpt><trkpt lat="44.499454887593735" lon="11.107275935160047"><ele>89.0</ele><time>2026-03-22T10:50:58Z</time></trkpt><trkpt lat="44.49968118370061" lon="11.107424857761542"><ele>89.0</ele><time>2026-03-22T10:50:59Z</time></trkpt><trkpt lat="44.49988262642235" lon="11.107568891772667"><ele>89.0</ele><time>2026-03-22T10:51:00Z</time></trkpt><trkpt lat="44.50005505079254" lon="11.107702232604568"><ele>89.0</ele><time>2026-03-22T10:51:01Z</time></trkpt><trkpt lat="44.50022954586082" lon="11.107828024816705"><ele>89.0</ele><time>2026-03-22T10:51:02Z</time></trkpt><trkpt lat="44.500410951634734" lon="11.10796395236414"><ele>89.0</ele><time>2026-03-22T10:51:03Z</time></trkpt><trkpt lat="44.500583382721096" lon="11.108095990708721"><ele>89.0</ele><time>2026-03-22T10:51:04Z</time></trkpt><trkpt lat="44.500760650140066" lon="11.108228506634262"><ele>89.0</ele><time>2026-03-22T10:51:05Z</time></trkpt><trkpt lat="44.500933207585184" lon="11.108355927622153"><ele>89.0</ele><time>2026-03-22T10:51:06Z</time></trkpt><trkpt lat="44.501092560524874" lon="11.10847241337336"><ele>89.0</ele><time>2026-03-22T10:51:07Z</time></trkpt><trkpt lat="44.501259383369614" lon="11.10858292346682"><ele>89.33333333333334</ele><time>2026-03-22T10:51:08Z</time></trkpt><trkpt lat="44.50143835576042" lon="11.108672879875874"><ele>89.66666666666667</ele><time>2026-03-22T10:51:09Z</time></trkpt><trkpt lat="44.50163066455581" lon="11.108752792347806"><ele>90.0</ele><time>2026-03-22T10:51:10Z</time></trkpt><trkpt lat="44.50183684418398" lon="11.10876072724796"><ele>90.0</ele><time>2026-03-22T10:51:11Z</time></trkpt><trkpt lat="44.50203916602625" lon="11.108774911394192"><ele>90.0</ele><time>2026-03-22T10:51:12Z</time></trkpt><trkpt lat="44.50222793139663" lon="11.108782490786115"><ele>90.0</ele><time>2026-03-22T10:51:13Z</time></trkpt><trkpt lat="44.502411932576216" lon="11.108790924584595"><ele>89.33333333333333</ele><time>2026-03-22T10:51:14Z</time></trkpt><trkpt lat="44.50259982188212" lon="11.10880321288727"><ele>88.66666666666666</ele><time>2026-03-22T10:51:15Z</time></trkpt><trkpt lat="44.50278497231144" lon="11.108816254442639"><ele>88.0</ele><time>2026-03-22T10:51:15.999Z</time></trkpt><trkpt lat="44.50297107208589" lon="11.108826959821009"><ele>88.0</ele><time>2026-03-22T10:51:16.999Z</time></trkpt><trkpt lat="44.503151211306786" lon="11.108833350369213"><ele>88.0</ele><time>2026-03-22T10:51:17.999Z</time></trkpt><trkpt lat="44.50333038239946" lon="11.108848680940639"><ele>88.0</ele><time>2026-03-22T10:51:18.999Z</time></trkpt><trkpt lat="44.50349842495106" lon="11.108862558683608"><ele>88.0</ele><time>2026-03-22T10:51:19.999Z</time></trkpt><trkpt lat="44.50366963004802" lon="11.108870693483636"><ele>88.0</ele><time>2026-03-22T10:51:20.999Z</time></trkpt><trkpt lat="44.503834933128566" lon="11.108880984227236"><ele>88.0</ele><time>2026-03-22T10:51:21.999Z</time></trkpt><trkpt lat="44.5040059005042" lon="11.108881468516959"><ele>88.0</ele><time>2026-03-22T10:51:22.999Z</time></trkpt><trkpt lat="44.50418895075459" lon="11.10883533948468"><ele>88.0</ele><time>2026-03-22T10:51:23.999Z</time></trkpt><trkpt lat="44.504379122414235" lon="11.108747423173083"><ele>88.0</ele><time>2026-03-22T10:51:24.999Z</time></trkpt><trkpt lat="44.50456685417235" lon="11.108623893041424"><ele>87.0</ele><time>2026-03-22T10:51:25.999Z</time></trkpt><trkpt lat="44.50473033778526" lon="11.108484380924647"><ele>86.0</ele><time>2026-03-22T10:51:26.999Z</time></trkpt><trkpt lat="44.50488221410593" lon="11.108305005517861"><ele>85.0</ele><time>2026-03-22T10:51:27.999Z</time></trkpt><trkpt lat="44.50502000453275" lon="11.108088901568834"><ele>84.33333333333333</ele><time>2026-03-22T10:51:28.999Z</time></trkpt><trkpt lat="44.50514400961695" lon="11.10785476677816"><ele>83.66666666666667</ele><time>2026-03-22T10:51:29.999Z</time></trkpt><trkpt lat="44.505256811388094" lon="11.107635290255597"><ele>83.0</ele><time>2026-03-22T10:51:30.999Z</time></trkpt><trkpt lat="44.50537420424363" lon="11.107411508075499"><ele>80.33333333333334</ele><time>2026-03-22T10:51:31.999Z</time></trkpt><trkpt lat="44.50547849818249" lon="11.107195886989548"><ele>77.66666666666667</ele><time>2026-03-22T10:51:32.999Z</time></trkpt><trkpt lat="44.50558226892727" lon="11.10698106963325"><ele>75.0</ele><time>2026-03-22T10:51:33.999Z</time></trkpt><trkpt lat="44.50568887939106" lon="11.106772383726867"><ele>75.0</ele><time>2026-03-22T10:51:34.999Z</time></trkpt><trkpt lat="44.50578572296548" lon="11.10657824311178"><ele>75.0</ele><time>2026-03-22T10:51:35.999Z</time></trkpt><trkpt lat="44.50587454359839" lon="11.106395515021214"><ele>75.0</ele><time>2026-03-22T10:51:36.999Z</time></trkpt><trkpt lat="44.50596375412316" lon="11.106224956153431"><ele>75.0</ele><time>2026-03-22T10:51:37.999Z</time></trkpt><trkpt lat="44.5060532272918" lon="11.106066851230757"><ele>75.0</ele><time>2026-03-22T10:51:38.999Z</time></trkpt><trkpt lat="44.50615318735115" lon="11.105923785292138"><ele>75.0</ele><time>2026-03-22T10:51:39.999Z</time></trkpt><trkpt lat="44.50625962723584" lon="11.105801003873617"><ele>75.0</ele><time>2026-03-22T10:51:40.999Z</time></trkpt><trkpt lat="44.50635422777816" lon="11.105712934538246"><ele>75.33333333333333</ele><time>2026-03-22T10:51:41.999Z</time></trkpt><trkpt lat="44.50644216275638" lon="11.105644852501584"><ele>75.66666666666667</ele><time>2026-03-22T10:51:42.999Z</time></trkpt><trkpt lat="44.50652109575161" lon="11.105590863513095"><ele>76.0</ele><time>2026-03-22T10:51:44Z</time></trkpt><trkpt lat="44.50658601567472" lon="11.105543032303022"><ele>76.33333333333334</ele><time>2026-03-22T10:51:45Z</time></trkpt><trkpt lat="44.50664439069908" lon="11.105504990885269"><ele>76.66666666666667</ele><time>2026-03-22T10:51:46Z</time></trkpt><trkpt lat="44.50675502731958" lon="11.105469028127008"><ele>77.0</ele><time>2026-03-22T10:51:48Z</time></trkpt><trkpt lat="44.506831313560454" lon="11.105488712709102"><ele>77.0</ele><time>2026-03-22T10:51:50Z</time></trkpt><trkpt lat="44.50690508563821" lon="11.105527624328074"><ele>77.0</ele><time>2026-03-22T10:51:58Z</time></trkpt><trkpt lat="44.506947397919355" lon="11.105619375808066"><ele>77.0</ele><time>2026-03-22T10:51:59Z</time></trkpt><trkpt lat="44.507028549463676" lon="11.105695116697225"><ele>77.0</ele><time>2026-03-22T10:52:00Z</time></trkpt><trkpt lat="44.507140207645115" lon="11.105730720182942"><ele>77.0</ele><time>2026-03-22T10:52:01Z</time></trkpt><trkpt lat="44.50723271092886" lon="11.105695990671972"><ele>77.0</ele><time>2026-03-22T10:52:02Z</time></trkpt><trkpt lat="44.50731681760677" lon="11.105650776672674"><ele>77.0</ele><time>2026-03-22T10:52:03Z</time></trkpt><trkpt lat="44.50738023629646" lon="11.105568311139066"><ele>77.0</ele><time>2026-03-22T10:52:04Z</time></trkpt><trkpt lat="44.50742971381441" lon="11.105459596118681"><ele>77.0</ele><time>2026-03-22T10:52:05Z</time></trkpt><trkpt lat="44.50746114785717" lon="11.105346261068725"><ele>77.0</ele><time>2026-03-22T10:52:06Z</time></trkpt><trkpt lat="44.5075074129615" lon="11.105243258931814"><ele>77.0</ele><time>2026-03-22T10:52:07Z</time></trkpt><trkpt lat="44.50757549275423" lon="11.105152299577803"><ele>77.0</ele><time>2026-03-22T10:52:08Z</time></trkpt><trkpt lat="44.507669732993726" lon="11.105081943509855"><ele>77.0</ele><time>2026-03-22T10:52:09Z</time></trkpt><trkpt lat="44.50775991592956" lon="11.105020988486359"><ele>77.0</ele><time>2026-03-22T10:52:10Z</time></trkpt><trkpt lat="44.5078832704701" lon="11.105033695155186"><ele>77.0</ele><time>2026-03-22T10:52:11Z</time></trkpt><trkpt lat="44.5080051060984" lon="11.105020982746648"><ele>77.0</ele><time>2026-03-22T10:52:12Z</time></trkpt><trkpt lat="44.50814130977469" lon="11.105006342490507"><ele>77.0</ele><time>2026-03-22T10:52:13Z</time></trkpt><trkpt lat="44.50827754583413" lon="11.1049885508649"><ele>77.0</ele><time>2026-03-22T10:52:14Z</time></trkpt><trkpt lat="44.508431022072344" lon="11.104979949190456"><ele>77.0</ele><time>2026-03-22T10:52:15Z</time></trkpt><trkpt lat="44.50859075215571" lon="11.104977421500875"><ele>75.66666666666667</ele><time>2026-03-22T10:52:16Z</time></trkpt><trkpt lat="44.50878349239222" lon="11.104988839651803"><ele>74.33333333333333</ele><time>2026-03-22T10:52:17Z</time></trkpt><trkpt lat="44.50902768465399" lon="11.104996184824152"><ele>73.0</ele><time>2026-03-22T10:52:18Z</time></trkpt><trkpt lat="44.50929784974478" lon="11.105010125218651"><ele>73.0</ele><time>2026-03-22T10:52:19Z</time></trkpt><trkpt lat="44.509566049033225" lon="11.105030397848651"><ele>73.0</ele><time>2026-03-22T10:52:20Z</time></trkpt><trkpt lat="44.50979755216004" lon="11.105048984425578"><ele>72.66666666666666</ele><time>2026-03-22T10:52:21Z</time></trkpt><trkpt lat="44.50999292428596" lon="11.105064670165303"><ele>72.33333333333333</ele><time>2026-03-22T10:52:22Z</time></trkpt><trkpt lat="44.510178198727594" lon="11.105079545201848"><ele>72.0</ele><time>2026-03-22T10:52:23Z</time></trkpt><trkpt lat="44.51042527097371" lon="11.10510023319672"><ele>71.66666666666667</ele><time>2026-03-22T10:52:24Z</time></trkpt><trkpt lat="44.51059813693717" lon="11.105116841970645"><ele>71.33333333333334</ele><time>2026-03-22T10:52:25Z</time></trkpt><trkpt lat="44.51077970431578" lon="11.10513743928007"><ele>71.0</ele><time>2026-03-22T10:52:26Z</time></trkpt><trkpt lat="44.51095941848248" lon="11.10516197013065"><ele>71.0</ele><time>2026-03-22T10:52:27Z</time></trkpt><trkpt lat="44.51112501125078" lon="11.10518978569856"><ele>71.0</ele><time>2026-03-22T10:52:28Z</time></trkpt><trkpt lat="44.51129759809374" lon="11.105223242013244"><ele>71.0</ele><time>2026-03-22T10:52:29Z</time></trkpt><trkpt lat="44.51147748007845" lon="11.105268620363125"><ele>70.33333333333334</ele><time>2026-03-22T10:52:30Z</time></trkpt><trkpt lat="44.511664498902945" lon="11.105332801698236"><ele>69.66666666666667</ele><time>2026-03-22T10:52:31Z</time></trkpt><trkpt lat="44.51185671480572" lon="11.105416531454539"><ele>69.0</ele><time>2026-03-22T10:52:32Z</time></trkpt><trkpt lat="44.51205821484304" lon="11.105524688726433"><ele>69.0</ele><time>2026-03-22T10:52:33Z</time></trkpt><trkpt lat="44.512277158739195" lon="11.10566866565687"><ele>69.0</ele><time>2026-03-22T10:52:34Z</time></trkpt><trkpt lat="44.51249155422462" lon="11.105843790195417"><ele>69.0</ele><time>2026-03-22T10:52:35Z</time></trkpt><trkpt lat="44.51270889913418" lon="11.106049022557828"><ele>69.0</ele><time>2026-03-22T10:52:36Z</time></trkpt><trkpt lat="44.51290661465119" lon="11.106273031824934"><ele>69.5</ele><time>2026-03-22T10:52:37Z</time></trkpt><trkpt lat="44.513079879295354" lon="11.106505030076868"><ele>70.0</ele><time>2026-03-22T10:52:38Z</time></trkpt><trkpt lat="44.51323474548797" lon="11.106736717258302"><ele>70.0</ele><time>2026-03-22T10:52:39Z</time></trkpt><trkpt lat="44.51339488602651" lon="11.10701736226413"><ele>70.0</ele><time>2026-03-22T10:52:40Z</time></trkpt><trkpt lat="44.51356597913442" lon="11.107352241579806"><ele>69.5</ele><time>2026-03-22T10:52:41Z</time></trkpt><trkpt lat="44.513741405996754" lon="11.107721411652614"><ele>69.0</ele><time>2026-03-22T10:52:42Z</time></trkpt><trkpt lat="44.51391069444794" lon="11.108094248027006"><ele>68.5</ele><time>2026-03-22T10:52:43Z</time></trkpt><trkpt lat="44.51405654461779" lon="11.108415306435413"><ele>68.0</ele><time>2026-03-22T10:52:44Z</time></trkpt><trkpt lat="44.514197909009525" lon="11.108723143601715"><ele>68.0</ele><time>2026-03-22T10:52:45Z</time></trkpt><trkpt lat="44.51433037691334" lon="11.109011607626629"><ele>68.0</ele><time>2026-03-22T10:52:46Z</time></trkpt><trkpt lat="44.51445858855745" lon="11.109290803160453"><ele>68.0</ele><time>2026-03-22T10:52:47Z</time></trkpt><trkpt lat="44.51457255305284" lon="11.109547304318458"><ele>68.0</ele><time>2026-03-22T10:52:48Z</time></trkpt><trkpt lat="44.51467007280221" lon="11.109788118936933"><ele>68.0</ele><time>2026-03-22T10:52:49Z</time></trkpt><trkpt lat="44.51475636973171" lon="11.110047728021746"><ele>68.33333333333334</ele><time>2026-03-22T10:52:50Z</time></trkpt><trkpt lat="44.514816040835605" lon="11.110332610725319"><ele>68.66666666666667</ele><time>2026-03-22T10:52:51Z</time></trkpt><trkpt lat="44.514850878201386" lon="11.110625636799735"><ele>69.0</ele><time>2026-03-22T10:52:52Z</time></trkpt><trkpt lat="44.51485985418606" lon="11.110927773631232"><ele>69.0</ele><time>2026-03-22T10:52:53Z</time></trkpt><trkpt lat="44.514841922099144" lon="11.111206736100895"><ele>69.0</ele><time>2026-03-22T10:52:54Z</time></trkpt><trkpt lat="44.514813964589095" lon="11.11147500429731"><ele>69.0</ele><time>2026-03-22T10:52:55Z</time></trkpt><trkpt lat="44.51478690602587" lon="11.111717225119847"><ele>68.66666666666667</ele><time>2026-03-22T10:52:56Z</time></trkpt><trkpt lat="44.51476612494635" lon="11.111937755996134"><ele>68.33333333333334</ele><time>2026-03-22T10:52:57Z</time></trkpt><trkpt lat="44.51478228210062" lon="11.112179632022599"><ele>68.0</ele><time>2026-03-22T10:52:58Z</time></trkpt><trkpt lat="44.51481071585544" lon="11.112445318273647"><ele>68.0</ele><time>2026-03-22T10:52:59Z</time></trkpt><trkpt lat="44.514881532307385" lon="11.112712415142463"><ele>68.0</ele><time>2026-03-22T10:53:00Z</time></trkpt><trkpt lat="44.51496833606393" lon="11.112927688619779"><ele>68.0</ele><time>2026-03-22T10:53:01Z</time></trkpt><trkpt lat="44.51506557882335" lon="11.113089892721293"><ele>68.0</ele><time>2026-03-22T10:53:02Z</time></trkpt><trkpt lat="44.515166461342666" lon="11.11323252006485"><ele>68.0</ele><time>2026-03-22T10:53:03Z</time></trkpt><trkpt lat="44.51528295720131" lon="11.11335324032258"><ele>68.0</ele><time>2026-03-22T10:53:04Z</time></trkpt><trkpt lat="44.515398850103814" lon="11.113452403329658"><ele>68.0</ele><time>2026-03-22T10:53:05Z</time></trkpt><trkpt lat="44.51549839600571" lon="11.113538050693565"><ele>67.25</ele><time>2026-03-22T10:53:06Z</time></trkpt><trkpt lat="44.515584551594536" lon="11.11365184222383"><ele>66.5</ele><time>2026-03-22T10:53:07Z</time></trkpt><trkpt lat="44.515651134002056" lon="11.113808792634353"><ele>65.75</ele><time>2026-03-22T10:53:08Z</time></trkpt><trkpt lat="44.51570456597727" lon="11.113949431255586"><ele>65.0</ele><time>2026-03-22T10:53:09Z</time></trkpt><trkpt lat="44.51577007325118" lon="11.114071238102476"><ele>65.0</ele><time>2026-03-22T10:53:10Z</time></trkpt><trkpt lat="44.51587695169297" lon="11.11416720430686"><ele>65.0</ele><time>2026-03-22T10:53:11Z</time></trkpt><trkpt lat="44.515986879624364" lon="11.114221327645376"><ele>65.0</ele><time>2026-03-22T10:53:12Z</time></trkpt><trkpt lat="44.51608169854916" lon="11.114265833774088"><ele>65.0</ele><time>2026-03-22T10:53:13Z</time></trkpt><trkpt lat="44.516160852551266" lon="11.114323757542875"><ele>65.0</ele><time>2026-03-22T10:53:14Z</time></trkpt><trkpt lat="44.516240473524746" lon="11.114436585896062"><ele>64.66666666666667</ele><time>2026-03-22T10:53:15Z</time></trkpt><trkpt lat="44.516304838807606" lon="11.114622796487522"><ele>64.33333333333333</ele><time>2026-03-22T10:53:16Z</time></trkpt><trkpt lat="44.51637470994837" lon="11.114831991840616"><ele>64.0</ele><time>2026-03-22T10:53:17Z</time></trkpt><trkpt lat="44.5164590513716" lon="11.115047758967336"><ele>64.66666666666666</ele><time>2026-03-22T10:53:18Z</time></trkpt><trkpt lat="44.51652848890185" lon="11.115275258609884"><ele>65.33333333333333</ele><time>2026-03-22T10:53:19Z</time></trkpt><trkpt lat="44.516596213813564" lon="11.115483707865225"><ele>66.0</ele><time>2026-03-22T10:53:20Z</time></trkpt><trkpt lat="44.51665755579956" lon="11.11567413596755"><ele>65.66666666666667</ele><time>2026-03-22T10:53:21Z</time></trkpt><trkpt lat="44.51671582155478" lon="11.115862816170083"><ele>65.33333333333334</ele><time>2026-03-22T10:53:21.999Z</time></trkpt><trkpt lat="44.51677764593324" lon="11.116061434874695"><ele>65.0</ele><time>2026-03-22T10:53:22.999Z</time></trkpt><trkpt lat="44.516842575355746" lon="11.116253104678398"><ele>65.0</ele><time>2026-03-22T10:53:23.999Z</time></trkpt><trkpt lat="44.516904864875876" lon="11.116437929298781"><ele>65.0</ele><time>2026-03-22T10:53:24.999Z</time></trkpt><trkpt lat="44.51696176792411" lon="11.11662284354376"><ele>65.0</ele><time>2026-03-22T10:53:25.999Z</time></trkpt><trkpt lat="44.51701996662096" lon="11.116802922886068"><ele>65.0</ele><time>2026-03-22T10:53:26.999Z</time></trkpt><trkpt lat="44.517078383611235" lon="11.116983121516528"><ele>65.0</ele><time>2026-03-22T10:53:27.999Z</time></trkpt><trkpt lat="44.517138740184535" lon="11.117163980568591"><ele>65.0</ele><time>2026-03-22T10:53:28.999Z</time></trkpt><trkpt lat="44.51721134382611" lon="11.117338838920988"><ele>65.0</ele><time>2026-03-22T10:53:29.999Z</time></trkpt><trkpt lat="44.517296855906054" lon="11.117506507131266"><ele>65.0</ele><time>2026-03-22T10:53:30.999Z</time></trkpt><trkpt lat="44.51739201963827" lon="11.117663761763747"><ele>65.0</ele><time>2026-03-22T10:53:31.999Z</time></trkpt><trkpt lat="44.51748587240008" lon="11.117799724172931"><ele>65.0</ele><time>2026-03-22T10:53:32.999Z</time></trkpt><trkpt lat="44.517561761113456" lon="11.117923717883382"><ele>65.0</ele><time>2026-03-22T10:53:33.999Z</time></trkpt><trkpt lat="44.517650872614446" lon="11.118002503193782"><ele>65.0</ele><time>2026-03-22T10:53:34.999Z</time></trkpt><trkpt lat="44.51769112428362" lon="11.118151161363679"><ele>65.0</ele><time>2026-03-22T10:53:35.999Z</time></trkpt><trkpt lat="44.517775431759404" lon="11.118307837551425"><ele>65.0</ele><time>2026-03-22T10:53:36.999Z</time></trkpt><trkpt lat="44.51789006115865" lon="11.11853867685294"><ele>65.0</ele><time>2026-03-22T10:53:37.999Z</time></trkpt><trkpt lat="44.51802542616475" lon="11.118796252057324"><ele>64.66666666666667</ele><time>2026-03-22T10:53:38.999Z</time></trkpt><trkpt lat="44.51816017076981" lon="11.119046353308455"><ele>64.33333333333333</ele><time>2026-03-22T10:53:39.999Z</time></trkpt><trkpt lat="44.5182953389794" lon="11.119280063452758"><ele>64.0</ele><time>2026-03-22T10:53:40.999Z</time></trkpt><trkpt lat="44.518429617557" lon="11.119485939877874"><ele>64.0</ele><time>2026-03-22T10:53:41.999Z</time></trkpt><trkpt lat="44.518556782100916" lon="11.119669763868213"><ele>64.0</ele><time>2026-03-22T10:53:42.999Z</time></trkpt><trkpt lat="44.51867575452019" lon="11.119848210153036"><ele>64.0</ele><time>2026-03-22T10:53:43.999Z</time></trkpt><trkpt lat="44.518802505650584" lon="11.120035874853194"><ele>63.33333333333333</ele><time>2026-03-22T10:53:44.999Z</time></trkpt><trkpt lat="44.518935176875644" lon="11.120233335774124"><ele>62.66666666666667</ele><time>2026-03-22T10:53:45.999Z</time></trkpt><trkpt lat="44.51907200582179" lon="11.120438578832557"><ele>62.0</ele><time>2026-03-22T10:53:46.999Z</time></trkpt><trkpt lat="44.519211811362936" lon="11.120644995942072"><ele>62.333333333333336</ele><time>2026-03-22T10:53:48Z</time></trkpt><trkpt lat="44.51935152329588" lon="11.12084863050432"><ele>62.66666666666667</ele><time>2026-03-22T10:53:49Z</time></trkpt><trkpt lat="44.51949304633408" lon="11.121052342918833"><ele>63.0</ele><time>2026-03-22T10:53:50Z</time></trkpt><trkpt lat="44.51963388706753" lon="11.121260127266515"><ele>63.0</ele><time>2026-03-22T10:53:51Z</time></trkpt><trkpt lat="44.519771639173" lon="11.121461816606624"><ele>63.0</ele><time>2026-03-22T10:53:52Z</time></trkpt><trkpt lat="44.51990705352287" lon="11.121656325907276"><ele>63.0</ele><time>2026-03-22T10:53:53Z</time></trkpt><trkpt lat="44.520043813105985" lon="11.121859839638887"><ele>63.0</ele><time>2026-03-22T10:53:54Z</time></trkpt><trkpt lat="44.5201803232591" lon="11.122058729249082"><ele>63.0</ele><time>2026-03-22T10:53:55Z</time></trkpt><trkpt lat="44.52031275942595" lon="11.122255389734885"><ele>63.0</ele><time>2026-03-22T10:53:56Z</time></trkpt><trkpt lat="44.52044501401683" lon="11.12244908554154"><ele>62.66666666666667</ele><time>2026-03-22T10:53:57Z</time></trkpt><trkpt lat="44.52057792161511" lon="11.122644852863221"><ele>62.333333333333336</ele><time>2026-03-22T10:53:58Z</time></trkpt><trkpt lat="44.520705748125685" lon="11.1228386265889"><ele>62.0</ele><time>2026-03-22T10:53:59Z</time></trkpt><trkpt lat="44.52082551810089" lon="11.123030343521803"><ele>62.0</ele><time>2026-03-22T10:54:00Z</time></trkpt><trkpt lat="44.52095229874882" lon="11.12322463422399"><ele>62.0</ele><time>2026-03-22T10:54:01Z</time></trkpt><trkpt lat="44.5210812814975" lon="11.123433926466337"><ele>62.0</ele><time>2026-03-22T10:54:02Z</time></trkpt><trkpt lat="44.52120189418944" lon="11.123648642766579"><ele>62.0</ele><time>2026-03-22T10:54:03Z</time></trkpt><trkpt lat="44.5213213808309" lon="11.123861614598912"><ele>62.0</ele><time>2026-03-22T10:54:04Z</time></trkpt><trkpt lat="44.52143726554747" lon="11.124083278318471"><ele>62.0</ele><time>2026-03-22T10:54:05Z</time></trkpt><trkpt lat="44.521541728741" lon="11.124347466469935"><ele>62.0</ele><time>2026-03-22T10:54:06Z</time></trkpt><trkpt lat="44.52165718697051" lon="11.124614935486836"><ele>62.0</ele><time>2026-03-22T10:54:07Z</time></trkpt><trkpt lat="44.521789402300136" lon="11.124948528606948"><ele>62.0</ele><time>2026-03-22T10:54:08Z</time></trkpt><trkpt lat="44.5219063370573" lon="11.125264319650496"><ele>62.0</ele><time>2026-03-22T10:54:09Z</time></trkpt><trkpt lat="44.522012687450896" lon="11.125609409915867"><ele>61.5</ele><time>2026-03-22T10:54:10Z</time></trkpt><trkpt lat="44.522107106338346" lon="11.125979912880005"><ele>61.0</ele><time>2026-03-22T10:54:11Z</time></trkpt><trkpt lat="44.522190398147856" lon="11.126356331648688"><ele>60.0</ele><time>2026-03-22T10:54:12Z</time></trkpt><trkpt lat="44.52225883473642" lon="11.126731327259895"><ele>59.0</ele><time>2026-03-22T10:54:13Z</time></trkpt><trkpt lat="44.52230898146858" lon="11.127107820542824"><ele>59.5</ele><time>2026-03-22T10:54:14Z</time></trkpt><trkpt lat="44.52234716263391" lon="11.127461674041172"><ele>60.0</ele><time>2026-03-22T10:54:15Z</time></trkpt><trkpt lat="44.522374797559124" lon="11.127785285329951"><ele>60.0</ele><time>2026-03-22T10:54:16Z</time></trkpt><trkpt lat="44.52239581482292" lon="11.128113726562463"><ele>60.0</ele><time>2026-03-22T10:54:17Z</time></trkpt><trkpt lat="44.52240352606962" lon="11.128422333232555"><ele>60.5</ele><time>2026-03-22T10:54:18Z</time></trkpt><trkpt lat="44.522406369851026" lon="11.128728644480276"><ele>61.0</ele><time>2026-03-22T10:54:19Z</time></trkpt><trkpt lat="44.522406899898236" lon="11.129056448848127"><ele>60.0</ele><time>2026-03-22T10:54:20Z</time></trkpt><trkpt lat="44.522406348502074" lon="11.129417001948097"><ele>59.0</ele><time>2026-03-22T10:54:21Z</time></trkpt><trkpt lat="44.52240535522403" lon="11.129793559204709"><ele>58.5</ele><time>2026-03-22T10:54:22Z</time></trkpt><trkpt lat="44.5224026753603" lon="11.130208622599266"><ele>58.0</ele><time>2026-03-22T10:54:23Z</time></trkpt><trkpt lat="44.522398019551595" lon="11.130628427726236"><ele>57.5</ele><time>2026-03-22T10:54:24Z</time></trkpt><trkpt lat="44.52239232375786" lon="11.131000284905927"><ele>57.0</ele><time>2026-03-22T10:54:25Z</time></trkpt><trkpt lat="44.52238669668187" lon="11.131325904411739"><ele>57.0</ele><time>2026-03-22T10:54:26Z</time></trkpt><trkpt lat="44.522379238213674" lon="11.131634359767785"><ele>57.0</ele><time>2026-03-22T10:54:27Z</time></trkpt><trkpt lat="44.52237079526025" lon="11.131932653828656"><ele>57.0</ele><time>2026-03-22T10:54:28Z</time></trkpt><trkpt lat="44.522361694419246" lon="11.13223423040187"><ele>57.0</ele><time>2026-03-22T10:54:29Z</time></trkpt><trkpt lat="44.52235725978125" lon="11.132553165604824"><ele>57.0</ele><time>2026-03-22T10:54:30Z</time></trkpt><trkpt lat="44.52230808536842" lon="11.132873911509055"><ele>57.0</ele><time>2026-03-22T10:54:31Z</time></trkpt><trkpt lat="44.52225491670777" lon="11.133199264208866"><ele>57.0</ele><time>2026-03-22T10:54:32Z</time></trkpt><trkpt lat="44.52219532048698" lon="11.133522113281401"><ele>57.33333333333333</ele><time>2026-03-22T10:54:33Z</time></trkpt><trkpt lat="44.52213427515124" lon="11.133834959119081"><ele>57.666666666666664</ele><time>2026-03-22T10:54:34Z</time></trkpt><trkpt lat="44.52207238259185" lon="11.134124773553328"><ele>58.0</ele><time>2026-03-22T10:54:35Z</time></trkpt><trkpt lat="44.52200270537431" lon="11.13439385752235"><ele>58.0</ele><time>2026-03-22T10:54:36Z</time></trkpt><trkpt lat="44.52192124100741" lon="11.134657340859844"><ele>58.0</ele><time>2026-03-22T10:54:37Z</time></trkpt><trkpt lat="44.52183883139793" lon="11.1349098918421"><ele>58.0</ele><time>2026-03-22T10:54:38Z</time></trkpt><trkpt lat="44.521757200579664" lon="11.135158562422768"><ele>58.0</ele><time>2026-03-22T10:54:39Z</time></trkpt><trkpt lat="44.52167018670155" lon="11.135404397675202"><ele>58.0</ele><time>2026-03-22T10:54:40Z</time></trkpt><trkpt lat="44.52157383540309" lon="11.135648280029807"><ele>58.0</ele><time>2026-03-22T10:54:41Z</time></trkpt><trkpt lat="44.521469046256456" lon="11.135887729600515"><ele>57.666666666666664</ele><time>2026-03-22T10:54:42Z</time></trkpt><trkpt lat="44.521360999383155" lon="11.136123200540696"><ele>57.33333333333333</ele><time>2026-03-22T10:54:43Z</time></trkpt><trkpt lat="44.521253098148776" lon="11.136352179833233"><ele>57.0</ele><time>2026-03-22T10:54:44Z</time></trkpt><trkpt lat="44.521142439418576" lon="11.136583900660028"><ele>57.0</ele><time>2026-03-22T10:54:45Z</time></trkpt><trkpt lat="44.52103093095595" lon="11.136816685062097"><ele>57.0</ele><time>2026-03-22T10:54:46Z</time></trkpt><trkpt lat="44.520922144569006" lon="11.137043575696913"><ele>57.0</ele><time>2026-03-22T10:54:47Z</time></trkpt><trkpt lat="44.52081498129635" lon="11.137267081080223"><ele>57.0</ele><time>2026-03-22T10:54:48Z</time></trkpt><trkpt lat="44.52073234740662" lon="11.137525759932796"><ele>57.0</ele><time>2026-03-22T10:54:49Z</time></trkpt><trkpt lat="44.52061724241277" lon="11.137773574301809"><ele>57.0</ele><time>2026-03-22T10:54:50Z</time></trkpt><trkpt lat="44.52049844386623" lon="11.13802910916526"><ele>56.5</ele><time>2026-03-22T10:54:51Z</time></trkpt><trkpt lat="44.52036893739432" lon="11.138313504104824"><ele>56.0</ele><time>2026-03-22T10:54:52Z</time></trkpt><trkpt lat="44.5202255596297" lon="11.138633404189036"><ele>56.0</ele><time>2026-03-22T10:54:53Z</time></trkpt><trkpt lat="44.52006942373511" lon="11.138973803604694"><ele>56.0</ele><time>2026-03-22T10:54:54Z</time></trkpt><trkpt lat="44.51990921797774" lon="11.139298565061402"><ele>55.5</ele><time>2026-03-22T10:54:55Z</time></trkpt><trkpt lat="44.519761174492466" lon="11.13957782953712"><ele>55.0</ele><time>2026-03-22T10:54:56Z</time></trkpt><trkpt lat="44.519622535280554" lon="11.139878546399803"><ele>55.0</ele><time>2026-03-22T10:54:57Z</time></trkpt><trkpt lat="44.51949247778213" lon="11.140158872776631"><ele>55.0</ele><time>2026-03-22T10:54:58Z</time></trkpt><trkpt lat="44.5193566418545" lon="11.140437936531857"><ele>54.5</ele><time>2026-03-22T10:54:59Z</time></trkpt><trkpt lat="44.519222502483736" lon="11.140716606575035"><ele>54.0</ele><time>2026-03-22T10:55:00Z</time></trkpt><trkpt lat="44.51909260696529" lon="11.140995810307796"><ele>54.0</ele><time>2026-03-22T10:55:01Z</time></trkpt><trkpt lat="44.518970748301946" lon="11.141267607342328"><ele>54.0</ele><time>2026-03-22T10:55:02Z</time></trkpt><trkpt lat="44.51885135263435" lon="11.141533607690276"><ele>55.0</ele><time>2026-03-22T10:55:03Z</time></trkpt><trkpt lat="44.518734242981466" lon="11.141809066962125"><ele>56.0</ele><time>2026-03-22T10:55:04Z</time></trkpt><trkpt lat="44.518615226455246" lon="11.142093903745023"><ele>56.0</ele><time>2026-03-22T10:55:05Z</time></trkpt><trkpt lat="44.51850091077733" lon="11.142375984590208"><ele>56.0</ele><time>2026-03-22T10:55:06Z</time></trkpt><trkpt lat="44.51839539932002" lon="11.142655334515888"><ele>56.0</ele><time>2026-03-22T10:55:07.001Z</time></trkpt><trkpt lat="44.518291864981336" lon="11.142928365997763"><ele>56.0</ele><time>2026-03-22T10:55:08.001Z</time></trkpt><trkpt lat="44.518186868810524" lon="11.14320341572532"><ele>56.0</ele><time>2026-03-22T10:55:09.001Z</time></trkpt><trkpt lat="44.51808093068073" lon="11.143485572665737"><ele>56.0</ele><time>2026-03-22T10:55:10.001Z</time></trkpt><trkpt lat="44.51798331839917" lon="11.143751575099529"><ele>56.0</ele><time>2026-03-22T10:55:11.001Z</time></trkpt><trkpt lat="44.5178754033433" lon="11.144042559962752"><ele>56.0</ele><time>2026-03-22T10:55:12.001Z</time></trkpt><trkpt lat="44.51776221305955" lon="11.144368167853225"><ele>56.0</ele><time>2026-03-22T10:55:13.001Z</time></trkpt><trkpt lat="44.517639795620894" lon="11.144710607310115"><ele>56.0</ele><time>2026-03-22T10:55:14.001Z</time></trkpt><trkpt lat="44.51750641388508" lon="11.145069537785199"><ele>56.0</ele><time>2026-03-22T10:55:15.001Z</time></trkpt><trkpt lat="44.51736424615124" lon="11.145429818402603"><ele>56.0</ele><time>2026-03-22T10:55:16.001Z</time></trkpt><trkpt lat="44.51722884860219" lon="11.14578142469171"><ele>55.0</ele><time>2026-03-22T10:55:17.001Z</time></trkpt><trkpt lat="44.517112111538786" lon="11.14610379601989"><ele>54.0</ele><time>2026-03-22T10:55:18.001Z</time></trkpt><trkpt lat="44.516999441902556" lon="11.146409111996146"><ele>54.0</ele><time>2026-03-22T10:55:19.001Z</time></trkpt><trkpt lat="44.51688672945766" lon="11.146716903567276"><ele>54.0</ele><time>2026-03-22T10:55:20.001Z</time></trkpt><trkpt lat="44.51678209616539" lon="11.146996394181821"><ele>54.0</ele><time>2026-03-22T10:55:21.001Z</time></trkpt><trkpt lat="44.51668493541058" lon="11.14726052739862"><ele>54.0</ele><time>2026-03-22T10:55:22.001Z</time></trkpt><trkpt lat="44.51659014227979" lon="11.147521756996497"><ele>54.0</ele><time>2026-03-22T10:55:23.001Z</time></trkpt><trkpt lat="44.516490103028886" lon="11.147791088169942"><ele>54.33333333333333</ele><time>2026-03-22T10:55:24.001Z</time></trkpt><trkpt lat="44.51639641188388" lon="11.148036213439793"><ele>54.666666666666664</ele><time>2026-03-22T10:55:25.001Z</time></trkpt><trkpt lat="44.516306151635725" lon="11.148279202651501"><ele>55.0</ele><time>2026-03-22T10:55:26.001Z</time></trkpt><trkpt lat="44.51621403535921" lon="11.14852774942177"><ele>55.33333333333333</ele><time>2026-03-22T10:55:27.001Z</time></trkpt><trkpt lat="44.51612408258254" lon="11.14876845320245"><ele>55.66666666666667</ele><time>2026-03-22T10:55:27.999Z</time></trkpt><trkpt lat="44.51603731793023" lon="11.149004818587146"><ele>56.0</ele><time>2026-03-22T10:55:28.999Z</time></trkpt><trkpt lat="44.51595665006339" lon="11.149230715300853"><ele>56.0</ele><time>2026-03-22T10:55:29.999Z</time></trkpt><trkpt lat="44.51588181696326" lon="11.149447312970024"><ele>56.0</ele><time>2026-03-22T10:55:30.999Z</time></trkpt><trkpt lat="44.51579898075928" lon="11.149673008701445"><ele>56.0</ele><time>2026-03-22T10:55:31.999Z</time></trkpt><trkpt lat="44.51572010251418" lon="11.149901594753533"><ele>56.0</ele><time>2026-03-22T10:55:32.999Z</time></trkpt><trkpt lat="44.51565494373351" lon="11.150116832290562"><ele>56.0</ele><time>2026-03-22T10:55:33.999Z</time></trkpt><trkpt lat="44.51559518616977" lon="11.150329282258886"><ele>56.0</ele><time>2026-03-22T10:55:34.999Z</time></trkpt><trkpt lat="44.515537480772124" lon="11.150525038062604"><ele>56.333333333333336</ele><time>2026-03-22T10:55:35.999Z</time></trkpt><trkpt lat="44.51548586666591" lon="11.150728748058409"><ele>56.66666666666667</ele><time>2026-03-22T10:55:36.999Z</time></trkpt><trkpt lat="44.51543423861591" lon="11.150935009066819"><ele>57.0</ele><time>2026-03-22T10:55:37.999Z</time></trkpt><trkpt lat="44.51538034715753" lon="11.151139889433262"><ele>57.0</ele><time>2026-03-22T10:55:38.999Z</time></trkpt><trkpt lat="44.515328907692236" lon="11.151355470885173"><ele>57.0</ele><time>2026-03-22T10:55:39.999Z</time></trkpt><trkpt lat="44.51527989580393" lon="11.151574726077989"><ele>57.0</ele><time>2026-03-22T10:55:40.999Z</time></trkpt><trkpt lat="44.51523353141966" lon="11.151791317165966"><ele>57.33333333333333</ele><time>2026-03-22T10:55:41.999Z</time></trkpt><trkpt lat="44.51519012742295" lon="11.152010799833583"><ele>57.666666666666664</ele><time>2026-03-22T10:55:42.999Z</time></trkpt><trkpt lat="44.5151486724316" lon="11.152228920315386"><ele>58.0</ele><time>2026-03-22T10:55:43.999Z</time></trkpt><trkpt lat="44.5151024926379" lon="11.152499199118045"><ele>58.0</ele><time>2026-03-22T10:55:44.999Z</time></trkpt><trkpt lat="44.515057359786276" lon="11.152816105950759"><ele>58.0</ele><time>2026-03-22T10:55:45.999Z</time></trkpt><trkpt lat="44.514996024489086" lon="11.153164144108844"><ele>58.0</ele><time>2026-03-22T10:55:47Z</time></trkpt><trkpt lat="44.514925315288345" lon="11.153539817839665"><ele>58.0</ele><time>2026-03-22T10:55:48Z</time></trkpt><trkpt lat="44.51486402806775" lon="11.153891548585268"><ele>57.0</ele><time>2026-03-22T10:55:49Z</time></trkpt><trkpt lat="44.51480652845333" lon="11.154211487589412"><ele>56.0</ele><time>2026-03-22T10:55:50Z</time></trkpt><trkpt lat="44.51474573817937" lon="11.154554386896406"><ele>55.5</ele><time>2026-03-22T10:55:51Z</time></trkpt><trkpt lat="44.51468631329365" lon="11.154907534526162"><ele>55.0</ele><time>2026-03-22T10:55:52Z</time></trkpt><trkpt lat="44.514619693803844" lon="11.155288350210112"><ele>55.5</ele><time>2026-03-22T10:55:53Z</time></trkpt><trkpt lat="44.51450557656743" lon="11.155660560527485"><ele>56.0</ele><time>2026-03-22T10:55:54Z</time></trkpt><trkpt lat="44.51444437201762" lon="11.15603039175988"><ele>56.0</ele><time>2026-03-22T10:55:55Z</time></trkpt><trkpt lat="44.51438498329306" lon="11.15639341496542"><ele>56.0</ele><time>2026-03-22T10:55:56Z</time></trkpt><trkpt lat="44.51432733267034" lon="11.156739135711522"><ele>56.5</ele><time>2026-03-22T10:55:57Z</time></trkpt><trkpt lat="44.514272148420886" lon="11.157059677358317"><ele>57.0</ele><time>2026-03-22T10:55:58Z</time></trkpt><trkpt lat="44.514219370510354" lon="11.157366242517186"><ele>57.33333333333333</ele><time>2026-03-22T10:55:59Z</time></trkpt><trkpt lat="44.514171078620684" lon="11.157646749811821"><ele>57.666666666666664</ele><time>2026-03-22T10:56:00Z</time></trkpt><trkpt lat="44.51412075251209" lon="11.157939072807284"><ele>58.0</ele><time>2026-03-22T10:56:01Z</time></trkpt><trkpt lat="44.51406726690506" lon="11.158249748428004"><ele>58.0</ele><time>2026-03-22T10:56:02Z</time></trkpt><trkpt lat="44.51401111374427" lon="11.158575918853053"><ele>58.0</ele><time>2026-03-22T10:56:03Z</time></trkpt><trkpt lat="44.51395561007852" lon="11.158898316027944"><ele>57.666666666666664</ele><time>2026-03-22T10:56:04Z</time></trkpt><trkpt lat="44.513904412489794" lon="11.159195701226349"><ele>57.33333333333333</ele><time>2026-03-22T10:56:05Z</time></trkpt><trkpt lat="44.51385821227975" lon="11.159463103691136"><ele>57.0</ele><time>2026-03-22T10:56:06Z</time></trkpt><trkpt lat="44.51381182693338" lon="11.159730908451426"><ele>57.0</ele><time>2026-03-22T10:56:07Z</time></trkpt><trkpt lat="44.51376841046188" lon="11.159981572372995"><ele>57.0</ele><time>2026-03-22T10:56:08Z</time></trkpt><trkpt lat="44.513728455296636" lon="11.16021225257411"><ele>57.0</ele><time>2026-03-22T10:56:09Z</time></trkpt><trkpt lat="44.513703326354666" lon="11.160450932958616"><ele>57.0</ele><time>2026-03-22T10:56:10Z</time></trkpt><trkpt lat="44.513665691649436" lon="11.160672902332854"><ele>57.0</ele><time>2026-03-22T10:56:11Z</time></trkpt><trkpt lat="44.51360907798972" lon="11.160901474563211"><ele>57.0</ele><time>2026-03-22T10:56:12Z</time></trkpt><trkpt lat="44.51356953985314" lon="11.161130232588352"><ele>56.66666666666667</ele><time>2026-03-22T10:56:13Z</time></trkpt><trkpt lat="44.51354865025569" lon="11.161352097742185"><ele>56.333333333333336</ele><time>2026-03-22T10:56:14Z</time></trkpt><trkpt lat="44.51351245578486" lon="11.161551800005768"><ele>56.0</ele><time>2026-03-22T10:56:15Z</time></trkpt><trkpt lat="44.51347556254555" lon="11.161759181618166"><ele>55.66666666666667</ele><time>2026-03-22T10:56:16Z</time></trkpt><trkpt lat="44.513436017762544" lon="11.161974820079063"><ele>55.33333333333333</ele><time>2026-03-22T10:56:17Z</time></trkpt><trkpt lat="44.51339259114018" lon="11.162215747631857"><ele>55.0</ele><time>2026-03-22T10:56:18Z</time></trkpt><trkpt lat="44.513344589033835" lon="11.162498293858798"><ele>55.0</ele><time>2026-03-22T10:56:19Z</time></trkpt><trkpt lat="44.51328667491902" lon="11.16280004601045"><ele>55.0</ele><time>2026-03-22T10:56:20Z</time></trkpt><trkpt lat="44.51322596183214" lon="11.163080052585965"><ele>55.0</ele><time>2026-03-22T10:56:21Z</time></trkpt><trkpt lat="44.51317229953302" lon="11.163339368013872"><ele>55.33333333333333</ele><time>2026-03-22T10:56:22Z</time></trkpt><trkpt lat="44.51311465922612" lon="11.163586015709127"><ele>55.66666666666667</ele><time>2026-03-22T10:56:23Z</time></trkpt><trkpt lat="44.513055724733654" lon="11.163810972537869"><ele>56.0</ele><time>2026-03-22T10:56:24Z</time></trkpt><trkpt lat="44.51300050576993" lon="11.164031364014004"><ele>56.0</ele><time>2026-03-22T10:56:25Z</time></trkpt><trkpt lat="44.51292950473685" lon="11.164293853121139"><ele>56.0</ele><time>2026-03-22T10:56:26Z</time></trkpt><trkpt lat="44.512853996263416" lon="11.164574671120286"><ele>56.0</ele><time>2026-03-22T10:56:27Z</time></trkpt><trkpt lat="44.51277396601724" lon="11.164889214302047"><ele>55.0</ele><time>2026-03-22T10:56:28Z</time></trkpt><trkpt lat="44.51268463011145" lon="11.165217090986962"><ele>54.0</ele><time>2026-03-22T10:56:29Z</time></trkpt><trkpt lat="44.512595729409846" lon="11.165530396886176"><ele>55.0</ele><time>2026-03-22T10:56:30Z</time></trkpt><trkpt lat="44.512490225065044" lon="11.165830631247754"><ele>56.0</ele><time>2026-03-22T10:56:31Z</time></trkpt><trkpt lat="44.51240232498344" lon="11.166132036335656"><ele>56.0</ele><time>2026-03-22T10:56:32Z</time></trkpt><trkpt lat="44.51233995570567" lon="11.166430019046881"><ele>56.0</ele><time>2026-03-22T10:56:33Z</time></trkpt><trkpt lat="44.512263761364615" lon="11.166696853127794"><ele>56.0</ele><time>2026-03-22T10:56:34Z</time></trkpt><trkpt lat="44.512187992787844" lon="11.166957943811383"><ele>56.333333333333336</ele><time>2026-03-22T10:56:35Z</time></trkpt><trkpt lat="44.512110820321936" lon="11.167232592840751"><ele>56.66666666666667</ele><time>2026-03-22T10:56:36Z</time></trkpt><trkpt lat="44.51200856001306" lon="11.167493354259502"><ele>57.0</ele><time>2026-03-22T10:56:37Z</time></trkpt><trkpt lat="44.511931386320256" lon="11.167769194406752"><ele>56.33333333333333</ele><time>2026-03-22T10:56:38Z</time></trkpt><trkpt lat="44.511851167614196" lon="11.168054579596129"><ele>55.666666666666664</ele><time>2026-03-22T10:56:39Z</time></trkpt><trkpt lat="44.51176902497665" lon="11.168349916644031"><ele>55.0</ele><time>2026-03-22T10:56:40Z</time></trkpt><trkpt lat="44.51168863756899" lon="11.168648976338538"><ele>55.0</ele><time>2026-03-22T10:56:41Z</time></trkpt><trkpt lat="44.511610555443134" lon="11.168937953849357"><ele>55.0</ele><time>2026-03-22T10:56:42Z</time></trkpt><trkpt lat="44.51153960199307" lon="11.169227326993692"><ele>55.0</ele><time>2026-03-22T10:56:43Z</time></trkpt><trkpt lat="44.51149088004907" lon="11.169523972496792"><ele>54.666666666666664</ele><time>2026-03-22T10:56:44Z</time></trkpt><trkpt lat="44.511433191563384" lon="11.169805638591043"><ele>54.33333333333333</ele><time>2026-03-22T10:56:45.001Z</time></trkpt><trkpt lat="44.51138377135293" lon="11.170084663852899"><ele>54.0</ele><time>2026-03-22T10:56:46.001Z</time></trkpt><trkpt lat="44.511340863250865" lon="11.170367726995776"><ele>54.33333333333333</ele><time>2026-03-22T10:56:47.001Z</time></trkpt><trkpt lat="44.51128006475308" lon="11.170642544957412"><ele>54.666666666666664</ele><time>2026-03-22T10:56:48.001Z</time></trkpt><trkpt lat="44.51123921273079" lon="11.17092856048159"><ele>55.0</ele><time>2026-03-22T10:56:49.001Z</time></trkpt><trkpt lat="44.511205951055594" lon="11.171223723043568"><ele>55.0</ele><time>2026-03-22T10:56:50.001Z</time></trkpt><trkpt lat="44.511179630402914" lon="11.171504879301736"><ele>55.0</ele><time>2026-03-22T10:56:51.001Z</time></trkpt><trkpt lat="44.51115567135577" lon="11.171780049678548"><ele>55.0</ele><time>2026-03-22T10:56:52.001Z</time></trkpt><trkpt lat="44.51113453585498" lon="11.172038815077611"><ele>54.33333333333333</ele><time>2026-03-22T10:56:53.001Z</time></trkpt><trkpt lat="44.51111267931318" lon="11.17230833872702"><ele>53.66666666666667</ele><time>2026-03-22T10:56:54.001Z</time></trkpt><trkpt lat="44.51109065474585" lon="11.172578296545245"><ele>53.0</ele><time>2026-03-22T10:56:55.001Z</time></trkpt><trkpt lat="44.51106708078937" lon="11.172864297931376"><ele>53.0</ele><time>2026-03-22T10:56:56.001Z</time></trkpt><trkpt lat="44.511044351931375" lon="11.173140872011842"><ele>53.0</ele><time>2026-03-22T10:56:57.001Z</time></trkpt><trkpt lat="44.511059030938405" lon="11.173382219808934"><ele>53.0</ele><time>2026-03-22T10:56:58.001Z</time></trkpt><trkpt lat="44.51104148719061" lon="11.173596089023393"><ele>53.0</ele><time>2026-03-22T10:56:59.001Z</time></trkpt><trkpt lat="44.511022803351736" lon="11.173799377284206"><ele>53.0</ele><time>2026-03-22T10:57:00.001Z</time></trkpt><trkpt lat="44.511004329975854" lon="11.17404884779961"><ele>53.0</ele><time>2026-03-22T10:57:01.001Z</time></trkpt><trkpt lat="44.5109469509671" lon="11.174317532295634"><ele>52.333333333333336</ele><time>2026-03-22T10:57:02.001Z</time></trkpt><trkpt lat="44.510923799318974" lon="11.174606880535453"><ele>51.66666666666667</ele><time>2026-03-22T10:57:03.001Z</time></trkpt><trkpt lat="44.510897581647775" lon="11.174917723621439"><ele>51.0</ele><time>2026-03-22T10:57:04.001Z</time></trkpt><trkpt lat="44.510871027507555" lon="11.175244719119412"><ele>51.0</ele><time>2026-03-22T10:57:05.001Z</time></trkpt><trkpt lat="44.51084478628569" lon="11.175565162178607"><ele>51.0</ele><time>2026-03-22T10:57:06.001Z</time></trkpt><trkpt lat="44.510822610024135" lon="11.175838629191855"><ele>51.0</ele><time>2026-03-22T10:57:07.001Z</time></trkpt><trkpt lat="44.51080071640871" lon="11.176109592491786"><ele>51.33333333333333</ele><time>2026-03-22T10:57:08.001Z</time></trkpt><trkpt lat="44.51077673770989" lon="11.176406361941641"><ele>51.666666666666664</ele><time>2026-03-22T10:57:09.001Z</time></trkpt><trkpt lat="44.510753124389616" lon="11.176698609035794"><ele>52.0</ele><time>2026-03-22T10:57:10.001Z</time></trkpt><trkpt lat="44.510732381698716" lon="11.176955328257721"><ele>52.0</ele><time>2026-03-22T10:57:11.001Z</time></trkpt><trkpt lat="44.510712577188364" lon="11.177200367053608"><ele>52.0</ele><time>2026-03-22T10:57:12.001Z</time></trkpt><trkpt lat="44.51069220707855" lon="11.17745493278367"><ele>52.0</ele><time>2026-03-22T10:57:13.001Z</time></trkpt><trkpt lat="44.51067111834806" lon="11.177720838145639"><ele>52.33333333333333</ele><time>2026-03-22T10:57:14.001Z</time></trkpt><trkpt lat="44.51065138042247" lon="11.177963556700117"><ele>52.66666666666667</ele><time>2026-03-22T10:57:15.001Z</time></trkpt><trkpt lat="44.51063109595878" lon="11.178195907484742"><ele>53.0</ele><time>2026-03-22T10:57:16.001Z</time></trkpt><trkpt lat="44.51060918857223" lon="11.178419103386654"><ele>53.0</ele><time>2026-03-22T10:57:17.001Z</time></trkpt><trkpt lat="44.51058751930084" lon="11.17862261748386"><ele>53.0</ele><time>2026-03-22T10:57:18.001Z</time></trkpt><trkpt lat="44.5105593944244" lon="11.178856300105883"><ele>53.0</ele><time>2026-03-22T10:57:19.001Z</time></trkpt><trkpt lat="44.51052080809724" lon="11.179128330841616"><ele>53.66666666666667</ele><time>2026-03-22T10:57:20.001Z</time></trkpt><trkpt lat="44.510475453953674" lon="11.179413305171716"><ele>54.33333333333333</ele><time>2026-03-22T10:57:21.001Z</time></trkpt><trkpt lat="44.510425861465386" lon="11.179701632438572"><ele>55.0</ele><time>2026-03-22T10:57:22.001Z</time></trkpt><trkpt lat="44.51037645340832" lon="11.179969247450801"><ele>53.33333333333333</ele><time>2026-03-22T10:57:23.001Z</time></trkpt><trkpt lat="44.51032651438383" lon="11.18020733159198"><ele>51.66666666666667</ele><time>2026-03-22T10:57:24.001Z</time></trkpt><trkpt lat="44.5102755756066" lon="11.180440111855455"><ele>50.0</ele><time>2026-03-22T10:57:25.001Z</time></trkpt><trkpt lat="44.510219895788" lon="11.180673375271061"><ele>51.0</ele><time>2026-03-22T10:57:26.001Z</time></trkpt><trkpt lat="44.51016870494193" lon="11.180879231900215"><ele>52.0</ele><time>2026-03-22T10:57:27.001Z</time></trkpt><trkpt lat="44.51011614282186" lon="11.181071454138625"><ele>53.0</ele><time>2026-03-22T10:57:28.001Z</time></trkpt><trkpt lat="44.51006114798507" lon="11.1812701912244"><ele>53.0</ele><time>2026-03-22T10:57:29.001Z</time></trkpt><trkpt lat="44.50999855424312" lon="11.181496388951523"><ele>53.0</ele><time>2026-03-22T10:57:30.001Z</time></trkpt><trkpt lat="44.50992704212689" lon="11.181752404976708"><ele>53.0</ele><time>2026-03-22T10:57:31.001Z</time></trkpt><trkpt lat="44.50984487562318" lon="11.182046162641287"><ele>53.5</ele><time>2026-03-22T10:57:32.001Z</time></trkpt><trkpt lat="44.50975229619741" lon="11.18237714709577"><ele>54.0</ele><time>2026-03-22T10:57:33.001Z</time></trkpt><trkpt lat="44.50966713439075" lon="11.182681613351583"><ele>54.0</ele><time>2026-03-22T10:57:34Z</time></trkpt><trkpt lat="44.50959423586833" lon="11.182942236478143"><ele>54.0</ele><time>2026-03-22T10:57:35Z</time></trkpt><trkpt lat="44.50952530762895" lon="11.183188708033578"><ele>54.0</ele><time>2026-03-22T10:57:36Z</time></trkpt><trkpt lat="44.50945151170078" lon="11.183453587193153"><ele>53.0</ele><time>2026-03-22T10:57:37Z</time></trkpt><trkpt lat="44.509378039847995" lon="11.18371730306972"><ele>52.0</ele><time>2026-03-22T10:57:38Z</time></trkpt><trkpt lat="44.50930415896659" lon="11.183982486660799"><ele>51.0</ele><time>2026-03-22T10:57:39Z</time></trkpt><trkpt lat="44.50923189050816" lon="11.184242263299891"><ele>51.0</ele><time>2026-03-22T10:57:40Z</time></trkpt><trkpt lat="44.50916484068422" lon="11.184483471147274"><ele>51.0</ele><time>2026-03-22T10:57:41Z</time></trkpt><trkpt lat="44.50910780261345" lon="11.184688662288725"><ele>51.0</ele><time>2026-03-22T10:57:42Z</time></trkpt><trkpt lat="44.509047508045846" lon="11.184904816991828"><ele>51.0</ele><time>2026-03-22T10:57:43Z</time></trkpt><trkpt lat="44.508981902132994" lon="11.18513834971456"><ele>51.0</ele><time>2026-03-22T10:57:44Z</time></trkpt><trkpt lat="44.508899555615336" lon="11.185431473129853"><ele>51.0</ele><time>2026-03-22T10:57:45Z</time></trkpt><trkpt lat="44.50881206974203" lon="11.185742890635161"><ele>51.0</ele><time>2026-03-22T10:57:46Z</time></trkpt><trkpt lat="44.50871818989906" lon="11.186077068833185"><ele>51.0</ele><time>2026-03-22T10:57:47Z</time></trkpt><trkpt lat="44.50863516450782" lon="11.186373036699916"><ele>51.33333333333333</ele><time>2026-03-22T10:57:48Z</time></trkpt><trkpt lat="44.50856084286633" lon="11.186637965257503"><ele>51.666666666666664</ele><time>2026-03-22T10:57:49Z</time></trkpt><trkpt lat="44.50848873108726" lon="11.18689501624061"><ele>52.0</ele><time>2026-03-22T10:57:50Z</time></trkpt><trkpt lat="44.50842844185599" lon="11.187109924967864"><ele>52.0</ele><time>2026-03-22T10:57:51Z</time></trkpt><trkpt lat="44.50837898360775" lon="11.187286225163277"><ele>52.0</ele><time>2026-03-22T10:57:52Z</time></trkpt><trkpt lat="44.508341446513285" lon="11.187420030637195"><ele>52.0</ele><time>2026-03-22T10:57:53Z</time></trkpt><trkpt lat="44.50829983006229" lon="11.187568377637858"><ele>52.0</ele><time>2026-03-22T10:57:54Z</time></trkpt><trkpt lat="44.508259920828664" lon="11.187711015999596"><ele>52.2</ele><time>2026-03-22T10:57:55Z</time></trkpt><trkpt lat="44.508226132763305" lon="11.18783309953308"><ele>52.400000000000006</ele><time>2026-03-22T10:57:56Z</time></trkpt><trkpt lat="44.50819097273178" lon="11.187960139871299"><ele>52.599999999999994</ele><time>2026-03-22T10:57:57Z</time></trkpt><trkpt lat="44.508157164824866" lon="11.188082294536928"><ele>52.8</ele><time>2026-03-22T10:57:58Z</time></trkpt><trkpt lat="44.50811736219967" lon="11.188226109572293"><ele>53.0</ele><time>2026-03-22T10:57:59Z</time></trkpt><trkpt lat="44.50805773457827" lon="11.188441556220145"><ele>53.0</ele><time>2026-03-22T10:58:00Z</time></trkpt><trkpt lat="44.50799367463611" lon="11.188670869871135"><ele>53.0</ele><time>2026-03-22T10:58:01Z</time></trkpt><trkpt lat="44.507934939226004" lon="11.18888048066791"><ele>53.0</ele><time>2026-03-22T10:58:02Z</time></trkpt><trkpt lat="44.50787721464097" lon="11.189086484123859"><ele>53.333333333333336</ele><time>2026-03-22T10:58:03Z</time></trkpt><trkpt lat="44.50781999817451" lon="11.189290674217588"><ele>53.66666666666667</ele><time>2026-03-22T10:58:04Z</time></trkpt><trkpt lat="44.50775485348459" lon="11.189523158071951"><ele>54.0</ele><time>2026-03-22T10:58:05Z</time></trkpt><trkpt lat="44.50768360771861" lon="11.18977708658997"><ele>54.0</ele><time>2026-03-22T10:58:06Z</time></trkpt><trkpt lat="44.50761357544485" lon="11.190026253896763"><ele>54.0</ele><time>2026-03-22T10:58:07Z</time></trkpt><trkpt lat="44.50755135202644" lon="11.190246072868463"><ele>54.0</ele><time>2026-03-22T10:58:08Z</time></trkpt><trkpt lat="44.5074926111814" lon="11.190450485602275"><ele>54.0</ele><time>2026-03-22T10:58:09Z</time></trkpt><trkpt lat="44.50742686306062" lon="11.190673443866446"><ele>54.0</ele><time>2026-03-22T10:58:10Z</time></trkpt><trkpt lat="44.507359880534665" lon="11.190899737162587"><ele>54.0</ele><time>2026-03-22T10:58:11Z</time></trkpt><trkpt lat="44.50729404943749" lon="11.19112073783758"><ele>53.66666666666667</ele><time>2026-03-22T10:58:12Z</time></trkpt><trkpt lat="44.50722887580943" lon="11.19133563342763"><ele>53.333333333333336</ele><time>2026-03-22T10:58:13Z</time></trkpt><trkpt lat="44.507151970873245" lon="11.191589210292245"><ele>53.0</ele><time>2026-03-22T10:58:14Z</time></trkpt><trkpt lat="44.50706529606385" lon="11.191875001872184"><ele>53.66666666666667</ele><time>2026-03-22T10:58:15Z</time></trkpt><trkpt lat="44.50697429744381" lon="11.192176153115449"><ele>54.33333333333333</ele><time>2026-03-22T10:58:16Z</time></trkpt><trkpt lat="44.506891062782245" lon="11.192453475422385"><ele>55.0</ele><time>2026-03-22T10:58:17Z</time></trkpt><trkpt lat="44.50682026439798" lon="11.192689894939802"><ele>55.33333333333333</ele><time>2026-03-22T10:58:18Z</time></trkpt><trkpt lat="44.50675585718104" lon="11.192907645890719"><ele>55.66666666666667</ele><time>2026-03-22T10:58:19Z</time></trkpt><trkpt lat="44.50669653274479" lon="11.193108213267088"><ele>56.0</ele><time>2026-03-22T10:58:20Z</time></trkpt><trkpt lat="44.506634749120806" lon="11.193318138995759"><ele>56.0</ele><time>2026-03-22T10:58:21Z</time></trkpt><trkpt lat="44.5065647507007" lon="11.193561034994136"><ele>56.0</ele><time>2026-03-22T10:58:22Z</time></trkpt><trkpt lat="44.506494065799814" lon="11.193819590894794"><ele>56.0</ele><time>2026-03-22T10:58:23Z</time></trkpt><trkpt lat="44.506431695848505" lon="11.194049047457723"><ele>56.333333333333336</ele><time>2026-03-22T10:58:24Z</time></trkpt><trkpt lat="44.50637222965713" lon="11.194268695751964"><ele>56.66666666666667</ele><time>2026-03-22T10:58:25Z</time></trkpt><trkpt lat="44.50631153517473" lon="11.194493747851427"><ele>57.0</ele><time>2026-03-22T10:58:26Z</time></trkpt><trkpt lat="44.506254981351375" lon="11.194706059623181"><ele>56.66666666666667</ele><time>2026-03-22T10:58:27Z</time></trkpt><trkpt lat="44.50619815257296" lon="11.19492246169652"><ele>56.333333333333336</ele><time>2026-03-22T10:58:28Z</time></trkpt><trkpt lat="44.50614185150712" lon="11.195141393504507"><ele>56.0</ele><time>2026-03-22T10:58:29Z</time></trkpt><trkpt lat="44.50608567419407" lon="11.195379193567652"><ele>56.0</ele><time>2026-03-22T10:58:30Z</time></trkpt><trkpt lat="44.50602438705782" lon="11.19564109866433"><ele>56.0</ele><time>2026-03-22T10:58:31Z</time></trkpt><trkpt lat="44.505959685175284" lon="11.195919771949066"><ele>56.0</ele><time>2026-03-22T10:58:32Z</time></trkpt><trkpt lat="44.505893238021876" lon="11.196206352195013"><ele>56.333333333333336</ele><time>2026-03-22T10:58:33Z</time></trkpt><trkpt lat="44.50583074369259" lon="11.196491180013066"><ele>56.66666666666667</ele><time>2026-03-22T10:58:34Z</time></trkpt><trkpt lat="44.505774141274635" lon="11.19675442841453"><ele>57.0</ele><time>2026-03-22T10:58:35Z</time></trkpt><trkpt lat="44.50571733904606" lon="11.197025306996139"><ele>57.0</ele><time>2026-03-22T10:58:36Z</time></trkpt><trkpt lat="44.505678566443684" lon="11.197295551580423"><ele>57.0</ele><time>2026-03-22T10:58:37.001Z</time></trkpt><trkpt lat="44.505604935801394" lon="11.19757482119867"><ele>57.0</ele><time>2026-03-22T10:58:38.001Z</time></trkpt><trkpt lat="44.505552111477094" lon="11.19783603773135"><ele>57.0</ele><time>2026-03-22T10:58:39.001Z</time></trkpt><trkpt lat="44.505499644083415" lon="11.198095411513885"><ele>57.0</ele><time>2026-03-22T10:58:40.001Z</time></trkpt><trkpt lat="44.50545017361773" lon="11.198341263173557"><ele>57.0</ele><time>2026-03-22T10:58:41.001Z</time></trkpt><trkpt lat="44.505404146225715" lon="11.198570003937528"><ele>57.33333333333333</ele><time>2026-03-22T10:58:42.001Z</time></trkpt><trkpt lat="44.50535674047786" lon="11.198805595060897"><ele>57.666666666666664</ele><time>2026-03-22T10:58:43.001Z</time></trkpt><trkpt lat="44.505307743380804" lon="11.199049094382557"><ele>58.0</ele><time>2026-03-22T10:58:44.001Z</time></trkpt><trkpt lat="44.505262587009696" lon="11.199272790254751"><ele>58.0</ele><time>2026-03-22T10:58:45.001Z</time></trkpt><trkpt lat="44.505215089504446" lon="11.19950428506143"><ele>58.0</ele><time>2026-03-22T10:58:46.001Z</time></trkpt><trkpt lat="44.50517126239965" lon="11.19971789087626"><ele>58.0</ele><time>2026-03-22T10:58:47.001Z</time></trkpt><trkpt lat="44.5051224365813" lon="11.199955068787439"><ele>57.666666666666664</ele><time>2026-03-22T10:58:48.001Z</time></trkpt><trkpt lat="44.505067347279216" lon="11.200207905122893"><ele>57.33333333333333</ele><time>2026-03-22T10:58:49.001Z</time></trkpt><trkpt lat="44.50499898291075" lon="11.200503599103843"><ele>57.0</ele><time>2026-03-22T10:58:50.001Z</time></trkpt><trkpt lat="44.50491290976632" lon="11.200849860330077"><ele>57.0</ele><time>2026-03-22T10:58:51.001Z</time></trkpt><trkpt lat="44.50481502852043" lon="11.201201545318034"><ele>57.0</ele><time>2026-03-22T10:58:52.001Z</time></trkpt><trkpt lat="44.50472979670928" lon="11.201489494022216"><ele>56.66666666666667</ele><time>2026-03-22T10:58:53.001Z</time></trkpt><trkpt lat="44.50465175483679" lon="11.20174355407466"><ele>56.333333333333336</ele><time>2026-03-22T10:58:54.001Z</time></trkpt><trkpt lat="44.50460095227981" lon="11.201990858993451"><ele>56.0</ele><time>2026-03-22T10:58:55.001Z</time></trkpt><trkpt lat="44.50453058314198" lon="11.202182647480917"><ele>56.75</ele><time>2026-03-22T10:58:56.001Z</time></trkpt><trkpt lat="44.50446872210387" lon="11.202351301599194"><ele>57.5</ele><time>2026-03-22T10:58:57.001Z</time></trkpt><trkpt lat="44.50441179277025" lon="11.202505726800336"><ele>58.25</ele><time>2026-03-22T10:58:58.001Z</time></trkpt><trkpt lat="44.5043292253933" lon="11.202628918808122"><ele>59.0</ele><time>2026-03-22T10:58:59.001Z</time></trkpt><trkpt lat="44.50426735852845" lon="11.202781716211687"><ele>59.0</ele><time>2026-03-22T10:59:00.001Z</time></trkpt><trkpt lat="44.50419465044127" lon="11.20295602175508"><ele>59.0</ele><time>2026-03-22T10:59:01.001Z</time></trkpt><trkpt lat="44.50411567163414" lon="11.203137956415874"><ele>59.0</ele><time>2026-03-22T10:59:02.001Z</time></trkpt><trkpt lat="44.50403363730022" lon="11.2033177770209"><ele>59.0</ele><time>2026-03-22T10:59:03.001Z</time></trkpt><trkpt lat="44.50394987701386" lon="11.203493315603286"><ele>59.0</ele><time>2026-03-22T10:59:04.001Z</time></trkpt><trkpt lat="44.503858148351924" lon="11.203680506274944"><ele>59.0</ele><time>2026-03-22T10:59:05.001Z</time></trkpt><trkpt lat="44.503743676666396" lon="11.203906194441416"><ele>59.0</ele><time>2026-03-22T10:59:06.001Z</time></trkpt><trkpt lat="44.503612504075754" lon="11.204152182509931"><ele>59.0</ele><time>2026-03-22T10:59:07.001Z</time></trkpt><trkpt lat="44.50346577640129" lon="11.204414289182312"><ele>59.0</ele><time>2026-03-22T10:59:08.001Z</time></trkpt><trkpt lat="44.50329641717132" lon="11.204696961539565"><ele>58.5</ele><time>2026-03-22T10:59:09.001Z</time></trkpt><trkpt lat="44.50312849300432" lon="11.204964006608142"><ele>58.0</ele><time>2026-03-22T10:59:10.001Z</time></trkpt><trkpt lat="44.502977683724275" lon="11.205190874899621"><ele>58.666666666666664</ele><time>2026-03-22T10:59:11.001Z</time></trkpt><trkpt lat="44.50283696161602" lon="11.205385606986653"><ele>59.33333333333333</ele><time>2026-03-22T10:59:12.001Z</time></trkpt><trkpt lat="44.50270064124685" lon="11.20557282296413"><ele>60.0</ele><time>2026-03-22T10:59:13.001Z</time></trkpt><trkpt lat="44.5025680533745" lon="11.20575032229951"><ele>60.0</ele><time>2026-03-22T10:59:14.001Z</time></trkpt><trkpt lat="44.502427191395945" lon="11.205928091651444"><ele>60.0</ele><time>2026-03-22T10:59:15.001Z</time></trkpt><trkpt lat="44.5022882425022" lon="11.206091275871232"><ele>60.0</ele><time>2026-03-22T10:59:16.001Z</time></trkpt><trkpt lat="44.50215026705915" lon="11.206245236533537"><ele>60.33333333333333</ele><time>2026-03-22T10:59:17.001Z</time></trkpt><trkpt lat="44.50199707826732" lon="11.206416082895638"><ele>60.666666666666664</ele><time>2026-03-22T10:59:18.001Z</time></trkpt><trkpt lat="44.501845195097154" lon="11.206582275029229"><ele>61.0</ele><time>2026-03-22T10:59:19.001Z</time></trkpt><trkpt lat="44.50169214406109" lon="11.206740237366375"><ele>61.0</ele><time>2026-03-22T10:59:20.001Z</time></trkpt><trkpt lat="44.501536363416676" lon="11.2068947836848"><ele>61.0</ele><time>2026-03-22T10:59:21.001Z</time></trkpt><trkpt lat="44.50137590403757" lon="11.207049422625946"><ele>61.0</ele><time>2026-03-22T10:59:22.001Z</time></trkpt><trkpt lat="44.50121467117064" lon="11.20720378722811"><ele>61.33333333333333</ele><time>2026-03-22T10:59:23.001Z</time></trkpt><trkpt lat="44.50106567402054" lon="11.207345756755897"><ele>61.66666666666667</ele><time>2026-03-22T10:59:24.001Z</time></trkpt><trkpt lat="44.50092260159944" lon="11.207480775560423"><ele>62.0</ele><time>2026-03-22T10:59:25.001Z</time></trkpt><trkpt lat="44.500789313260256" lon="11.207606561198059"><ele>62.0</ele><time>2026-03-22T10:59:26.001Z</time></trkpt><trkpt lat="44.500662861900345" lon="11.207724650644897"><ele>62.0</ele><time>2026-03-22T10:59:27.001Z</time></trkpt><trkpt lat="44.5005268541612" lon="11.20785454857661"><ele>62.0</ele><time>2026-03-22T10:59:28.001Z</time></trkpt><trkpt lat="44.500407617433574" lon="11.207965071388585"><ele>62.0</ele><time>2026-03-22T10:59:29.001Z</time></trkpt><trkpt lat="44.50029500192486" lon="11.208097448881928"><ele>62.0</ele><time>2026-03-22T10:59:30.001Z</time></trkpt><trkpt lat="44.50017764226179" lon="11.208200109194065"><ele>62.0</ele><time>2026-03-22T10:59:31.001Z</time></trkpt><trkpt lat="44.500063399499815" lon="11.20830631181913"><ele>62.0</ele><time>2026-03-22T10:59:32.001Z</time></trkpt><trkpt lat="44.49994941652842" lon="11.20840913802449"><ele>62.25</ele><time>2026-03-22T10:59:33.001Z</time></trkpt><trkpt lat="44.499837318794754" lon="11.208510755648533"><ele>62.5</ele><time>2026-03-22T10:59:34.001Z</time></trkpt><trkpt lat="44.499726664369014" lon="11.208615749959352"><ele>62.75</ele><time>2026-03-22T10:59:35.001Z</time></trkpt><trkpt lat="44.499617300815444" lon="11.208716355729413"><ele>63.0</ele><time>2026-03-22T10:59:36.001Z</time></trkpt><trkpt lat="44.49950577095843" lon="11.208819396739669"><ele>63.5</ele><time>2026-03-22T10:59:37.001Z</time></trkpt><trkpt lat="44.499392464110635" lon="11.208927166586951"><ele>64.0</ele><time>2026-03-22T10:59:38.001Z</time></trkpt><trkpt lat="44.499272597209924" lon="11.209038562834875"><ele>64.5</ele><time>2026-03-22T10:59:39.001Z</time></trkpt><trkpt lat="44.49915897696455" lon="11.209163461284465"><ele>65.0</ele><time>2026-03-22T10:59:40Z</time></trkpt><trkpt lat="44.49905129190373" lon="11.209312230547335"><ele>65.0</ele><time>2026-03-22T10:59:41Z</time></trkpt><trkpt lat="44.498951309644106" lon="11.209485143866653"><ele>65.0</ele><time>2026-03-22T10:59:42Z</time></trkpt><trkpt lat="44.49886357642903" lon="11.209682947493361"><ele>65.0</ele><time>2026-03-22T10:59:43Z</time></trkpt><trkpt lat="44.49878249903166" lon="11.209901590256399"><ele>64.33333333333334</ele><time>2026-03-22T10:59:44Z</time></trkpt><trkpt lat="44.49871209294814" lon="11.210116768687751"><ele>63.66666666666667</ele><time>2026-03-22T10:59:45Z</time></trkpt><trkpt lat="44.49862027579451" lon="11.210316168559439"><ele>63.0</ele><time>2026-03-22T10:59:46Z</time></trkpt><trkpt lat="44.49854057228505" lon="11.210531733989319"><ele>63.0</ele><time>2026-03-22T10:59:47Z</time></trkpt><trkpt lat="44.498447099145025" lon="11.210785141224282"><ele>63.0</ele><time>2026-03-22T10:59:48Z</time></trkpt><trkpt lat="44.49833844401023" lon="11.211082543040296"><ele>63.0</ele><time>2026-03-22T10:59:49Z</time></trkpt><trkpt lat="44.498217655325185" lon="11.211413159234013"><ele>63.5</ele><time>2026-03-22T10:59:50Z</time></trkpt><trkpt lat="44.49809215972893" lon="11.211758593210643"><ele>64.0</ele><time>2026-03-22T10:59:51Z</time></trkpt><trkpt lat="44.49797444846919" lon="11.212083020626674"><ele>64.33333333333333</ele><time>2026-03-22T10:59:52Z</time></trkpt><trkpt lat="44.49787248301196" lon="11.212364050523046"><ele>64.66666666666667</ele><time>2026-03-22T10:59:53Z</time></trkpt><trkpt lat="44.497780501463815" lon="11.21261717156546"><ele>65.0</ele><time>2026-03-22T10:59:54Z</time></trkpt><trkpt lat="44.49769215950266" lon="11.212859690786779"><ele>65.0</ele><time>2026-03-22T10:59:55Z</time></trkpt><trkpt lat="44.497601363273006" lon="11.213108947443448"><ele>65.0</ele><time>2026-03-22T10:59:56Z</time></trkpt><trkpt lat="44.497514717951255" lon="11.213347434802326"><ele>65.0</ele><time>2026-03-22T10:59:57Z</time></trkpt><trkpt lat="44.49743447647721" lon="11.213568718119342"><ele>65.0</ele><time>2026-03-22T10:59:58Z</time></trkpt><trkpt lat="44.49735158897716" lon="11.213797298414043"><ele>65.0</ele><time>2026-03-22T10:59:59Z</time></trkpt><trkpt lat="44.497272280537594" lon="11.214016008524267"><ele>65.0</ele><time>2026-03-22T11:00:00Z</time></trkpt><trkpt lat="44.4971948659706" lon="11.214229267414083"><ele>65.0</ele><time>2026-03-22T11:00:01Z</time></trkpt><trkpt lat="44.49711378593078" lon="11.214450443281091"><ele>65.0</ele><time>2026-03-22T11:00:02Z</time></trkpt><trkpt lat="44.49703335286807" lon="11.214670824542193"><ele>65.0</ele><time>2026-03-22T11:00:03Z</time></trkpt><trkpt lat="44.496956164078" lon="11.214880527993646"><ele>66.66666666666667</ele><time>2026-03-22T11:00:04Z</time></trkpt><trkpt lat="44.49690313065084" lon="11.215108100122952"><ele>68.33333333333333</ele><time>2026-03-22T11:00:05Z</time></trkpt><trkpt lat="44.49682358926851" lon="11.215323548805701"><ele>70.0</ele><time>2026-03-22T11:00:06Z</time></trkpt><trkpt lat="44.49674050460653" lon="11.215550190940405"><ele>69.66666666666666</ele><time>2026-03-22T11:00:07Z</time></trkpt><trkpt lat="44.49665658299041" lon="11.215783821047115"><ele>69.33333333333333</ele><time>2026-03-22T11:00:08Z</time></trkpt><trkpt lat="44.49654489444041" lon="11.215996956187668"><ele>69.0</ele><time>2026-03-22T11:00:09Z</time></trkpt><trkpt lat="44.49645564427375" lon="11.216243454048024"><ele>69.0</ele><time>2026-03-22T11:00:10Z</time></trkpt><trkpt lat="44.49635425983593" lon="11.216522813245643"><ele>69.0</ele><time>2026-03-22T11:00:11Z</time></trkpt><trkpt lat="44.49626219251463" lon="11.2167777910996"><ele>69.0</ele><time>2026-03-22T11:00:12Z</time></trkpt><trkpt lat="44.496179804715" lon="11.217005961862435"><ele>69.0</ele><time>2026-03-22T11:00:13Z</time></trkpt><trkpt lat="44.49610148410568" lon="11.217222778095952"><ele>69.0</ele><time>2026-03-22T11:00:14Z</time></trkpt><trkpt lat="44.49602749944229" lon="11.21742758023236"><ele>69.0</ele><time>2026-03-22T11:00:15Z</time></trkpt><trkpt lat="44.495954278598106" lon="11.21762874901979"><ele>69.0</ele><time>2026-03-22T11:00:16Z</time></trkpt><trkpt lat="44.49590471603347" lon="11.21785594259965"><ele>69.0</ele><time>2026-03-22T11:00:17Z</time></trkpt><trkpt lat="44.495837127914356" lon="11.21804867372712"><ele>69.0</ele><time>2026-03-22T11:00:18Z</time></trkpt><trkpt lat="44.495754954609204" lon="11.218259473254115"><ele>69.0</ele><time>2026-03-22T11:00:19Z</time></trkpt><trkpt lat="44.4956705859761" lon="11.218493978441277"><ele>69.0</ele><time>2026-03-22T11:00:20Z</time></trkpt><trkpt lat="44.49559374647778" lon="11.218707471343699"><ele>69.0</ele><time>2026-03-22T11:00:21Z</time></trkpt><trkpt lat="44.49549335689571" lon="11.218895431125901"><ele>69.0</ele><time>2026-03-22T11:00:22Z</time></trkpt><trkpt lat="44.49541771413747" lon="11.219109421804085"><ele>69.0</ele><time>2026-03-22T11:00:23Z</time></trkpt><trkpt lat="44.49534294091544" lon="11.21932340231239"><ele>69.0</ele><time>2026-03-22T11:00:24Z</time></trkpt><trkpt lat="44.49526364950242" lon="11.219550312643355"><ele>69.0</ele><time>2026-03-22T11:00:25Z</time></trkpt><trkpt lat="44.495172024156616" lon="11.219812519375212"><ele>69.0</ele><time>2026-03-22T11:00:26Z</time></trkpt><trkpt lat="44.49508157560936" lon="11.220077434939935"><ele>69.0</ele><time>2026-03-22T11:00:27Z</time></trkpt><trkpt lat="44.49499676724754" lon="11.220327814691341"><ele>69.33333333333333</ele><time>2026-03-22T11:00:28Z</time></trkpt><trkpt lat="44.4949165202477" lon="11.220565137247247"><ele>69.66666666666666</ele><time>2026-03-22T11:00:29.001Z</time></trkpt><trkpt lat="44.49483823129788" lon="11.220796669001883"><ele>70.0</ele><time>2026-03-22T11:00:30.001Z</time></trkpt><trkpt lat="44.49476011599901" lon="11.221027881180282"><ele>70.0</ele><time>2026-03-22T11:00:31.001Z</time></trkpt><trkpt lat="44.49468305239578" lon="11.221258186180167"><ele>70.0</ele><time>2026-03-22T11:00:32.001Z</time></trkpt><trkpt lat="44.49460876268508" lon="11.221485435034028"><ele>70.0</ele><time>2026-03-22T11:00:33.001Z</time></trkpt><trkpt lat="44.49453435159448" lon="11.221704113690718"><ele>69.66666666666666</ele><time>2026-03-22T11:00:34.001Z</time></trkpt><trkpt lat="44.49445883808165" lon="11.221933601124077"><ele>69.33333333333333</ele><time>2026-03-22T11:00:35.001Z</time></trkpt><trkpt lat="44.494380318447725" lon="11.222173462384962"><ele>69.0</ele><time>2026-03-22T11:00:36.001Z</time></trkpt><trkpt lat="44.494303284514885" lon="11.222410359387856"><ele>69.0</ele><time>2026-03-22T11:00:37.001Z</time></trkpt><trkpt lat="44.494228953395535" lon="11.222639773408405"><ele>69.0</ele><time>2026-03-22T11:00:38.001Z</time></trkpt><trkpt lat="44.494156213275666" lon="11.222864281470377"><ele>69.0</ele><time>2026-03-22T11:00:39.001Z</time></trkpt><trkpt lat="44.49407958851089" lon="11.223096421845382"><ele>69.66666666666667</ele><time>2026-03-22T11:00:40.001Z</time></trkpt><trkpt lat="44.494001652350306" lon="11.22333430326544"><ele>70.33333333333334</ele><time>2026-03-22T11:00:41.001Z</time></trkpt><trkpt lat="44.49392279385887" lon="11.223574999653735"><ele>71.0</ele><time>2026-03-22T11:00:42.001Z</time></trkpt><trkpt lat="44.493849598302226" lon="11.223792945824075"><ele>71.33333333333334</ele><time>2026-03-22T11:00:43.001Z</time></trkpt><trkpt lat="44.49377283436231" lon="11.224022091469033"><ele>71.66666666666667</ele><time>2026-03-22T11:00:44.001Z</time></trkpt><trkpt lat="44.493692839489476" lon="11.224265939349168"><ele>72.0</ele><time>2026-03-22T11:00:45.001Z</time></trkpt><trkpt lat="44.49361154217761" lon="11.22450180849982"><ele>72.66666666666667</ele><time>2026-03-22T11:00:46.001Z</time></trkpt><trkpt lat="44.49352773471214" lon="11.224734608950824"><ele>73.33333333333334</ele><time>2026-03-22T11:00:47.001Z</time></trkpt><trkpt lat="44.493443699373266" lon="11.224947155224472"><ele>74.0</ele><time>2026-03-22T11:00:48.001Z</time></trkpt><trkpt lat="44.493363164653886" lon="11.225185026596169"><ele>74.0</ele><time>2026-03-22T11:00:49.001Z</time></trkpt><trkpt lat="44.49323045687797" lon="11.22540562785042"><ele>74.0</ele><time>2026-03-22T11:00:50.001Z</time></trkpt><trkpt lat="44.49306143932114" lon="11.225655685527736"><ele>74.0</ele><time>2026-03-22T11:00:51.001Z</time></trkpt><trkpt lat="44.49286736694859" lon="11.225928581480874"><ele>74.0</ele><time>2026-03-22T11:00:52.001Z</time></trkpt><trkpt lat="44.492663686034966" lon="11.22623290947734"><ele>74.5</ele><time>2026-03-22T11:00:53.001Z</time></trkpt><trkpt lat="44.492451601586005" lon="11.226543810357827"><ele>75.0</ele><time>2026-03-22T11:00:54.001Z</time></trkpt><trkpt lat="44.49226503589395" lon="11.226821997574435"><ele>76.0</ele><time>2026-03-22T11:00:55.001Z</time></trkpt><trkpt lat="44.49207772810684" lon="11.227091906311447"><ele>77.0</ele><time>2026-03-22T11:00:56.001Z</time></trkpt><trkpt lat="44.49189264951494" lon="11.227343335012172"><ele>77.0</ele><time>2026-03-22T11:00:57.001Z</time></trkpt><trkpt lat="44.491735796662766" lon="11.227575693561551"><ele>77.0</ele><time>2026-03-22T11:00:58.001Z</time></trkpt><trkpt lat="44.491589083667634" lon="11.227795405178265"><ele>77.0</ele><time>2026-03-22T11:00:59.001Z</time></trkpt><trkpt lat="44.49144887944046" lon="11.227998002769139"><ele>76.0</ele><time>2026-03-22T11:01:00.001Z</time></trkpt><trkpt lat="44.4913214265303" lon="11.22819278300113"><ele>75.0</ele><time>2026-03-22T11:01:01.001Z</time></trkpt><trkpt lat="44.49118643955105" lon="11.22838960693488"><ele>74.0</ele><time>2026-03-22T11:01:02.001Z</time></trkpt><trkpt lat="44.49104005194272" lon="11.228601364518623"><ele>74.0</ele><time>2026-03-22T11:01:03.001Z</time></trkpt><trkpt lat="44.490886916558026" lon="11.228833969606407"><ele>74.0</ele><time>2026-03-22T11:01:04.001Z</time></trkpt><trkpt lat="44.4907350480082" lon="11.229065000991207"><ele>74.0</ele><time>2026-03-22T11:01:05.001Z</time></trkpt><trkpt lat="44.49057958080084" lon="11.229322542780713"><ele>74.0</ele><time>2026-03-22T11:01:06.001Z</time></trkpt><trkpt lat="44.49043361043579" lon="11.229595653754691"><ele>74.0</ele><time>2026-03-22T11:01:07.001Z</time></trkpt><trkpt lat="44.490301864350286" lon="11.229881888442822"><ele>74.0</ele><time>2026-03-22T11:01:08.001Z</time></trkpt><trkpt lat="44.49018290611961" lon="11.230172364381978"><ele>74.0</ele><time>2026-03-22T11:01:09.001Z</time></trkpt><trkpt lat="44.49007765122317" lon="11.23046400896028"><ele>74.0</ele><time>2026-03-22T11:01:10.001Z</time></trkpt><trkpt lat="44.48998399890152" lon="11.2307515249764"><ele>74.0</ele><time>2026-03-22T11:01:11.001Z</time></trkpt><trkpt lat="44.489904789525106" lon="11.231046122683736"><ele>74.0</ele><time>2026-03-22T11:01:12.001Z</time></trkpt><trkpt lat="44.48983060059378" lon="11.23134106457188"><ele>74.0</ele><time>2026-03-22T11:01:13.001Z</time></trkpt><trkpt lat="44.48976924682245" lon="11.231631057189984"><ele>74.0</ele><time>2026-03-22T11:01:14.001Z</time></trkpt><trkpt lat="44.48972338875706" lon="11.231935685959623"><ele>74.0</ele><time>2026-03-22T11:01:15.001Z</time></trkpt><trkpt lat="44.48968348798902" lon="11.232248073813786"><ele>74.0</ele><time>2026-03-22T11:01:16.001Z</time></trkpt><trkpt lat="44.489659206874734" lon="11.232536801949822"><ele>74.0</ele><time>2026-03-22T11:01:17.001Z</time></trkpt><trkpt lat="44.48962388380679" lon="11.23283716800883"><ele>74.0</ele><time>2026-03-22T11:01:18.001Z</time></trkpt><trkpt lat="44.48959040196192" lon="11.233153501393353"><ele>74.0</ele><time>2026-03-22T11:01:19.001Z</time></trkpt><trkpt lat="44.48955018694251" lon="11.233502841865992"><ele>74.0</ele><time>2026-03-22T11:01:20.001Z</time></trkpt><trkpt lat="44.48951219012599" lon="11.233899601750021"><ele>74.0</ele><time>2026-03-22T11:01:21.001Z</time></trkpt><trkpt lat="44.489457683530965" lon="11.23431161060585"><ele>73.5</ele><time>2026-03-22T11:01:22.001Z</time></trkpt><trkpt lat="44.489409414749936" lon="11.234736411646184"><ele>73.0</ele><time>2026-03-22T11:01:23.001Z</time></trkpt><trkpt lat="44.48937764748369" lon="11.23516486000822"><ele>72.5</ele><time>2026-03-22T11:01:24.001Z</time></trkpt><trkpt lat="44.489346735392864" lon="11.235545379098449"><ele>72.0</ele><time>2026-03-22T11:01:25.001Z</time></trkpt><trkpt lat="44.48927629244704" lon="11.235861690685601"><ele>72.0</ele><time>2026-03-22T11:01:26.001Z</time></trkpt><trkpt lat="44.48923238696732" lon="11.236231666392687"><ele>72.0</ele><time>2026-03-22T11:01:27.001Z</time></trkpt><trkpt lat="44.4892082530639" lon="11.23659571510086"><ele>71.5</ele><time>2026-03-22T11:01:28.001Z</time></trkpt><trkpt lat="44.48918749705588" lon="11.236945915910109"><ele>71.0</ele><time>2026-03-22T11:01:29.001Z</time></trkpt><trkpt lat="44.48918041288364" lon="11.237316310852474"><ele>70.0</ele><time>2026-03-22T11:01:30.001Z</time></trkpt><trkpt lat="44.4891732045583" lon="11.23768075313696"><ele>69.0</ele><time>2026-03-22T11:01:31.001Z</time></trkpt><trkpt lat="44.48917612894396" lon="11.238038165327556"><ele>68.0</ele><time>2026-03-22T11:01:32.001Z</time></trkpt><trkpt lat="44.48918401129534" lon="11.238400358606599"><ele>67.0</ele><time>2026-03-22T11:01:33.001Z</time></trkpt><trkpt lat="44.48920211655565" lon="11.238751787126665"><ele>68.0</ele><time>2026-03-22T11:01:34.001Z</time></trkpt><trkpt lat="44.48922571284899" lon="11.239098138604898"><ele>69.0</ele><time>2026-03-22T11:01:35.001Z</time></trkpt><trkpt lat="44.48925751037158" lon="11.23944767506952"><ele>70.0</ele><time>2026-03-22T11:01:36.001Z</time></trkpt><trkpt lat="44.489297378301636" lon="11.239801843183296"><ele>71.0</ele><time>2026-03-22T11:01:37.001Z</time></trkpt><trkpt lat="44.48934534593901" lon="11.24016978897692"><ele>71.0</ele><time>2026-03-22T11:01:38.001Z</time></trkpt><trkpt lat="44.48940332982692" lon="11.240552718355918"><ele>71.0</ele><time>2026-03-22T11:01:39.002Z</time></trkpt><trkpt lat="44.48947072634131" lon="11.240932871033092"><ele>71.0</ele><time>2026-03-22T11:01:40.002Z</time></trkpt><trkpt lat="44.48954178906106" lon="11.241289560489367"><ele>71.0</ele><time>2026-03-22T11:01:41.002Z</time></trkpt><trkpt lat="44.48961597507646" lon="11.241620412125302"><ele>71.0</ele><time>2026-03-22T11:01:42.002Z</time></trkpt><trkpt lat="44.48969101142825" lon="11.24192696267501"><ele>71.0</ele><time>2026-03-22T11:01:43.002Z</time></trkpt><trkpt lat="44.48977617055277" lon="11.242225224577162"><ele>71.0</ele><time>2026-03-22T11:01:44.002Z</time></trkpt><trkpt lat="44.48986236953018" lon="11.242533978333583"><ele>71.0</ele><time>2026-03-22T11:01:45.002Z</time></trkpt><trkpt lat="44.48995759319699" lon="11.242850129912627"><ele>69.5</ele><time>2026-03-22T11:01:46Z</time></trkpt><trkpt lat="44.490052662187665" lon="11.243163596131856"><ele>68.0</ele><time>2026-03-22T11:01:47Z</time></trkpt><trkpt lat="44.4901505721774" lon="11.24348632886658"><ele>68.0</ele><time>2026-03-22T11:01:48Z</time></trkpt><trkpt lat="44.490249737854555" lon="11.243815992028146"><ele>68.0</ele><time>2026-03-22T11:01:49Z</time></trkpt><trkpt lat="44.490348650759316" lon="11.244147207572746"><ele>68.0</ele><time>2026-03-22T11:01:50Z</time></trkpt><trkpt lat="44.49044913493893" lon="11.244476206992749"><ele>68.0</ele><time>2026-03-22T11:01:51Z</time></trkpt><trkpt lat="44.49055368437369" lon="11.244817605430683"><ele>68.0</ele><time>2026-03-22T11:01:52Z</time></trkpt><trkpt lat="44.49065837158401" lon="11.245161680383397"><ele>68.0</ele><time>2026-03-22T11:01:53Z</time></trkpt><trkpt lat="44.49075856293721" lon="11.245501882577484"><ele>67.5</ele><time>2026-03-22T11:01:54Z</time></trkpt><trkpt lat="44.49085558754059" lon="11.245825708591509"><ele>67.0</ele><time>2026-03-22T11:01:55Z</time></trkpt><trkpt lat="44.49095023410723" lon="11.246143514369797"><ele>66.0</ele><time>2026-03-22T11:01:56Z</time></trkpt><trkpt lat="44.49104401906618" lon="11.246462700654263"><ele>65.0</ele><time>2026-03-22T11:01:57Z</time></trkpt><trkpt lat="44.49114048273888" lon="11.246778957172634"><ele>65.0</ele><time>2026-03-22T11:01:58Z</time></trkpt><trkpt lat="44.491231319377356" lon="11.247087268348935"><ele>65.0</ele><time>2026-03-22T11:01:59Z</time></trkpt><trkpt lat="44.491319058772774" lon="11.247386256240734"><ele>64.5</ele><time>2026-03-22T11:02:00Z</time></trkpt><trkpt lat="44.49141739616959" lon="11.247714728579842"><ele>64.0</ele><time>2026-03-22T11:02:01Z</time></trkpt><trkpt lat="44.49151821522015" lon="11.24805377570324"><ele>64.0</ele><time>2026-03-22T11:02:02Z</time></trkpt><trkpt lat="44.491617016690974" lon="11.248377347053454"><ele>64.0</ele><time>2026-03-22T11:02:03Z</time></trkpt><trkpt lat="44.49171137562474" lon="11.24869478294822"><ele>64.0</ele><time>2026-03-22T11:02:04Z</time></trkpt><trkpt lat="44.49180606995436" lon="11.249006700699418"><ele>64.0</ele><time>2026-03-22T11:02:05Z</time></trkpt><trkpt lat="44.491894347764394" lon="11.249307210811684"><ele>64.0</ele><time>2026-03-22T11:02:06Z</time></trkpt><trkpt lat="44.49198040394317" lon="11.249590929596526"><ele>64.0</ele><time>2026-03-22T11:02:07Z</time></trkpt><trkpt lat="44.49206407734909" lon="11.249877251698631"><ele>64.0</ele><time>2026-03-22T11:02:08Z</time></trkpt><trkpt lat="44.492153492813415" lon="11.250179373400384"><ele>63.5</ele><time>2026-03-22T11:02:09Z</time></trkpt><trkpt lat="44.49224479739108" lon="11.250494040087663"><ele>63.0</ele><time>2026-03-22T11:02:10Z</time></trkpt><trkpt lat="44.49235657119427" lon="11.250843971076497"><ele>62.5</ele><time>2026-03-22T11:02:11Z</time></trkpt><trkpt lat="44.492473558782336" lon="11.251227304766676"><ele>62.0</ele><time>2026-03-22T11:02:12Z</time></trkpt><trkpt lat="44.49259485182746" lon="11.25163538220161"><ele>61.5</ele><time>2026-03-22T11:02:13Z</time></trkpt><trkpt lat="44.49271299200169" lon="11.25204600760267"><ele>61.0</ele><time>2026-03-22T11:02:14Z</time></trkpt><trkpt lat="44.49282185409914" lon="11.25245757736177"><ele>61.0</ele><time>2026-03-22T11:02:15Z</time></trkpt><trkpt lat="44.49291504099827" lon="11.252860839014312"><ele>61.0</ele><time>2026-03-22T11:02:16Z</time></trkpt><trkpt lat="44.49299275139716" lon="11.25327542687021"><ele>61.5</ele><time>2026-03-22T11:02:17Z</time></trkpt><trkpt lat="44.4930551490025" lon="11.253708022979382"><ele>62.0</ele><time>2026-03-22T11:02:18Z</time></trkpt><trkpt lat="44.49310743510463" lon="11.254148849517783"><ele>61.0</ele><time>2026-03-22T11:02:19Z</time></trkpt><trkpt lat="44.493143043255614" lon="11.254586424381646"><ele>60.0</ele><time>2026-03-22T11:02:20Z</time></trkpt><trkpt lat="44.49315417212592" lon="11.25499711075017"><ele>59.5</ele><time>2026-03-22T11:02:21Z</time></trkpt><trkpt lat="44.493170115568944" lon="11.255391345385544"><ele>59.0</ele><time>2026-03-22T11:02:22Z</time></trkpt><trkpt lat="44.49316108293131" lon="11.255798937101968"><ele>58.5</ele><time>2026-03-22T11:02:23Z</time></trkpt><trkpt lat="44.49314194045582" lon="11.256206363967381"><ele>58.0</ele><time>2026-03-22T11:02:24Z</time></trkpt><trkpt lat="44.493109383067626" lon="11.256615783591304"><ele>57.0</ele><time>2026-03-22T11:02:25Z</time></trkpt><trkpt lat="44.493065151526494" lon="11.257016259400258"><ele>56.0</ele><time>2026-03-22T11:02:26Z</time></trkpt><trkpt lat="44.493009253006925" lon="11.257418669945741"><ele>56.0</ele><time>2026-03-22T11:02:27Z</time></trkpt><trkpt lat="44.49293861976248" lon="11.257819092669534"><ele>56.0</ele><time>2026-03-22T11:02:28Z</time></trkpt><trkpt lat="44.492851843680974" lon="11.258221078121956"><ele>56.0</ele><time>2026-03-22T11:02:29Z</time></trkpt><trkpt lat="44.49277007610032" lon="11.258613433341443"><ele>56.0</ele><time>2026-03-22T11:02:30Z</time></trkpt><trkpt lat="44.49269761052761" lon="11.258973674399972"><ele>56.5</ele><time>2026-03-22T11:02:31Z</time></trkpt><trkpt lat="44.492626814265975" lon="11.25931883650632"><ele>57.0</ele><time>2026-03-22T11:02:32Z</time></trkpt><trkpt lat="44.492559444835216" lon="11.259642586387026"><ele>56.0</ele><time>2026-03-22T11:02:33.001Z</time></trkpt><trkpt lat="44.49249846956392" lon="11.259945889667145"><ele>55.0</ele><time>2026-03-22T11:02:34.001Z</time></trkpt><trkpt lat="44.492441034394275" lon="11.260241234024708"><ele>54.0</ele><time>2026-03-22T11:02:35.001Z</time></trkpt><trkpt lat="44.49238660480745" lon="11.260516759594815"><ele>54.0</ele><time>2026-03-22T11:02:36.001Z</time></trkpt><trkpt lat="44.49233318833992" lon="11.260790334056098"><ele>54.0</ele><time>2026-03-22T11:02:37.001Z</time></trkpt><trkpt lat="44.49227656143675" lon="11.261071898170984"><ele>54.0</ele><time>2026-03-22T11:02:38.001Z</time></trkpt><trkpt lat="44.492222259645054" lon="11.26133569565561"><ele>54.66666666666667</ele><time>2026-03-22T11:02:39.001Z</time></trkpt><trkpt lat="44.49217277764576" lon="11.261586874410982"><ele>55.333333333333336</ele><time>2026-03-22T11:02:40.001Z</time></trkpt><trkpt lat="44.49212615397969" lon="11.261828285301196"><ele>56.0</ele><time>2026-03-22T11:02:41.001Z</time></trkpt><trkpt lat="44.49207777993306" lon="11.262068579576129"><ele>56.66666666666667</ele><time>2026-03-22T11:02:42.001Z</time></trkpt><trkpt lat="44.4920278815517" lon="11.262307474464475"><ele>57.33333333333333</ele><time>2026-03-22T11:02:43.001Z</time></trkpt><trkpt lat="44.491979966212384" lon="11.26254233252965"><ele>58.0</ele><time>2026-03-22T11:02:44.001Z</time></trkpt><trkpt lat="44.49193164292074" lon="11.262771720368168"><ele>58.0</ele><time>2026-03-22T11:02:45.001Z</time></trkpt><trkpt lat="44.491885734503484" lon="11.263009538735444"><ele>58.0</ele><time>2026-03-22T11:02:46.001Z</time></trkpt><trkpt lat="44.49183689533133" lon="11.263254201992035"><ele>58.0</ele><time>2026-03-22T11:02:47.001Z</time></trkpt><trkpt lat="44.49178749661958" lon="11.263499455802007"><ele>57.666666666666664</ele><time>2026-03-22T11:02:48.001Z</time></trkpt><trkpt lat="44.49173733640196" lon="11.2637477350106"><ele>57.33333333333333</ele><time>2026-03-22T11:02:49.001Z</time></trkpt><trkpt lat="44.491687824493596" lon="11.263998670497006"><ele>57.0</ele><time>2026-03-22T11:02:50.001Z</time></trkpt><trkpt lat="44.491638433794925" lon="11.264255676500154"><ele>56.66666666666667</ele><time>2026-03-22T11:02:51.001Z</time></trkpt><trkpt lat="44.491585289143785" lon="11.264512336800614"><ele>56.333333333333336</ele><time>2026-03-22T11:02:52.001Z</time></trkpt><trkpt lat="44.491527699246916" lon="11.264789815079963"><ele>56.0</ele><time>2026-03-22T11:02:53.001Z</time></trkpt><trkpt lat="44.49146388418865" lon="11.265108654457569"><ele>56.5</ele><time>2026-03-22T11:02:54.001Z</time></trkpt><trkpt lat="44.491399875346055" lon="11.265443857102568"><ele>57.0</ele><time>2026-03-22T11:02:55.001Z</time></trkpt><trkpt lat="44.49132823252751" lon="11.265803014437166"><ele>57.0</ele><time>2026-03-22T11:02:56.001Z</time></trkpt><trkpt lat="44.49125334240593" lon="11.266167782005454"><ele>57.0</ele><time>2026-03-22T11:02:57.001Z</time></trkpt><trkpt lat="44.49118621419071" lon="11.266533229129509"><ele>57.0</ele><time>2026-03-22T11:02:58.001Z</time></trkpt><trkpt lat="44.491102215885675" lon="11.26690586134922"><ele>57.0</ele><time>2026-03-22T11:02:59.001Z</time></trkpt><trkpt lat="44.49100318114578" lon="11.267294069810449"><ele>57.0</ele><time>2026-03-22T11:03:00.001Z</time></trkpt><trkpt lat="44.49090294329259" lon="11.267651121042432"><ele>57.0</ele><time>2026-03-22T11:03:01.001Z</time></trkpt><trkpt lat="44.490802047221806" lon="11.267976467608927"><ele>56.0</ele><time>2026-03-22T11:03:02.001Z</time></trkpt><trkpt lat="44.49068700746732" lon="11.26831328298328"><ele>55.0</ele><time>2026-03-22T11:03:03.001Z</time></trkpt><trkpt lat="44.49056724025814" lon="11.26864220289848"><ele>55.0</ele><time>2026-03-22T11:03:04.001Z</time></trkpt><trkpt lat="44.49044882231967" lon="11.26896406110415"><ele>55.0</ele><time>2026-03-22T11:03:05.001Z</time></trkpt><trkpt lat="44.490330507567364" lon="11.269284476841648"><ele>54.5</ele><time>2026-03-22T11:03:06.001Z</time></trkpt><trkpt lat="44.49022173102577" lon="11.269588868501085"><ele>54.0</ele><time>2026-03-22T11:03:07.001Z</time></trkpt><trkpt lat="44.49011233913945" lon="11.269898528487499"><ele>54.0</ele><time>2026-03-22T11:03:08.001Z</time></trkpt><trkpt lat="44.48997994347013" lon="11.270199962139065"><ele>54.0</ele><time>2026-03-22T11:03:09.001Z</time></trkpt><trkpt lat="44.48989800092988" lon="11.270450333316843"><ele>54.0</ele><time>2026-03-22T11:03:10.001Z</time></trkpt><trkpt lat="44.48980094173254" lon="11.270708834449216"><ele>54.5</ele><time>2026-03-22T11:03:11.001Z</time></trkpt><trkpt lat="44.48969238736041" lon="11.270977623986498"><ele>55.0</ele><time>2026-03-22T11:03:12.001Z</time></trkpt><trkpt lat="44.489573097356526" lon="11.271261477957124"><ele>53.5</ele><time>2026-03-22T11:03:13.001Z</time></trkpt><trkpt lat="44.489458359405894" lon="11.271536734469674"><ele>52.0</ele><time>2026-03-22T11:03:14.001Z</time></trkpt><trkpt lat="44.48934502648677" lon="11.271817480588062"><ele>52.0</ele><time>2026-03-22T11:03:15.001Z</time></trkpt><trkpt lat="44.48922524417205" lon="11.272121197409033"><ele>52.0</ele><time>2026-03-22T11:03:16.001Z</time></trkpt><trkpt lat="44.489098454567355" lon="11.272467904099942"><ele>51.5</ele><time>2026-03-22T11:03:17.001Z</time></trkpt><trkpt lat="44.48898144928951" lon="11.272794551081278"><ele>51.0</ele><time>2026-03-22T11:03:18.001Z</time></trkpt><trkpt lat="44.48886326800414" lon="11.273110194779767"><ele>53.0</ele><time>2026-03-22T11:03:19.001Z</time></trkpt><trkpt lat="44.4887547191943" lon="11.273394548763717"><ele>55.0</ele><time>2026-03-22T11:03:20.001Z</time></trkpt><trkpt lat="44.488652500919116" lon="11.27368044086593"><ele>53.666666666666664</ele><time>2026-03-22T11:03:21.001Z</time></trkpt><trkpt lat="44.488551805393314" lon="11.273945070557847"><ele>52.33333333333333</ele><time>2026-03-22T11:03:22.001Z</time></trkpt><trkpt lat="44.4884483301697" lon="11.274229150590823"><ele>51.0</ele><time>2026-03-22T11:03:23.001Z</time></trkpt><trkpt lat="44.48834486165325" lon="11.27451166856322"><ele>52.0</ele><time>2026-03-22T11:03:24.001Z</time></trkpt><trkpt lat="44.48824039410401" lon="11.274803138185536"><ele>53.0</ele><time>2026-03-22T11:03:25.001Z</time></trkpt><trkpt lat="44.488152202382814" lon="11.275114405436387"><ele>53.0</ele><time>2026-03-22T11:03:26.001Z</time></trkpt><trkpt lat="44.488067891688964" lon="11.275449823415336"><ele>53.0</ele><time>2026-03-22T11:03:27.001Z</time></trkpt><trkpt lat="44.488014196109845" lon="11.275772534569244"><ele>54.0</ele><time>2026-03-22T11:03:28.001Z</time></trkpt><trkpt lat="44.48796416947264" lon="11.276130688496723"><ele>55.0</ele><time>2026-03-22T11:03:29.001Z</time></trkpt><trkpt lat="44.48793292802936" lon="11.276453178479736"><ele>55.0</ele><time>2026-03-22T11:03:30.001Z</time></trkpt><trkpt lat="44.487924138590365" lon="11.276749851446315"><ele>55.0</ele><time>2026-03-22T11:03:31.001Z</time></trkpt><trkpt lat="44.48792144196004" lon="11.277045698244324"><ele>55.0</ele><time>2026-03-22T11:03:32.001Z</time></trkpt><trkpt lat="44.48792609411686" lon="11.277353244522743"><ele>55.0</ele><time>2026-03-22T11:03:33.001Z</time></trkpt><trkpt lat="44.48794494467046" lon="11.277662368059222"><ele>55.0</ele><time>2026-03-22T11:03:34.001Z</time></trkpt><trkpt lat="44.48797730641734" lon="11.277951954208435"><ele>55.0</ele><time>2026-03-22T11:03:35.001Z</time></trkpt><trkpt lat="44.488007017130315" lon="11.278214252210443"><ele>55.0</ele><time>2026-03-22T11:03:36.001Z</time></trkpt><trkpt lat="44.48805269973443" lon="11.278483624123185"><ele>55.0</ele><time>2026-03-22T11:03:37.001Z</time></trkpt><trkpt lat="44.48811047443213" lon="11.278770571954535"><ele>55.0</ele><time>2026-03-22T11:03:38.001Z</time></trkpt><trkpt lat="44.488180012204374" lon="11.279054480945414"><ele>54.33333333333333</ele><time>2026-03-22T11:03:39.001Z</time></trkpt><trkpt lat="44.48826257394002" lon="11.279334794099846"><ele>53.66666666666667</ele><time>2026-03-22T11:03:40.001Z</time></trkpt><trkpt lat="44.48835759135333" lon="11.279622781455275"><ele>53.0</ele><time>2026-03-22T11:03:41.001Z</time></trkpt><trkpt lat="44.48847062652876" lon="11.279913076023039"><ele>52.0</ele><time>2026-03-22T11:03:42.001Z</time></trkpt><trkpt lat="44.488603580515395" lon="11.280208090988049"><ele>51.0</ele><time>2026-03-22T11:03:43.001Z</time></trkpt><trkpt lat="44.48874861169587" lon="11.280493665115673"><ele>49.0</ele><time>2026-03-22T11:03:44.002Z</time></trkpt><trkpt lat="44.48889850156586" lon="11.280789516774455"><ele>47.0</ele><time>2026-03-22T11:03:45.002Z</time></trkpt><trkpt lat="44.48904757360495" lon="11.2810839840596"><ele>47.0</ele><time>2026-03-22T11:03:46.002Z</time></trkpt><trkpt lat="44.489197728390714" lon="11.281387192060528"><ele>47.0</ele><time>2026-03-22T11:03:47.002Z</time></trkpt><trkpt lat="44.48935331409929" lon="11.281700040158102"><ele>46.5</ele><time>2026-03-22T11:03:48.002Z</time></trkpt><trkpt lat="44.48950970711061" lon="11.28200838985489"><ele>46.0</ele><time>2026-03-22T11:03:49.002Z</time></trkpt><trkpt lat="44.48966398540173" lon="11.28231230635537"><ele>47.0</ele><time>2026-03-22T11:03:50.002Z</time></trkpt><trkpt lat="44.48981478027755" lon="11.282614831248171"><ele>48.0</ele><time>2026-03-22T11:03:51.002Z</time></trkpt><trkpt lat="44.48996064500738" lon="11.282913128352243"><ele>48.5</ele><time>2026-03-22T11:03:51.999Z</time></trkpt><trkpt lat="44.49010859363717" lon="11.283250065756187"><ele>49.0</ele><time>2026-03-22T11:03:52.999Z</time></trkpt><trkpt lat="44.49024971618197" lon="11.28360111458772"><ele>49.0</ele><time>2026-03-22T11:03:53.999Z</time></trkpt><trkpt lat="44.4903751844156" lon="11.283957649665771"><ele>49.0</ele><time>2026-03-22T11:03:54.999Z</time></trkpt><trkpt lat="44.49049730124693" lon="11.284340045382324"><ele>49.0</ele><time>2026-03-22T11:03:55.999Z</time></trkpt><trkpt lat="44.49061236760574" lon="11.284731479960305"><ele>49.0</ele><time>2026-03-22T11:03:56.999Z</time></trkpt><trkpt lat="44.49072755533771" lon="11.2851361920281"><ele>49.0</ele><time>2026-03-22T11:03:57.999Z</time></trkpt><trkpt lat="44.4908481283981" lon="11.28556559177844"><ele>49.0</ele><time>2026-03-22T11:03:58.999Z</time></trkpt><trkpt lat="44.49097539945072" lon="11.286023354739022"><ele>50.0</ele><time>2026-03-22T11:03:59.999Z</time></trkpt><trkpt lat="44.49109994024443" lon="11.286463051346976"><ele>51.0</ele><time>2026-03-22T11:04:00.999Z</time></trkpt><trkpt lat="44.49121928468652" lon="11.286877907634961"><ele>50.0</ele><time>2026-03-22T11:04:01.999Z</time></trkpt><trkpt lat="44.49133180697673" lon="11.28728807420565"><ele>49.0</ele><time>2026-03-22T11:04:02.999Z</time></trkpt><trkpt lat="44.49144811271174" lon="11.287709583656776"><ele>48.5</ele><time>2026-03-22T11:04:03.999Z</time></trkpt><trkpt lat="44.491568614259" lon="11.28814025789606"><ele>48.0</ele><time>2026-03-22T11:04:04.999Z</time></trkpt><trkpt lat="44.491692435226206" lon="11.288559522795307"><ele>47.5</ele><time>2026-03-22T11:04:05.999Z</time></trkpt><trkpt lat="44.491803464433794" lon="11.288962816243316"><ele>47.0</ele><time>2026-03-22T11:04:07Z</time></trkpt><trkpt lat="44.491913328442614" lon="11.289360483239374"><ele>47.0</ele><time>2026-03-22T11:04:08Z</time></trkpt><trkpt lat="44.49202828262725" lon="11.289757878212574"><ele>47.0</ele><time>2026-03-22T11:04:09Z</time></trkpt><trkpt lat="44.492136121660536" lon="11.290155500606888"><ele>49.0</ele><time>2026-03-22T11:04:10Z</time></trkpt><trkpt lat="44.492248387125166" lon="11.290546245305329"><ele>51.0</ele><time>2026-03-22T11:04:11Z</time></trkpt><trkpt lat="44.49235120654919" lon="11.29091497803615"><ele>51.0</ele><time>2026-03-22T11:04:12Z</time></trkpt><trkpt lat="44.49244437376202" lon="11.291260212383293"><ele>51.0</ele><time>2026-03-22T11:04:13Z</time></trkpt><trkpt lat="44.49253892544771" lon="11.291576744821175"><ele>51.0</ele><time>2026-03-22T11:04:14Z</time></trkpt><trkpt lat="44.49262511831528" lon="11.291885825189487"><ele>51.0</ele><time>2026-03-22T11:04:15Z</time></trkpt><trkpt lat="44.49272067052458" lon="11.292200122356594"><ele>50.5</ele><time>2026-03-22T11:04:16Z</time></trkpt><trkpt lat="44.492823132025784" lon="11.292515077620259"><ele>50.0</ele><time>2026-03-22T11:04:17Z</time></trkpt><trkpt lat="44.49293118378217" lon="11.292818193843823"><ele>51.0</ele><time>2026-03-22T11:04:18Z</time></trkpt><trkpt lat="44.493055902263855" lon="11.293121790880074"><ele>52.0</ele><time>2026-03-22T11:04:19Z</time></trkpt><trkpt lat="44.493188777719766" lon="11.293424586433728"><ele>52.0</ele><time>2026-03-22T11:04:20Z</time></trkpt><trkpt lat="44.493326472288786" lon="11.293720839129971"><ele>52.0</ele><time>2026-03-22T11:04:21Z</time></trkpt><trkpt lat="44.49348115631484" lon="11.294025100931405"><ele>51.0</ele><time>2026-03-22T11:04:22Z</time></trkpt><trkpt lat="44.49365809277406" lon="11.294345851647186"><ele>50.0</ele><time>2026-03-22T11:04:23Z</time></trkpt><trkpt lat="44.493857146844476" lon="11.294670558202538"><ele>49.0</ele><time>2026-03-22T11:04:24Z</time></trkpt><trkpt lat="44.49407146779086" lon="11.294996252897006"><ele>48.0</ele><time>2026-03-22T11:04:25Z</time></trkpt><trkpt lat="44.49430914273464" lon="11.29531250719632"><ele>48.0</ele><time>2026-03-22T11:04:26Z</time></trkpt><trkpt lat="44.494558013679246" lon="11.295628668138447"><ele>48.0</ele><time>2026-03-22T11:04:27Z</time></trkpt><trkpt lat="44.49481539984069" lon="11.295947667205201"><ele>48.0</ele><time>2026-03-22T11:04:28Z</time></trkpt><trkpt lat="44.49507480402468" lon="11.296244956192005"><ele>48.0</ele><time>2026-03-22T11:04:29Z</time></trkpt><trkpt lat="44.495326006995505" lon="11.29654352001721"><ele>48.0</ele><time>2026-03-22T11:04:30Z</time></trkpt><trkpt lat="44.49555396362245" lon="11.296822792668772"><ele>48.0</ele><time>2026-03-22T11:04:31Z</time></trkpt><trkpt lat="44.49577818766571" lon="11.297097772807144"><ele>48.0</ele><time>2026-03-22T11:04:32Z</time></trkpt><trkpt lat="44.49599865922804" lon="11.297368802823687"><ele>48.0</ele><time>2026-03-22T11:04:33Z</time></trkpt><trkpt lat="44.49621853675915" lon="11.297634109711522"><ele>49.0</ele><time>2026-03-22T11:04:34Z</time></trkpt><trkpt lat="44.49643065414421" lon="11.297890751583786"><ele>50.0</ele><time>2026-03-22T11:04:35Z</time></trkpt><trkpt lat="44.4966416083797" lon="11.298140856674483"><ele>48.0</ele><time>2026-03-22T11:04:36Z</time></trkpt><trkpt lat="44.49685148182467" lon="11.298395156801364"><ele>46.0</ele><time>2026-03-22T11:04:37Z</time></trkpt><trkpt lat="44.49706207949319" lon="11.298657069837118"><ele>47.0</ele><time>2026-03-22T11:04:38Z</time></trkpt><trkpt lat="44.497263031490405" lon="11.298934281952471"><ele>48.0</ele><time>2026-03-22T11:04:39Z</time></trkpt><trkpt lat="44.49745570124162" lon="11.299220707315039"><ele>48.0</ele><time>2026-03-22T11:04:40Z</time></trkpt><trkpt lat="44.49763040556938" lon="11.299498118574666"><ele>48.0</ele><time>2026-03-22T11:04:41Z</time></trkpt><trkpt lat="44.49777340455712" lon="11.29976056189979"><ele>47.666666666666664</ele><time>2026-03-22T11:04:42Z</time></trkpt><trkpt lat="44.49790637198739" lon="11.299991056762623"><ele>47.33333333333333</ele><time>2026-03-22T11:04:43Z</time></trkpt><trkpt lat="44.4980188097434" lon="11.300214453290105"><ele>47.0</ele><time>2026-03-22T11:04:44Z</time></trkpt><trkpt lat="44.49811424397866" lon="11.300433953855482"><ele>47.0</ele><time>2026-03-22T11:04:45Z</time></trkpt><trkpt lat="44.49821244621855" lon="11.300663964495993"><ele>47.0</ele><time>2026-03-22T11:04:46Z</time></trkpt><trkpt lat="44.49831491478157" lon="11.300896841946066"><ele>47.0</ele><time>2026-03-22T11:04:47Z</time></trkpt><trkpt lat="44.49842017525421" lon="11.301125983371087"><ele>47.0</ele><time>2026-03-22T11:04:48Z</time></trkpt><trkpt lat="44.49850356798736" lon="11.301352390249802"><ele>47.0</ele><time>2026-03-22T11:04:49Z</time></trkpt><trkpt lat="44.49859621448139" lon="11.301555334543254"><ele>47.0</ele><time>2026-03-22T11:04:50Z</time></trkpt><trkpt lat="44.498697757574845" lon="11.301731804059212"><ele>46.666666666666664</ele><time>2026-03-22T11:04:51Z</time></trkpt><trkpt lat="44.49878175755252" lon="11.30190748603543"><ele>46.333333333333336</ele><time>2026-03-22T11:04:52Z</time></trkpt><trkpt lat="44.49886114051367" lon="11.302080334012576"><ele>46.0</ele><time>2026-03-22T11:04:53Z</time></trkpt><trkpt lat="44.49894576289418" lon="11.30226047496041"><ele>46.0</ele><time>2026-03-22T11:04:54Z</time></trkpt><trkpt lat="44.49901941792138" lon="11.302451260101485"><ele>46.0</ele><time>2026-03-22T11:04:55Z</time></trkpt><trkpt lat="44.49909551192243" lon="11.302652513769809"><ele>46.0</ele><time>2026-03-22T11:04:56Z</time></trkpt><trkpt lat="44.49917951295184" lon="11.302844930748135"><ele>46.0</ele><time>2026-03-22T11:04:57Z</time></trkpt><trkpt lat="44.49925815498692" lon="11.30301944447618"><ele>46.0</ele><time>2026-03-22T11:04:58.001Z</time></trkpt><trkpt lat="44.49933318400931" lon="11.303180791926314"><ele>46.0</ele><time>2026-03-22T11:04:59.001Z</time></trkpt><trkpt lat="44.49939814092089" lon="11.303336572095326"><ele>46.0</ele><time>2026-03-22T11:05:00.001Z</time></trkpt><trkpt lat="44.49945202283223" lon="11.303491906039117"><ele>46.0</ele><time>2026-03-22T11:05:01.001Z</time></trkpt><trkpt lat="44.499494529181575" lon="11.303640430611221"><ele>46.0</ele><time>2026-03-22T11:05:02.001Z</time></trkpt><trkpt lat="44.49952515424745" lon="11.3037815695583"><ele>46.0</ele><time>2026-03-22T11:05:03.001Z</time></trkpt><trkpt lat="44.499543117857854" lon="11.303922156770305"><ele>46.0</ele><time>2026-03-22T11:05:04.001Z</time></trkpt><trkpt lat="44.49955917604615" lon="11.304052810533353"><ele>46.0</ele><time>2026-03-22T11:05:05.001Z</time></trkpt><trkpt lat="44.49957141478517" lon="11.304171930414409"><ele>46.0</ele><time>2026-03-22T11:05:06.001Z</time></trkpt><trkpt lat="44.49957535873942" lon="11.304282193946056"><ele>46.0</ele><time>2026-03-22T11:05:07.001Z</time></trkpt><trkpt lat="44.49957965970679" lon="11.304384542517715"><ele>46.0</ele><time>2026-03-22T11:05:08.001Z</time></trkpt><trkpt lat="44.499581895249754" lon="11.30447832185096"><ele>46.0</ele><time>2026-03-22T11:05:09.001Z</time></trkpt><trkpt lat="44.49958570543026" lon="11.30460176979483"><ele>46.0</ele><time>2026-03-22T11:05:10.001Z</time></trkpt><trkpt lat="44.499631707384815" lon="11.304757680408995"><ele>46.0</ele><time>2026-03-22T11:05:11.001Z</time></trkpt><trkpt lat="44.499639892273855" lon="11.304974090600382"><ele>46.0</ele><time>2026-03-22T11:05:12.001Z</time></trkpt><trkpt lat="44.49964571041407" lon="11.305181715794554"><ele>46.0</ele><time>2026-03-22T11:05:13.001Z</time></trkpt><trkpt lat="44.49965892436213" lon="11.305367987653677"><ele>46.0</ele><time>2026-03-22T11:05:14.001Z</time></trkpt><trkpt lat="44.499671716338675" lon="11.305548685645746"><ele>46.0</ele><time>2026-03-22T11:05:15.001Z</time></trkpt><trkpt lat="44.49968394551529" lon="11.305731911486896"><ele>46.0</ele><time>2026-03-22T11:05:16.001Z</time></trkpt><trkpt lat="44.499688998258584" lon="11.305915133920692"><ele>46.0</ele><time>2026-03-22T11:05:17.001Z</time></trkpt><trkpt lat="44.499686536994176" lon="11.306101496520851"><ele>46.0</ele><time>2026-03-22T11:05:18.001Z</time></trkpt><trkpt lat="44.49965800599781" lon="11.306267819552788"><ele>46.0</ele><time>2026-03-22T11:05:19.001Z</time></trkpt><trkpt lat="44.49963884227081" lon="11.306422188617377"><ele>46.0</ele><time>2026-03-22T11:05:20.001Z</time></trkpt><trkpt lat="44.49961491353215" lon="11.306572529748136"><ele>46.0</ele><time>2026-03-22T11:05:21.001Z</time></trkpt><trkpt lat="44.49958620671064" lon="11.306724753758274"><ele>46.0</ele><time>2026-03-22T11:05:22.001Z</time></trkpt><trkpt lat="44.49955047986254" lon="11.306878707887316"><ele>46.0</ele><time>2026-03-22T11:05:23.001Z</time></trkpt><trkpt lat="44.49952847416445" lon="11.30701720261501"><ele>46.0</ele><time>2026-03-22T11:05:24.001Z</time></trkpt><trkpt lat="44.49948804128007" lon="11.307150334398365"><ele>45.833333333333336</ele><time>2026-03-22T11:05:25.001Z</time></trkpt><trkpt lat="44.49945632662835" lon="11.307283714419825"><ele>45.66666666666667</ele><time>2026-03-22T11:05:26.001Z</time></trkpt><trkpt lat="44.499412080727744" lon="11.30740215093244"><ele>45.5</ele><time>2026-03-22T11:05:27.001Z</time></trkpt><trkpt lat="44.499385212304404" lon="11.307499309786097"><ele>45.333333333333336</ele><time>2026-03-22T11:05:28.001Z</time></trkpt><trkpt lat="44.49937717532526" lon="11.307591234495685"><ele>45.166666666666664</ele><time>2026-03-22T11:05:29.001Z</time></trkpt><trkpt lat="44.49933690071663" lon="11.307711642279116"><ele>45.0</ele><time>2026-03-22T11:05:31.001Z</time></trkpt><trkpt lat="44.49930704154511" lon="11.307791937492299"><ele>45.0</ele><time>2026-03-22T11:05:32.001Z</time></trkpt><trkpt lat="44.499277770833096" lon="11.307910063636925"><ele>45.0</ele><time>2026-03-22T11:05:33.001Z</time></trkpt><trkpt lat="44.4992523277592" lon="11.308035751758492"><ele>45.0</ele><time>2026-03-22T11:05:34.001Z</time></trkpt><trkpt lat="44.49922120659937" lon="11.30814762596876"><ele>45.0</ele><time>2026-03-22T11:05:35.001Z</time></trkpt><trkpt lat="44.49918813940399" lon="11.308250323866194"><ele>45.0</ele><time>2026-03-22T11:05:36.001Z</time></trkpt><trkpt lat="44.49916147640032" lon="11.308349860150512"><ele>45.0</ele><time>2026-03-22T11:05:37.001Z</time></trkpt><trkpt lat="44.499131368924644" lon="11.308461344099706"><ele>45.2</ele><time>2026-03-22T11:05:38.001Z</time></trkpt><trkpt lat="44.499096587056265" lon="11.30860178692629"><ele>45.4</ele><time>2026-03-22T11:05:39.001Z</time></trkpt><trkpt lat="44.49906103284525" lon="11.30874517262328"><ele>45.599999999999994</ele><time>2026-03-22T11:05:40.001Z</time></trkpt><trkpt lat="44.499022178960004" lon="11.308878106731335"><ele>45.8</ele><time>2026-03-22T11:05:41.001Z</time></trkpt><trkpt lat="44.49898551143523" lon="11.309010720241698"><ele>46.0</ele><time>2026-03-22T11:05:42.001Z</time></trkpt><trkpt lat="44.49894865386578" lon="11.309139671618874"><ele>46.199999999999996</ele><time>2026-03-22T11:05:43.001Z</time></trkpt><trkpt lat="44.49891191559138" lon="11.309269800159186"><ele>46.4</ele><time>2026-03-22T11:05:44.001Z</time></trkpt><trkpt lat="44.49887557073289" lon="11.30940766800641"><ele>46.6</ele><time>2026-03-22T11:05:45.001Z</time></trkpt><trkpt lat="44.4988374228424" lon="11.309546736105055"><ele>46.8</ele><time>2026-03-22T11:05:46.001Z</time></trkpt><trkpt lat="44.49879892674093" lon="11.309689644841146"><ele>47.0</ele><time>2026-03-22T11:05:47.001Z</time></trkpt><trkpt lat="44.49876099072141" lon="11.30983607035755"><ele>47.400000000000006</ele><time>2026-03-22T11:05:48.001Z</time></trkpt><trkpt lat="44.49872079922067" lon="11.309980451371157"><ele>47.800000000000004</ele><time>2026-03-22T11:05:49.001Z</time></trkpt><trkpt lat="44.498679956674984" lon="11.310122363664892"><ele>48.2</ele><time>2026-03-22T11:05:50.001Z</time></trkpt><trkpt lat="44.498642476608296" lon="11.310260484232229"><ele>48.6</ele><time>2026-03-22T11:05:51.001Z</time></trkpt><trkpt lat="44.49860525541245" lon="11.310397660123153"><ele>49.0</ele><time>2026-03-22T11:05:52.001Z</time></trkpt><trkpt lat="44.49856828498845" lon="11.310533536594312"><ele>48.6</ele><time>2026-03-22T11:05:53.001Z</time></trkpt><trkpt lat="44.49853232145458" lon="11.310665964372543"><ele>48.2</ele><time>2026-03-22T11:05:54.001Z</time></trkpt><trkpt lat="44.49849759581999" lon="11.310796428664906"><ele>47.800000000000004</ele><time>2026-03-22T11:05:55.001Z</time></trkpt><trkpt lat="44.49846068237565" lon="11.310920870547296"><ele>47.400000000000006</ele><time>2026-03-22T11:05:56.001Z</time></trkpt><trkpt lat="44.498427907961485" lon="11.31104123779631"><ele>47.0</ele><time>2026-03-22T11:05:57.001Z</time></trkpt><trkpt lat="44.498395261132174" lon="11.31115518312592"><ele>47.0</ele><time>2026-03-22T11:05:57.998Z</time></trkpt><trkpt lat="44.498364224379365" lon="11.311268189490681"><ele>47.0</ele><time>2026-03-22T11:05:58.998Z</time></trkpt><trkpt lat="44.49833302535342" lon="11.311384492646313"><ele>47.0</ele><time>2026-03-22T11:05:59.998Z</time></trkpt><trkpt lat="44.49830368770039" lon="11.311502996783714"><ele>47.0</ele><time>2026-03-22T11:06:00.998Z</time></trkpt><trkpt lat="44.49827343526627" lon="11.311614119927171"><ele>47.0</ele><time>2026-03-22T11:06:01.998Z</time></trkpt><trkpt lat="44.498239444681545" lon="11.311719189852681"><ele>47.0</ele><time>2026-03-22T11:06:02.998Z</time></trkpt><trkpt lat="44.498216888544505" lon="11.311825184708066"><ele>46.83333333333333</ele><time>2026-03-22T11:06:03.998Z</time></trkpt><trkpt lat="44.49819048450995" lon="11.311922557732368"><ele>46.666666666666664</ele><time>2026-03-22T11:06:04.998Z</time></trkpt><trkpt lat="44.498170384761714" lon="11.312006665650339"><ele>46.5</ele><time>2026-03-22T11:06:05.999Z</time></trkpt><trkpt lat="44.49810874603208" lon="11.312175963775095"><ele>46.333333333333336</ele><time>2026-03-22T11:06:07.999Z</time></trkpt><trkpt lat="44.49808217080567" lon="11.312274792586434"><ele>46.16666666666667</ele><time>2026-03-22T11:06:08.999Z</time></trkpt><trkpt lat="44.49805705484672" lon="11.312368194551246"><ele>46.0</ele><time>2026-03-22T11:06:09.999Z</time></trkpt><trkpt lat="44.49804560776268" lon="11.31247191963421"><ele>46.16666666666667</ele><time>2026-03-22T11:06:10.999Z</time></trkpt><trkpt lat="44.49801338765021" lon="11.312572656872527"><ele>46.333333333333336</ele><time>2026-03-22T11:06:11.999Z</time></trkpt><trkpt lat="44.497984601992506" lon="11.312680300225683"><ele>46.5</ele><time>2026-03-22T11:06:12.999Z</time></trkpt><trkpt lat="44.49795335300953" lon="11.31279420948645"><ele>46.666666666666664</ele><time>2026-03-22T11:06:13.999Z</time></trkpt><trkpt lat="44.497923457587575" lon="11.312911362506757"><ele>46.83333333333333</ele><time>2026-03-22T11:06:14.999Z</time></trkpt><trkpt lat="44.49789516053673" lon="11.31302358836321"><ele>47.0</ele><time>2026-03-22T11:06:15.999Z</time></trkpt><trkpt lat="44.497864792652216" lon="11.31313637413382"><ele>47.5</ele><time>2026-03-22T11:06:16.999Z</time></trkpt><trkpt lat="44.49783527772657" lon="11.313253262830354"><ele>48.0</ele><time>2026-03-22T11:06:17.999Z</time></trkpt><trkpt lat="44.497804216059826" lon="11.313367884607079"><ele>48.5</ele><time>2026-03-22T11:06:18.999Z</time></trkpt><trkpt lat="44.49777680467361" lon="11.313481822277181"><ele>49.0</ele><time>2026-03-22T11:06:19.999Z</time></trkpt><trkpt lat="44.49775070039673" lon="11.313584254177805"><ele>49.50000000000001</ele><time>2026-03-22T11:06:20.999Z</time></trkpt><trkpt lat="44.497732576183495" lon="11.313693973214425"><ele>50.0</ele><time>2026-03-22T11:06:21.999Z</time></trkpt><trkpt lat="44.497714920587555" lon="11.313799819674081"><ele>50.00000000000001</ele><time>2026-03-22T11:06:22.999Z</time></trkpt><trkpt lat="44.4976995486303" lon="11.313896443319747"><ele>50.0</ele><time>2026-03-22T11:06:23.999Z</time></trkpt><trkpt lat="44.497682456643204" lon="11.313992914683192"><ele>50.0</ele><time>2026-03-22T11:06:24.999Z</time></trkpt><trkpt lat="44.497654631774935" lon="11.314169545338151"><ele>50.0</ele><time>2026-03-22T11:06:26.999Z</time></trkpt><trkpt lat="44.49763460344547" lon="11.314271408749189"><ele>50.00000000000001</ele><time>2026-03-22T11:06:27.999Z</time></trkpt><trkpt lat="44.497618566980535" lon="11.314380479464166"><ele>50.0</ele><time>2026-03-22T11:06:29Z</time></trkpt><trkpt lat="44.497603122379566" lon="11.3144911645496"><ele>50.50000000000001</ele><time>2026-03-22T11:06:30Z</time></trkpt><trkpt lat="44.49758902281351" lon="11.314601530192835"><ele>51.0</ele><time>2026-03-22T11:06:31Z</time></trkpt><trkpt lat="44.49757560646952" lon="11.314714325691906"><ele>51.5</ele><time>2026-03-22T11:06:32Z</time></trkpt><trkpt lat="44.49755612629253" lon="11.314818399963375"><ele>52.0</ele><time>2026-03-22T11:06:33Z</time></trkpt><trkpt lat="44.497550692701665" lon="11.314907319978092"><ele>52.50000000000001</ele><time>2026-03-22T11:06:34Z</time></trkpt><trkpt lat="44.497528359950486" lon="11.315061875707002"><ele>53.0</ele><time>2026-03-22T11:06:36Z</time></trkpt><trkpt lat="44.497524437243335" lon="11.315163173484997"><ele>53.0</ele><time>2026-03-22T11:06:38Z</time></trkpt><trkpt lat="44.49750731041951" lon="11.315285763823816"><ele>53.0</ele><time>2026-03-22T11:07:07Z</time></trkpt><trkpt lat="44.49749803153427" lon="11.315449227393637"><ele>53.0</ele><time>2026-03-22T11:07:09.001Z</time></trkpt><trkpt lat="44.49748806555076" lon="11.315624795454967"><ele>53.0</ele><time>2026-03-22T11:07:11.001Z</time></trkpt><trkpt lat="44.497477891228" lon="11.31581301251937"><ele>53.0</ele><time>2026-03-22T11:07:13.001Z</time></trkpt><trkpt lat="44.497471861710096" lon="11.315927184297998"><ele>53.0</ele><time>2026-03-22T11:07:14.001Z</time></trkpt><trkpt lat="44.497467296949374" lon="11.316049093632094"><ele>53.0</ele><time>2026-03-22T11:07:15.001Z</time></trkpt><trkpt lat="44.497462220959775" lon="11.316181143428516"><ele>53.0</ele><time>2026-03-22T11:07:16.001Z</time></trkpt><trkpt lat="44.497457526308544" lon="11.316323970373722"><ele>53.0</ele><time>2026-03-22T11:07:17.001Z</time></trkpt><trkpt lat="44.497450511739025" lon="11.316482201925751"><ele>53.0</ele><time>2026-03-22T11:07:18.001Z</time></trkpt><trkpt lat="44.497442071855545" lon="11.316624300893187"><ele>53.0</ele><time>2026-03-22T11:07:19.001Z</time></trkpt><trkpt lat="44.49743205650265" lon="11.316767407722164"><ele>53.0</ele><time>2026-03-22T11:07:20.001Z</time></trkpt><trkpt lat="44.49742977422606" lon="11.316920026164757"><ele>53.0</ele><time>2026-03-22T11:07:21.001Z</time></trkpt><trkpt lat="44.497417848582536" lon="11.317079341516227"><ele>53.0</ele><time>2026-03-22T11:07:22.001Z</time></trkpt><trkpt lat="44.49740134177624" lon="11.317233935637326"><ele>54.0</ele><time>2026-03-22T11:07:23.001Z</time></trkpt><trkpt lat="44.497380078969584" lon="11.317380298869619"><ele>55.0</ele><time>2026-03-22T11:07:24.001Z</time></trkpt><trkpt lat="44.49735528891727" lon="11.317522304710398"><ele>56.0</ele><time>2026-03-22T11:07:25.001Z</time></trkpt><trkpt lat="44.49733377780351" lon="11.317663109762343"><ele>57.0</ele><time>2026-03-22T11:07:26.001Z</time></trkpt><trkpt lat="44.49730324913956" lon="11.317800992514748"><ele>58.0</ele><time>2026-03-22T11:07:27.001Z</time></trkpt><trkpt lat="44.49727877294367" lon="11.317936464250035"><ele>58.599999999999994</ele><time>2026-03-22T11:07:28.001Z</time></trkpt><trkpt lat="44.49724393222307" lon="11.318078518487582"><ele>59.199999999999996</ele><time>2026-03-22T11:07:29.001Z</time></trkpt><trkpt lat="44.497200848036115" lon="11.318215811911111"><ele>59.8</ele><time>2026-03-22T11:07:30.001Z</time></trkpt><trkpt lat="44.49715553230889" lon="11.318350739810004"><ele>60.4</ele><time>2026-03-22T11:07:31.001Z</time></trkpt><trkpt lat="44.49709811114511" lon="11.318474529892011"><ele>61.0</ele><time>2026-03-22T11:07:32.001Z</time></trkpt><trkpt lat="44.49706009725066" lon="11.318596174284812"><ele>61.0</ele><time>2026-03-22T11:07:33.001Z</time></trkpt><trkpt lat="44.49702234004866" lon="11.318710637012401"><ele>60.99999999999999</ele><time>2026-03-22T11:07:34.001Z</time></trkpt><trkpt lat="44.496983487265624" lon="11.318845544440698"><ele>60.99999999999999</ele><time>2026-03-22T11:07:35.001Z</time></trkpt><trkpt lat="44.497001277623696" lon="11.319010781264637"><ele>61.0</ele><time>2026-03-22T11:07:36.001Z</time></trkpt><trkpt lat="44.49700113560412" lon="11.319155796481345"><ele>61.0</ele><time>2026-03-22T11:07:37.001Z</time></trkpt><trkpt lat="44.497017297088355" lon="11.31929476986413"><ele>61.0</ele><time>2026-03-22T11:07:38.001Z</time></trkpt><trkpt lat="44.49703505078243" lon="11.319431152893426"><ele>61.0</ele><time>2026-03-22T11:07:39.001Z</time></trkpt><trkpt lat="44.49704741397852" lon="11.319591019127934"><ele>61.0</ele><time>2026-03-22T11:07:40.001Z</time></trkpt><trkpt lat="44.49707875047757" lon="11.319754681128927"><ele>61.0</ele><time>2026-03-22T11:07:41.001Z</time></trkpt><trkpt lat="44.49712092006211" lon="11.319917980248464"><ele>60.25</ele><time>2026-03-22T11:07:42.001Z</time></trkpt><trkpt lat="44.49714959733139" lon="11.320093597926059"><ele>59.5</ele><time>2026-03-22T11:07:43.001Z</time></trkpt><trkpt lat="44.49717102880095" lon="11.320276746295825"><ele>58.75</ele><time>2026-03-22T11:07:44.001Z</time></trkpt><trkpt lat="44.49718284920667" lon="11.320435701499305"><ele>58.0</ele><time>2026-03-22T11:07:45.001Z</time></trkpt><trkpt lat="44.497184326658086" lon="11.320594427631486"><ele>57.5</ele><time>2026-03-22T11:07:46.001Z</time></trkpt><trkpt lat="44.49718487757225" lon="11.320759681389596"><ele>57.0</ele><time>2026-03-22T11:07:47.001Z</time></trkpt><trkpt lat="44.49717827013699" lon="11.320934592862285"><ele>56.5</ele><time>2026-03-22T11:07:48.001Z</time></trkpt><trkpt lat="44.49717106550234" lon="11.321123338959167"><ele>56.0</ele><time>2026-03-22T11:07:49.001Z</time></trkpt><trkpt lat="44.49717088468766" lon="11.321346327067912"><ele>56.0</ele><time>2026-03-22T11:07:50.001Z</time></trkpt><trkpt lat="44.49716410450744" lon="11.321598967415214"><ele>56.0</ele><time>2026-03-22T11:07:51.001Z</time></trkpt><trkpt lat="44.49715103858921" lon="11.321872277290721"><ele>56.0</ele><time>2026-03-22T11:07:52.001Z</time></trkpt><trkpt lat="44.49713474158644" lon="11.322109805807848"><ele>56.0</ele><time>2026-03-22T11:07:53.001Z</time></trkpt><trkpt lat="44.49712690538379" lon="11.32232683720422"><ele>56.0</ele><time>2026-03-22T11:07:54.001Z</time></trkpt><trkpt lat="44.49712232752949" lon="11.32252454392128"><ele>56.0</ele><time>2026-03-22T11:07:55.001Z</time></trkpt><trkpt lat="44.49710861257082" lon="11.322727131660615"><ele>56.0</ele><time>2026-03-22T11:07:56.001Z</time></trkpt><trkpt lat="44.49710204839781" lon="11.322931654023328"><ele>56.0</ele><time>2026-03-22T11:07:57.002Z</time></trkpt><trkpt lat="44.497093089294786" lon="11.32312961968802"><ele>56.0</ele><time>2026-03-22T11:07:58.002Z</time></trkpt><trkpt lat="44.49708397120973" lon="11.323302476116455"><ele>56.0</ele><time>2026-03-22T11:07:59.002Z</time></trkpt><trkpt lat="44.49707572499764" lon="11.323476121548683"><ele>56.0</ele><time>2026-03-22T11:08:00.002Z</time></trkpt><trkpt lat="44.49706674594406" lon="11.323653295212159"><ele>57.5</ele><time>2026-03-22T11:08:01.002Z</time></trkpt><trkpt lat="44.497056078279044" lon="11.32383982434256"><ele>59.0</ele><time>2026-03-22T11:08:02.002Z</time></trkpt><trkpt lat="44.497046028565656" lon="11.324016140436997"><ele>60.5</ele><time>2026-03-22T11:08:03.002Z</time></trkpt><trkpt lat="44.49703669801336" lon="11.324190418691586"><ele>62.0</ele><time>2026-03-22T11:08:03.997Z</time></trkpt><trkpt lat="44.497027414909276" lon="11.32437180695753"><ele>62.0</ele><time>2026-03-22T11:08:04.997Z</time></trkpt><trkpt lat="44.497021445229386" lon="11.324558060271018"><ele>62.0</ele><time>2026-03-22T11:08:05.997Z</time></trkpt><trkpt lat="44.497018339690555" lon="11.324744152088877"><ele>62.0</ele><time>2026-03-22T11:08:06.997Z</time></trkpt><trkpt lat="44.49701051061119" lon="11.324920627579237"><ele>62.0</ele><time>2026-03-22T11:08:07.997Z</time></trkpt><trkpt lat="44.49700309213957" lon="11.325093966532872"><ele>61.75</ele><time>2026-03-22T11:08:08.997Z</time></trkpt><trkpt lat="44.496996344403534" lon="11.325263101607755"><ele>61.5</ele><time>2026-03-22T11:08:09.997Z</time></trkpt><trkpt lat="44.496989273558306" lon="11.325429844595664"><ele>61.25</ele><time>2026-03-22T11:08:10.997Z</time></trkpt><trkpt lat="44.496980772560796" lon="11.325595249207836"><ele>61.0</ele><time>2026-03-22T11:08:11.998Z</time></trkpt><trkpt lat="44.49697102252564" lon="11.325756578729942"><ele>60.5</ele><time>2026-03-22T11:08:12.998Z</time></trkpt><trkpt lat="44.496958434135585" lon="11.325917402870264"><ele>60.0</ele><time>2026-03-22T11:08:13.998Z</time></trkpt><trkpt lat="44.49694958878292" lon="11.326078677106773"><ele>59.5</ele><time>2026-03-22T11:08:14.998Z</time></trkpt><trkpt lat="44.496941907013415" lon="11.326237883403705"><ele>59.0</ele><time>2026-03-22T11:08:15.998Z</time></trkpt><trkpt lat="44.49693801576016" lon="11.326389741484247"><ele>58.800000000000004</ele><time>2026-03-22T11:08:16.998Z</time></trkpt><trkpt lat="44.496940200608755" lon="11.326535138295643"><ele>58.60000000000001</ele><time>2026-03-22T11:08:17.998Z</time></trkpt><trkpt lat="44.49694306111547" lon="11.32667735440269"><ele>58.4</ele><time>2026-03-22T11:08:18.998Z</time></trkpt><trkpt lat="44.4969736533486" lon="11.32682152249029"><ele>58.2</ele><time>2026-03-22T11:08:19.998Z</time></trkpt><trkpt lat="44.496990877600425" lon="11.326969255538998"><ele>58.0</ele><time>2026-03-22T11:08:20.998Z</time></trkpt><trkpt lat="44.497006885961646" lon="11.327098830602104"><ele>58.0</ele><time>2026-03-22T11:08:21.998Z</time></trkpt><trkpt lat="44.496996554775905" lon="11.327224459958948"><ele>58.0</ele><time>2026-03-22T11:08:22.998Z</time></trkpt><trkpt lat="44.49700548748204" lon="11.327333470865051"><ele>58.0</ele><time>2026-03-22T11:08:23.998Z</time></trkpt><trkpt lat="44.49697909707303" lon="11.327487777262338"><ele>58.0</ele><time>2026-03-22T11:08:25.999Z</time></trkpt><trkpt lat="44.49690664049399" lon="11.327534818209346"><ele>58.0</ele><time>2026-03-22T11:08:26.999Z</time></trkpt><trkpt lat="44.496781426342366" lon="11.32755105929505"><ele>57.5</ele><time>2026-03-22T11:08:27.999Z</time></trkpt><trkpt lat="44.49661504040581" lon="11.3275849116963"><ele>57.0</ele><time>2026-03-22T11:08:28.999Z</time></trkpt><trkpt lat="44.49648980871696" lon="11.327635472282706"><ele>56.5</ele><time>2026-03-22T11:08:29.999Z</time></trkpt><trkpt lat="44.49637658112011" lon="11.327678073764183"><ele>56.0</ele><time>2026-03-22T11:08:30.999Z</time></trkpt><trkpt lat="44.496273101939124" lon="11.327713870780409"><ele>57.4</ele><time>2026-03-22T11:08:31.999Z</time></trkpt><trkpt lat="44.49617372223769" lon="11.327748088892006"><ele>58.8</ele><time>2026-03-22T11:08:32.999Z</time></trkpt><trkpt lat="44.49608579102554" lon="11.327785810727239"><ele>60.199999999999996</ele><time>2026-03-22T11:08:33.999Z</time></trkpt><trkpt lat="44.4959959357087" lon="11.327812521966326"><ele>61.599999999999994</ele><time>2026-03-22T11:08:34.999Z</time></trkpt><trkpt lat="44.49590930195678" lon="11.327834848796613"><ele>63.0</ele><time>2026-03-22T11:08:35.999Z</time></trkpt><trkpt lat="44.4958344815972" lon="11.327861092839491"><ele>63.0</ele><time>2026-03-22T11:08:36.999Z</time></trkpt><trkpt lat="44.49576873249397" lon="11.32788319591664"><ele>63.0</ele><time>2026-03-22T11:08:37.999Z</time></trkpt><trkpt lat="44.49569676200769" lon="11.32789496214491"><ele>63.0</ele><time>2026-03-22T11:08:38.999Z</time></trkpt><trkpt lat="44.49562912885556" lon="11.327923973998427"><ele>63.0</ele><time>2026-03-22T11:08:39.999Z</time></trkpt><trkpt lat="44.49556994993226" lon="11.327955794100006"><ele>63.0</ele><time>2026-03-22T11:08:40.999Z</time></trkpt><trkpt lat="44.49546772231658" lon="11.327986389636738"><ele>63.0</ele><time>2026-03-22T11:08:42.999Z</time></trkpt><trkpt lat="44.49536316013999" lon="11.328014044762838"><ele>63.0</ele><time>2026-03-22T11:08:44.999Z</time></trkpt><trkpt lat="44.495252557157286" lon="11.328042235421327"><ele>63.0</ele><time>2026-03-22T11:08:47Z</time></trkpt><trkpt lat="44.495135936485724" lon="11.328081007092281"><ele>63.0</ele><time>2026-03-22T11:08:49Z</time></trkpt><trkpt lat="44.49505391932442" lon="11.328096553650102"><ele>63.0</ele><time>2026-03-22T11:08:51Z</time></trkpt><trkpt lat="44.494945615057404" lon="11.328125515514369"><ele>63.0</ele><time>2026-03-22T11:08:59Z</time></trkpt><trkpt lat="44.494871490647725" lon="11.32814623165268"><ele>63.0</ele><time>2026-03-22T11:09:01Z</time></trkpt><trkpt lat="44.4947615380423" lon="11.328175558650567"><ele>63.0</ele><time>2026-03-22T11:09:03Z</time></trkpt><trkpt lat="44.49469628759033" lon="11.328194011576462"><ele>63.0</ele><time>2026-03-22T11:09:04Z</time></trkpt><trkpt lat="44.49462810184746" lon="11.32821871994463"><ele>63.0</ele><time>2026-03-22T11:09:05Z</time></trkpt><trkpt lat="44.494550755995355" lon="11.32824470555276"><ele>63.0</ele><time>2026-03-22T11:09:06Z</time></trkpt><trkpt lat="44.49447402855038" lon="11.328271764367962"><ele>63.0</ele><time>2026-03-22T11:09:07Z</time></trkpt><trkpt lat="44.49439200167969" lon="11.328300785901941"><ele>63.166666666666664</ele><time>2026-03-22T11:09:08Z</time></trkpt><trkpt lat="44.49431095157906" lon="11.3283260957231"><ele>63.33333333333333</ele><time>2026-03-22T11:09:09Z</time></trkpt><trkpt lat="44.49422965401095" lon="11.328347992699308"><ele>63.5</ele><time>2026-03-22T11:09:10Z</time></trkpt><trkpt lat="44.494148813008266" lon="11.328370854956828"><ele>63.666666666666664</ele><time>2026-03-22T11:09:11Z</time></trkpt><trkpt lat="44.494072170695176" lon="11.328396207211545"><ele>63.83333333333333</ele><time>2026-03-22T11:09:12Z</time></trkpt><trkpt lat="44.493994223561664" lon="11.328419065619922"><ele>64.0</ele><time>2026-03-22T11:09:13Z</time></trkpt><trkpt lat="44.493920107799035" lon="11.328438701187075"><ele>64.0</ele><time>2026-03-22T11:09:14Z</time></trkpt><trkpt lat="44.49381086871527" lon="11.328459097166455"><ele>64.0</ele><time>2026-03-22T11:09:16Z</time></trkpt><trkpt lat="44.493736668817505" lon="11.328276202575216"><ele>64.0</ele><time>2026-03-22T11:09:19.001Z</time></trkpt><trkpt lat="44.49373488643875" lon="11.328150432611956"><ele>64.0</ele><time>2026-03-22T11:09:20.001Z</time></trkpt><trkpt lat="44.49370237246586" lon="11.328003279867215"><ele>63.75</ele><time>2026-03-22T11:09:21.001Z</time></trkpt><trkpt lat="44.493676279634045" lon="11.32783392895957"><ele>63.5</ele><time>2026-03-22T11:09:22.001Z</time></trkpt><trkpt lat="44.4936479914039" lon="11.327686845456402"><ele>63.25</ele><time>2026-03-22T11:09:23.001Z</time></trkpt><trkpt lat="44.493623835000605" lon="11.327525070791882"><ele>63.0</ele><time>2026-03-22T11:09:24.001Z</time></trkpt><trkpt lat="44.493585397236636" lon="11.327380145948451"><ele>63.0</ele><time>2026-03-22T11:09:25.001Z</time></trkpt><trkpt lat="44.49356010618" lon="11.327248874159702"><ele>63.0</ele><time>2026-03-22T11:09:26.001Z</time></trkpt><trkpt lat="44.49353186235633" lon="11.327123101362522"><ele>63.0</ele><time>2026-03-22T11:09:27.001Z</time></trkpt><trkpt lat="44.49350373898153" lon="11.327013734642891"><ele>63.0</ele><time>2026-03-22T11:09:28.001Z</time></trkpt><trkpt lat="44.493487171488034" lon="11.326920857648666"><ele>63.0</ele><time>2026-03-22T11:09:29.001Z</time></trkpt><trkpt lat="44.49345603187919" lon="11.326809826826157"><ele>63.0</ele><time>2026-03-22T11:09:31.001Z</time></trkpt><trkpt lat="44.493428063903885" lon="11.326706975156931"><ele>63.0</ele><time>2026-03-22T11:09:33.001Z</time></trkpt><trkpt lat="44.493413435707104" lon="11.326614922199528"><ele>63.0</ele><time>2026-03-22T11:09:34.001Z</time></trkpt><trkpt lat="44.493382529374635" lon="11.326476536596736"><ele>63.0</ele><time>2026-03-22T11:09:35.001Z</time></trkpt><trkpt lat="44.49334312960375" lon="11.32629435422389"><ele>63.0</ele><time>2026-03-22T11:09:36.001Z</time></trkpt><trkpt lat="44.4933036906478" lon="11.326115728767377"><ele>63.0</ele><time>2026-03-22T11:09:37.001Z</time></trkpt><trkpt lat="44.49326072889889" lon="11.325931175663662"><ele>63.0</ele><time>2026-03-22T11:09:38.001Z</time></trkpt><trkpt lat="44.49322779763089" lon="11.32576571352176"><ele>63.0</ele><time>2026-03-22T11:09:39.001Z</time></trkpt><trkpt lat="44.49321344834584" lon="11.325612379508382"><ele>63.0</ele><time>2026-03-22T11:09:40.001Z</time></trkpt><trkpt lat="44.49318678691363" lon="11.325478814466686"><ele>63.0</ele><time>2026-03-22T11:09:41.001Z</time></trkpt><trkpt lat="44.493157666787745" lon="11.325332932362588"><ele>63.0</ele><time>2026-03-22T11:09:42.001Z</time></trkpt><trkpt lat="44.493111438638714" lon="11.32517132880478"><ele>63.25</ele><time>2026-03-22T11:09:43.001Z</time></trkpt><trkpt lat="44.49307464178488" lon="11.324995866218114"><ele>63.5</ele><time>2026-03-22T11:09:44.001Z</time></trkpt><trkpt lat="44.493052379614795" lon="11.324803521047528"><ele>63.75</ele><time>2026-03-22T11:09:45.001Z</time></trkpt><trkpt lat="44.49301358516192" lon="11.324608500265834"><ele>64.0</ele><time>2026-03-22T11:09:46.001Z</time></trkpt><trkpt lat="44.492973241048055" lon="11.324406640886206"><ele>64.25</ele><time>2026-03-22T11:09:47.001Z</time></trkpt><trkpt lat="44.49293458958823" lon="11.324213787272246"><ele>64.5</ele><time>2026-03-22T11:09:48.001Z</time></trkpt><trkpt lat="44.49288098138479" lon="11.324021778412709"><ele>64.75</ele><time>2026-03-22T11:09:49.001Z</time></trkpt><trkpt lat="44.49284572839065" lon="11.323849791000454"><ele>65.0</ele><time>2026-03-22T11:09:50.001Z</time></trkpt><trkpt lat="44.4928149684748" lon="11.323686297373236"><ele>64.5</ele><time>2026-03-22T11:09:51.001Z</time></trkpt><trkpt lat="44.49278324953789" lon="11.323525393551071"><ele>64.0</ele><time>2026-03-22T11:09:52.001Z</time></trkpt><trkpt lat="44.492746994104984" lon="11.323366316536056"><ele>63.5</ele><time>2026-03-22T11:09:53.001Z</time></trkpt><trkpt lat="44.492720330918374" lon="11.323205406239397"><ele>63.0</ele><time>2026-03-22T11:09:54.001Z</time></trkpt><trkpt lat="44.492692665750155" lon="11.323060197303505"><ele>62.599999999999994</ele><time>2026-03-22T11:09:55.002Z</time></trkpt><trkpt lat="44.492680363560474" lon="11.322921583687323"><ele>62.199999999999996</ele><time>2026-03-22T11:09:56.002Z</time></trkpt><trkpt lat="44.492686643126056" lon="11.322786441715749"><ele>61.8</ele><time>2026-03-22T11:09:57.002Z</time></trkpt><trkpt lat="44.49271276422584" lon="11.322660690601834"><ele>61.4</ele><time>2026-03-22T11:09:58.002Z</time></trkpt><trkpt lat="44.492727444734506" lon="11.322557969668004"><ele>61.0</ele><time>2026-03-22T11:09:59.002Z</time></trkpt><trkpt lat="44.49266390427825" lon="11.322429130162766"><ele>61.0</ele><time>2026-03-22T11:10:01.002Z</time></trkpt><trkpt lat="44.492579341152755" lon="11.322382688664277"><ele>61.0</ele><time>2026-03-22T11:10:02.002Z</time></trkpt><trkpt lat="44.49246168268475" lon="11.322330407655118"><ele>61.0</ele><time>2026-03-22T11:10:03.002Z</time></trkpt><trkpt lat="44.49230617885989" lon="11.3222528232024"><ele>61.0</ele><time>2026-03-22T11:10:04.002Z</time></trkpt><trkpt lat="44.492176892415834" lon="11.322156139728113"><ele>61.25</ele><time>2026-03-22T11:10:05.002Z</time></trkpt><trkpt lat="44.49206290523001" lon="11.32210641658899"><ele>61.5</ele><time>2026-03-22T11:10:06.002Z</time></trkpt><trkpt lat="44.49195041522129" lon="11.322043653945356"><ele>61.75</ele><time>2026-03-22T11:10:07.002Z</time></trkpt><trkpt lat="44.49184962509242" lon="11.321981512987541"><ele>62.0</ele><time>2026-03-22T11:10:08.002Z</time></trkpt><trkpt lat="44.49175418941785" lon="11.321930242298443"><ele>62.00000000000001</ele><time>2026-03-22T11:10:09.002Z</time></trkpt><trkpt lat="44.49167533902147" lon="11.321893105563936"><ele>62.0</ele><time>2026-03-22T11:10:09.998Z</time></trkpt><trkpt lat="44.49161503997048" lon="11.321848256925161"><ele>62.0</ele><time>2026-03-22T11:10:11.998Z</time></trkpt><trkpt lat="44.49150934718283" lon="11.321774756290946"><ele>62.0</ele><time>2026-03-22T11:10:13.999Z</time></trkpt><trkpt lat="44.49144133688159" lon="11.321730881989147"><ele>62.00000000000001</ele><time>2026-03-22T11:10:14.999Z</time></trkpt><trkpt lat="44.491351629792184" lon="11.321700201832929"><ele>62.0</ele><time>2026-03-22T11:10:15.999Z</time></trkpt><trkpt lat="44.491265831348194" lon="11.321653428918975"><ele>63.00000000000001</ele><time>2026-03-22T11:10:16.999Z</time></trkpt><trkpt lat="44.49118186335674" lon="11.32160526374285"><ele>64.0</ele><time>2026-03-22T11:10:17.999Z</time></trkpt><trkpt lat="44.49112248750253" lon="11.321572802077968"><ele>65.0</ele><time>2026-03-22T11:10:18.999Z</time></trkpt><trkpt lat="44.49103784301076" lon="11.321521764745652"><ele>66.0</ele><time>2026-03-22T11:10:20.999Z</time></trkpt><trkpt lat="44.49097924411871" lon="11.321474860845859"><ele>67.0</ele><time>2026-03-22T11:10:23.999Z</time></trkpt><trkpt lat="44.49092176039356" lon="11.3214286793522"><ele>68.0</ele><time>2026-03-22T11:10:25.999Z</time></trkpt><trkpt lat="44.4909143777574" lon="11.321235354566442"><ele>67.83333333333334</ele><time>2026-03-22T11:10:35Z</time></trkpt><trkpt lat="44.49094859109633" lon="11.321128505029025"><ele>67.66666666666667</ele><time>2026-03-22T11:10:36Z</time></trkpt><trkpt lat="44.49097467071752" lon="11.321013587854361"><ele>67.5</ele><time>2026-03-22T11:10:37Z</time></trkpt><trkpt lat="44.49100239557781" lon="11.32089919198998"><ele>67.33333333333333</ele><time>2026-03-22T11:10:38Z</time></trkpt><trkpt lat="44.491023274973124" lon="11.320801100261754"><ele>67.16666666666666</ele><time>2026-03-22T11:10:39Z</time></trkpt><trkpt lat="44.491049121918486" lon="11.320718260527617"><ele>67.0</ele><time>2026-03-22T11:10:40Z</time></trkpt><trkpt lat="44.491094580343486" lon="11.320550069436814"><ele>67.0</ele><time>2026-03-22T11:10:42Z</time></trkpt><trkpt lat="44.491115472774425" lon="11.320458783544572"><ele>67.0</ele><time>2026-03-22T11:10:43Z</time></trkpt><trkpt lat="44.49113950117503" lon="11.32036785406465"><ele>67.0</ele><time>2026-03-22T11:10:44Z</time></trkpt><trkpt lat="44.49116325413687" lon="11.320282129752332"><ele>67.0</ele><time>2026-03-22T11:10:45Z</time></trkpt><trkpt lat="44.49121184447954" lon="11.320118695142023"><ele>67.0</ele><time>2026-03-22T11:10:47Z</time></trkpt><trkpt lat="44.49123240449429" lon="11.320030082278507"><ele>67.0</ele><time>2026-03-22T11:10:48Z</time></trkpt><trkpt lat="44.491274390680665" lon="11.319867438820275"><ele>66.25</ele><time>2026-03-22T11:10:50Z</time></trkpt><trkpt lat="44.49132374461268" lon="11.319712518709869"><ele>65.5</ele><time>2026-03-22T11:10:52Z</time></trkpt><trkpt lat="44.49135732792043" lon="11.319550163934911"><ele>64.75</ele><time>2026-03-22T11:10:54Z</time></trkpt><trkpt lat="44.4913957060765" lon="11.319403174466903"><ele>64.0</ele><time>2026-03-22T11:10:56Z</time></trkpt><trkpt lat="44.491426734076626" lon="11.319255814865949"><ele>64.0</ele><time>2026-03-22T11:10:58.001Z</time></trkpt><trkpt lat="44.49145640921614" lon="11.319120934979255"><ele>64.0</ele><time>2026-03-22T11:11:00.001Z</time></trkpt><trkpt lat="44.491488473461686" lon="11.3189944993242"><ele>64.0</ele><time>2026-03-22T11:11:02.001Z</time></trkpt><trkpt lat="44.49152035602572" lon="11.318879140199982"><ele>64.0</ele><time>2026-03-22T11:11:04.001Z</time></trkpt><trkpt lat="44.49154993514361" lon="11.31877082759198"><ele>64.0</ele><time>2026-03-22T11:11:06.001Z</time></trkpt><trkpt lat="44.491583181247634" lon="11.318644099378208"><ele>63.800000000000004</ele><time>2026-03-22T11:11:08.001Z</time></trkpt><trkpt lat="44.49160300609664" lon="11.318508502431857"><ele>63.60000000000001</ele><time>2026-03-22T11:11:10.001Z</time></trkpt><trkpt lat="44.491640391607305" lon="11.318359125184946"><ele>63.4</ele><time>2026-03-22T11:11:12.001Z</time></trkpt><trkpt lat="44.491678906277" lon="11.31820588061673"><ele>63.2</ele><time>2026-03-22T11:11:14.001Z</time></trkpt><trkpt lat="44.49171155884598" lon="11.318060340767541"><ele>63.0</ele><time>2026-03-22T11:11:16.001Z</time></trkpt><trkpt lat="44.49172376470565" lon="11.317967377884854"><ele>63.0</ele><time>2026-03-22T11:11:18.001Z</time></trkpt><trkpt lat="44.49161390574858" lon="11.31784618778449"><ele>63.0</ele><time>2026-03-22T11:11:25.001Z</time></trkpt><trkpt lat="44.49151611470036" lon="11.317792212992451"><ele>63.0</ele><time>2026-03-22T11:11:27.001Z</time></trkpt><trkpt lat="44.49142518460746" lon="11.317740898966417"><ele>63.0</ele><time>2026-03-22T11:11:29.001Z</time></trkpt><trkpt lat="44.491322650339946" lon="11.317704721692998"><ele>63.0</ele><time>2026-03-22T11:11:31.002Z</time></trkpt><trkpt lat="44.49123350015194" lon="11.317661511300052"><ele>63.4</ele><time>2026-03-22T11:11:33.002Z</time></trkpt><trkpt lat="44.49116401062667" lon="11.317617886421166"><ele>63.8</ele><time>2026-03-22T11:11:35.002Z</time></trkpt><trkpt lat="44.49109879036617" lon="11.317600098520918"><ele>64.2</ele><time>2026-03-22T11:11:37.002Z</time></trkpt><trkpt lat="44.49097790224863" lon="11.317545749676507"><ele>64.6</ele><time>2026-03-22T11:11:39.002Z</time></trkpt><trkpt lat="44.49089270185844" lon="11.317497887819117"><ele>65.0</ele><time>2026-03-22T11:11:40.002Z</time></trkpt><trkpt lat="44.49079499854819" lon="11.317458376955761"><ele>65.0</ele><time>2026-03-22T11:11:41.002Z</time></trkpt><trkpt lat="44.4907109429522" lon="11.317416268641688"><ele>65.0</ele><time>2026-03-22T11:11:42.002Z</time></trkpt><trkpt lat="44.49061419544932" lon="11.317370679670319"><ele>65.0</ele><time>2026-03-22T11:11:43.002Z</time></trkpt><trkpt lat="44.49051677580382" lon="11.317326763679025"><ele>65.0</ele><time>2026-03-22T11:11:44.002Z</time></trkpt><trkpt lat="44.49042442000248" lon="11.317270906523266"><ele>65.0</ele><time>2026-03-22T11:11:45.002Z</time></trkpt><trkpt lat="44.4903434428682" lon="11.317230192351863"><ele>65.66666666666667</ele><time>2026-03-22T11:11:46.002Z</time></trkpt><trkpt lat="44.490263890426256" lon="11.317195070909435"><ele>66.33333333333334</ele><time>2026-03-22T11:11:47.002Z</time></trkpt><trkpt lat="44.490193165641244" lon="11.317124192391544"><ele>67.0</ele><time>2026-03-22T11:11:48.002Z</time></trkpt><trkpt lat="44.49013045836997" lon="11.317092689840614"><ele>67.66666666666667</ele><time>2026-03-22T11:11:49.002Z</time></trkpt><trkpt lat="44.49002837127261" lon="11.317048275466586"><ele>68.33333333333333</ele><time>2026-03-22T11:11:51.002Z</time></trkpt><trkpt lat="44.4899395535907" lon="11.317023983824498"><ele>69.0</ele><time>2026-03-22T11:11:53.002Z</time></trkpt><trkpt lat="44.489876752475254" lon="11.31706442585712"><ele>69.0</ele><time>2026-03-22T11:11:55.002Z</time></trkpt><trkpt lat="44.489863199462434" lon="11.31719958894162"><ele>69.0</ele><time>2026-03-22T11:11:57.002Z</time></trkpt><trkpt lat="44.48987515097723" lon="11.31736842752842"><ele>69.0</ele><time>2026-03-22T11:11:59.002Z</time></trkpt><trkpt lat="44.48985034842173" lon="11.31753474489182"><ele>69.0</ele><time>2026-03-22T11:12:01.002Z</time></trkpt><trkpt lat="44.48985046131262" lon="11.317689347098618"><ele>68.66666666666667</ele><time>2026-03-22T11:12:03.003Z</time></trkpt><trkpt lat="44.48988522109665" lon="11.317831365866915"><ele>68.33333333333333</ele><time>2026-03-22T11:12:05.003Z</time></trkpt><trkpt lat="44.48989435262838" lon="11.317927338365399"><ele>68.0</ele><time>2026-03-22T11:12:06.003Z</time></trkpt><trkpt lat="44.4899111786087" lon="11.31801945203695"><ele>67.66666666666666</ele><time>2026-03-22T11:12:07.003Z</time></trkpt><trkpt lat="44.489931135597075" lon="11.318123755560492"><ele>67.33333333333333</ele><time>2026-03-22T11:12:08.003Z</time></trkpt><trkpt lat="44.489954857896755" lon="11.318233342517315"><ele>67.0</ele><time>2026-03-22T11:12:09.003Z</time></trkpt><trkpt lat="44.48998072083254" lon="11.31834625479521"><ele>67.16666666666666</ele><time>2026-03-22T11:12:10.003Z</time></trkpt><trkpt lat="44.490002823508505" lon="11.318450278467425"><ele>67.33333333333333</ele><time>2026-03-22T11:12:11.003Z</time></trkpt><trkpt lat="44.49001875658993" lon="11.318541633454258"><ele>67.5</ele><time>2026-03-22T11:12:12.003Z</time></trkpt><trkpt lat="44.490017934067495" lon="11.318637011040034"><ele>67.66666666666667</ele><time>2026-03-22T11:12:13.003Z</time></trkpt><trkpt lat="44.49002951797418" lon="11.318748572491831"><ele>67.83333333333334</ele><time>2026-03-22T11:12:14.003Z</time></trkpt><trkpt lat="44.49005513951962" lon="11.318863078127388"><ele>68.0</ele><time>2026-03-22T11:12:15.003Z</time></trkpt><trkpt lat="44.4900797019667" lon="11.318965289606876"><ele>68.0</ele><time>2026-03-22T11:12:16.001Z</time></trkpt><trkpt lat="44.49010274091049" lon="11.319061161339413"><ele>68.0</ele><time>2026-03-22T11:12:17.001Z</time></trkpt><trkpt lat="44.4901250264728" lon="11.319159966904792"><ele>68.0</ele><time>2026-03-22T11:12:18.001Z</time></trkpt><trkpt lat="44.49014757078102" lon="11.319261747821026"><ele>68.0</ele><time>2026-03-22T11:12:19.001Z</time></trkpt><trkpt lat="44.49016660226527" lon="11.319347669378363"><ele>68.0</ele><time>2026-03-22T11:12:20.001Z</time></trkpt><trkpt lat="44.490206857128555" lon="11.319493638454281"><ele>68.0</ele><time>2026-03-22T11:12:22.001Z</time></trkpt><trkpt lat="44.490234054413335" lon="11.31960395234652"><ele>68.0</ele><time>2026-03-22T11:12:24.001Z</time></trkpt><trkpt lat="44.490215020929085" lon="11.319717116530267"><ele>68.0</ele><time>2026-03-22T11:12:29.001Z</time></trkpt><trkpt lat="44.49012112494922" lon="11.319702023009917"><ele>68.0</ele><time>2026-03-22T11:12:31.001Z</time></trkpt><trkpt lat="44.4900262989715" lon="11.319744205860317"><ele>68.0</ele><time>2026-03-22T11:12:33Z</time></trkpt><trkpt lat="44.48994712336169" lon="11.319780985734711"><ele>68.0</ele><time>2026-03-22T11:12:35Z</time></trkpt><trkpt lat="44.48988005720552" lon="11.319812700887054"><ele>68.0</ele><time>2026-03-22T11:12:37Z</time></trkpt><trkpt lat="44.489803652246195" lon="11.319848832192687"><ele>68.0</ele><time>2026-03-22T11:12:39Z</time></trkpt><trkpt lat="44.489716409950276" lon="11.319890088320149"><ele>68.0</ele><time>2026-03-22T11:12:41Z</time></trkpt><trkpt lat="44.489654396197096" lon="11.319935205620789"><ele>68.0</ele><time>2026-03-22T11:12:44.001Z</time></trkpt><trkpt lat="44.48973818207944" lon="11.31987979246539"><ele>68.0</ele><time>2026-03-22T11:13:05.001Z</time></trkpt><trkpt lat="44.48980904836344" lon="11.319846280413133"><ele>68.0</ele><time>2026-03-22T11:13:07.001Z</time></trkpt><trkpt lat="44.489870710031376" lon="11.319814538805645"><ele>68.0</ele><time>2026-03-22T11:13:10.001Z</time></trkpt><trkpt lat="44.48983422163417" lon="11.319620101535769"><ele>68.0</ele><time>2026-03-22T11:13:14.001Z</time></trkpt><trkpt lat="44.489814587245704" lon="11.319519390027272"><ele>68.0</ele><time>2026-03-22T11:13:16.001Z</time></trkpt><trkpt lat="44.48977740838385" lon="11.319389549586463"><ele>68.0</ele><time>2026-03-22T11:13:18.001Z</time></trkpt><trkpt lat="44.48974927013916" lon="11.31927891675566"><ele>68.0</ele><time>2026-03-22T11:13:20.001Z</time></trkpt><trkpt lat="44.48973031973427" lon="11.319193260678594"><ele>68.0</ele><time>2026-03-22T11:13:22.001Z</time></trkpt><trkpt lat="44.489752673388445" lon="11.319308921307053"><ele>68.0</ele><time>2026-03-22T11:13:38.002Z</time></trkpt><trkpt lat="44.48980234664415" lon="11.31944753151353"><ele>68.0</ele><time>2026-03-22T11:13:40.002Z</time></trkpt><trkpt lat="44.48982382939385" lon="11.319537882201582"><ele>68.0</ele><time>2026-03-22T11:13:42.002Z</time></trkpt><trkpt lat="44.48986106222313" lon="11.319661532809642"><ele>68.0</ele><time>2026-03-22T11:13:45.002Z</time></trkpt><trkpt lat="44.489889527457464" lon="11.319780792555537"><ele>68.0</ele><time>2026-03-22T11:13:48.002Z</time></trkpt><trkpt lat="44.489894375559146" lon="11.319871426628312"><ele>68.0</ele><time>2026-03-22T11:13:54.002Z</time></trkpt><trkpt lat="44.489869687947326" lon="11.319757059830062"><ele>68.0</ele><time>2026-03-22T11:14:12.002Z</time></trkpt><trkpt lat="44.4898445409985" lon="11.319640564973682"><ele>68.0</ele><time>2026-03-22T11:14:14.002Z</time></trkpt><trkpt lat="44.48981674223732" lon="11.319511785451022"><ele>68.0</ele><time>2026-03-22T11:14:16.002Z</time></trkpt><trkpt lat="44.489790232377416" lon="11.31939029248243"><ele>68.0</ele><time>2026-03-22T11:14:18.002Z</time></trkpt><trkpt lat="44.48975866853632" lon="11.319251657781985"><ele>68.0</ele><time>2026-03-22T11:14:20.002Z</time></trkpt><trkpt lat="44.48972502278171" lon="11.319103878889212"><ele>68.0</ele><time>2026-03-22T11:14:22.001Z</time></trkpt><trkpt lat="44.48969217191691" lon="11.318959591320045"><ele>68.0</ele><time>2026-03-22T11:14:24.001Z</time></trkpt><trkpt lat="44.489657363783294" lon="11.318806064679473"><ele>65.0</ele><time>2026-03-22T11:14:26.001Z</time></trkpt><trkpt lat="44.489625865946316" lon="11.318659457460212"><ele>65.0</ele><time>2026-03-22T11:14:28.001Z</time></trkpt><trkpt lat="44.48960191531154" lon="11.318547978855664"><ele>65.0</ele><time>2026-03-22T11:14:30.001Z</time></trkpt><trkpt lat="44.489582465235394" lon="11.318457448437206"><ele>74.0</ele><time>2026-03-22T11:14:32.001Z</time></trkpt></trkseg></trk></gpx>